Provisional Data: Little Chiques Creek near Mount Joy, PA


Please select a monitoring station.
Please select start date.
Please select start date.

Toggle Unit: C/F Toggle Unit: C/F
Sample Time Temperature (C) Temperature (F) Specific Conductivity (mS/cm) pH   Turbidity (NTU+) DO (mg/L)
12/4/2020 12:00:00 AM 5.81 42.458 0.406 7.52 3.84 11.67
12/4/2020 12:15:00 AM 5.8 42.44 0.406 7.52 3.78 11.66
12/4/2020 12:30:00 AM 5.79 42.422 0.406 7.52 3.66 11.65
12/4/2020 12:45:00 AM 5.02 41.036 0.353 6.52 3.05 10.08
12/4/2020 1:00:00 AM 5.67 42.206 0.399 7.38 3.49 11.4
12/4/2020 1:15:00 AM 5.75 42.35 0.406 7.5 3.54 11.58
12/4/2020 1:30:00 AM 5.75 42.35 0.407 7.51 3.75 11.59
12/4/2020 1:45:00 AM 5.75 42.35 0.407 7.51 3.74 11.57
12/4/2020 2:00:00 AM 5.74 42.332 0.407 7.51 4.88 11.6
12/4/2020 2:15:00 AM 5.74 42.332 0.407 7.51 4.3 11.59
12/4/2020 2:30:00 AM 5.74 42.332 0.407 7.51 3.81 11.52
12/4/2020 2:45:00 AM 5.74 42.332 0.407 7.51 3.68 11.55
12/4/2020 3:00:00 AM 5.75 42.35 0.408 7.51 3.66 11.52
12/4/2020 3:15:00 AM 5.75 42.35 0.408 7.51 3.62 11.54
12/4/2020 3:30:00 AM 5.75 42.35 0.407 7.51 3.65 11.47
12/4/2020 3:45:00 AM 5.76 42.368 0.408 7.5 3.75 11.52
12/4/2020 4:00:00 AM 5.76 42.368 0.408 7.5 3.76 11.51
12/4/2020 4:15:00 AM 5.77 42.386 0.408 7.5 3.71 11.52
12/4/2020 4:30:00 AM 5.77 42.386 0.408 7.5 3.86 11.48
12/4/2020 4:45:00 AM 5.77 42.386 0.408 7.5 3.82 11.51
12/4/2020 5:00:00 AM 5.78 42.404 0.408 7.5 3.97 11.5
12/4/2020 5:15:00 AM 5.79 42.422 0.408 7.5 3.78 11.48
12/4/2020 5:30:00 AM 5.8 42.44 0.408 7.5 3.78 11.47
12/4/2020 5:45:00 AM 5.81 42.458 0.408 7.5 3.81 11.46
12/4/2020 6:00:00 AM 5.82 42.476 0.408 7.5 3.92 11.42
12/4/2020 6:15:00 AM 5.83 42.494 0.409 7.5 4.18 11.46
12/4/2020 6:30:00 AM 5.84 42.512 0.409 7.5 4.03 11.44
12/4/2020 6:45:00 AM 5.84 42.512 0.409 7.5 3.83 11.44
12/4/2020 7:00:00 AM 5.85 42.53 0.409 7.5 3.78 11.42
12/4/2020 7:15:00 AM 5.86 42.548 0.409 7.49 3.73 11.42
12/4/2020 7:30:00 AM 5.87 42.566 0.409 7.5 4.44 11.43
12/4/2020 7:45:00 AM 5.87 42.566 0.409 7.5 3.72 11.45
12/4/2020 8:00:00 AM 5.89 42.602 0.409 7.5 5.01 11.47
12/4/2020 8:15:00 AM 5.91 42.638 0.409 7.51 7.43 11.52
12/4/2020 8:30:00 AM 5.94 42.692 0.409 7.51 8.84 11.58
12/4/2020 8:45:00 AM 5.97 42.746 0.409 7.52 6.99 11.6
12/4/2020 9:00:00 AM 6 42.8 0.409 7.52 5.01 11.67
12/4/2020 9:15:00 AM 6.03 42.854 0.409 7.53 4.58 11.73
12/4/2020 9:30:00 AM 6.06 42.908 0.409 7.53 4.68 11.78
12/4/2020 9:45:00 AM 6.11 42.998 0.409 7.54 4.38 11.74
12/4/2020 10:00:00 AM 6.14 43.052 0.409 7.54 5.03 11.81
12/4/2020 10:15:00 AM 6.19 43.142 0.409 7.55 5.1 11.83
12/4/2020 10:30:00 AM 6.24 43.232 0.409 7.55 4.3 11.9
12/4/2020 10:45:00 AM 6.26 43.268 0.409 7.55 9.57 11.88
12/4/2020 11:00:00 AM 6.29 43.322 0.409 7.56 4.99 11.87
12/4/2020 11:15:00 AM 6.32 43.376 0.409 7.56 4.4 11.85
12/4/2020 11:30:00 AM 6.34 43.412 0.41 7.56 3.97 11.85
12/4/2020 11:45:00 AM 6.37 43.466 0.409 7.56 5.57 11.88
12/4/2020 12:00:00 PM 6.4 43.52 0.41 7.56 4.39 11.91
12/4/2020 12:15:00 PM 6.43 43.574 0.41 7.57 3.86 11.92
12/4/2020 12:30:00 PM 6.46 43.628 0.41 7.57 3.96 11.85
12/4/2020 12:45:00 PM 6.48 43.664 0.41 7.57 3.93 11.89
12/4/2020 1:00:00 PM 6.5 43.7 0.411 7.57 4.21 11.83
12/4/2020 1:15:00 PM 6.52 43.736 0.411 7.57 3.96 11.93
12/4/2020 1:30:00 PM 6.53 43.754 0.411 7.57 3.92 11.89
12/4/2020 1:45:00 PM 6.55 43.79 0.411 7.57 3.75 11.9
12/4/2020 2:00:00 PM 6.57 43.826 0.411 7.57 3.77 11.93
12/4/2020 2:15:00 PM 6.58 43.844 0.41 7.57 3.68 11.88
12/4/2020 2:30:00 PM 6.59 43.862 0.41 7.57 3.94 11.82
12/4/2020 2:45:00 PM 6.59 43.862 0.409 7.57 3.85 11.83
12/4/2020 3:00:00 PM 6.6 43.88 0.408 7.57 3.83 11.82
12/4/2020 3:15:00 PM 6.61 43.898 0.408 7.57 4.16 11.84
12/4/2020 3:30:00 PM 6.63 43.934 0.408 7.57 4.36 11.84
12/4/2020 3:45:00 PM 6.64 43.952 0.408 7.57 4.25 11.77
12/4/2020 4:00:00 PM 6.65 43.97 0.408 7.57 4.05 11.78
12/4/2020 4:15:00 PM 6.66 43.988 0.407 7.57 3.96 11.76
12/4/2020 4:30:00 PM 6.66 43.988 0.407 7.57 4.05 11.69
12/4/2020 4:45:00 PM 6.67 44.006 0.406 7.57 4.05 11.65
12/4/2020 5:00:00 PM 6.67 44.006 0.406 7.56 3.97 11.64
12/4/2020 5:15:00 PM 6.68 44.024 0.405 7.56 3.85 11.55
12/4/2020 5:30:00 PM 6.69 44.042 0.404 7.55 4.14 11.57
12/4/2020 5:45:00 PM 6.69 44.042 0.403 7.55 4.32 11.52
12/4/2020 6:00:00 PM 6.7 44.06 0.402 7.56 4.24 11.51
12/4/2020 6:15:00 PM 6.71 44.078 0.402 7.56 4.26 11.53
12/4/2020 6:30:00 PM 6.72 44.096 0.401 7.55 4.39 11.48
12/4/2020 6:45:00 PM 6.73 44.114 0.401 7.55 4.3 11.45
12/4/2020 7:00:00 PM 6.74 44.132 0.401 7.55 4.3 11.42
12/4/2020 7:15:00 PM 6.75 44.15 0.401 7.55 4.68 11.41
12/4/2020 7:30:00 PM 6.76 44.168 0.4 7.54 4.44 11.42
12/4/2020 7:45:00 PM 6.76 44.168 0.4 7.55 4.34 11.39
12/4/2020 8:00:00 PM 6.77 44.186 0.399 7.54 4.42 11.41
12/4/2020 8:15:00 PM 6.78 44.204 0.399 7.54 4.57 11.35
12/4/2020 8:30:00 PM 6.78 44.204 0.399 7.54 4.39 11.27
12/4/2020 8:45:00 PM 6.78 44.204 0.399 7.54 4.4 11.35
12/4/2020 9:00:00 PM 6.79 44.222 0.398 7.54 4.65 11.36
12/4/2020 9:15:00 PM 5.89 42.602 0.345 6.53 4.51 9.8
12/4/2020 9:30:00 PM 6.66 43.988 0.389 7.4 5.04 11.1
12/4/2020 9:45:00 PM 6.76 44.168 0.394 7.52 5.04 11.26
12/4/2020 10:00:00 PM 6.76 44.168 0.393 7.53 4.91 11.3
12/4/2020 10:15:00 PM 6.76 44.168 0.392 7.53 5.02 11.29
12/4/2020 10:30:00 PM 6.75 44.15 0.391 7.53 4.95 11.27
12/4/2020 10:45:00 PM 6.75 44.15 0.39 7.53 6.35 11.26
12/4/2020 11:00:00 PM 5.86 42.548 0.339 6.53 4.52 9.73
12/4/2020 11:15:00 PM 6.63 43.934 0.382 7.39 4.98 11.06
12/4/2020 11:30:00 PM 6.73 44.114 0.388 7.5 5.25 11.19
12/4/2020 11:45:00 PM 6.75 44.15 0.388 7.52 5.08 11.2
12/5/2020 12:00:00 AM 6.75 44.15 0.388 7.51 5.35 11.16
12/5/2020 12:15:00 AM 6.75 44.15 0.388 7.52 5.76 11.17
12/5/2020 12:30:00 AM 6.74 44.132 0.387 7.51 6.12 11.15
12/5/2020 12:45:00 AM 6.74 44.132 0.387 7.51 6.58 11.19
12/5/2020 1:00:00 AM 6.73 44.114 0.386 7.51 6.56 11.19
12/5/2020 1:15:00 AM 6.72 44.096 0.385 7.51 6.96 11.23
12/5/2020 1:30:00 AM 6.71 44.078 0.383 7.51 6.62 11.22
12/5/2020 1:45:00 AM 6.71 44.078 0.382 7.51 6.58 11.23
12/5/2020 2:00:00 AM 6.7 44.06 0.382 7.51 7.07 11.24
12/5/2020 2:15:00 AM 6.69 44.042 0.38 7.51 7.33 11.19
12/5/2020 2:30:00 AM 5.79 42.422 0.33 6.51 6.18 9.7
12/5/2020 2:45:00 AM 6.56 43.808 0.372 7.38 7.97 10.99
12/5/2020 3:00:00 AM 6.66 43.988 0.376 7.5 8.76 11.19
12/5/2020 3:15:00 AM 6.67 44.006 0.375 7.51 9.33 11.23
12/5/2020 3:30:00 AM 6.67 44.006 0.374 7.51 9.25 11.22
12/5/2020 3:45:00 AM 6.67 44.006 0.373 7.51 9.13 11.2
12/5/2020 4:00:00 AM 6.68 44.024 0.372 7.51 9.37 11.2
12/5/2020 4:15:00 AM 6.68 44.024 0.371 7.5 10.44 11.2
12/5/2020 4:30:00 AM 6.68 44.024 0.37 7.5 10.04 11.17
12/5/2020 4:45:00 AM 6.69 44.042 0.369 7.51 9.87 11.19
12/5/2020 5:00:00 AM 6.69 44.042 0.368 7.5 10.69 11.13
12/5/2020 5:15:00 AM 6.7 44.06 0.368 7.5 11.33 11.17
12/5/2020 5:30:00 AM 6.7 44.06 0.367 7.51 10.96 11.17
12/5/2020 5:45:00 AM 6.7 44.06 0.365 7.51 10.85 11.23
12/5/2020 6:00:00 AM 6.7 44.06 0.365 7.51 10.94 11.21
12/5/2020 6:15:00 AM 6.7 44.06 0.364 7.51 11.92 11.2
12/5/2020 6:30:00 AM 6.7 44.06 0.363 7.5 11.32 11.18
12/5/2020 6:45:00 AM 6.68 44.024 0.362 7.51 11.2 11.17
12/5/2020 7:00:00 AM 6.67 44.006 0.362 7.5 10.62 11.23
12/5/2020 7:15:00 AM 6.65 43.97 0.361 7.51 10.3 11.14
12/5/2020 7:30:00 AM 6.64 43.952 0.36 7.51 9.62 11.22
12/5/2020 7:45:00 AM 6.64 43.952 0.36 7.51 9.77 11.21
12/5/2020 8:00:00 AM 6.63 43.934 0.359 7.51 10.23 11.22
12/5/2020 8:15:00 AM 6.64 43.952 0.358 7.51 9.78 11.24
12/5/2020 8:30:00 AM 6.66 43.988 0.357 7.51 9.63 11.29
12/5/2020 8:45:00 AM 6.69 44.042 0.356 7.52 9.36 11.27
12/5/2020 9:00:00 AM 6.71 44.078 0.355 7.53 10.95 11.38
12/5/2020 9:15:00 AM 6.74 44.132 0.355 7.53 9.73 11.42
12/5/2020 9:30:00 AM 6.75 44.15 0.354 7.54 9.87 11.5
12/5/2020 9:45:00 AM 6.78 44.204 0.353 7.54 9.54 11.53
12/5/2020 10:00:00 AM 6.78 44.204 0.353 7.54 9.61 11.55
12/5/2020 10:15:00 AM 6.77 44.186 0.352 7.55 10.38 11.53
12/5/2020 10:30:00 AM 6.79 44.222 0.351 7.55 10.25 11.56
12/5/2020 10:45:00 AM 6.83 44.294 0.351 7.56 11.33 11.51
12/5/2020 11:00:00 AM 6.87 44.366 0.35 7.56 11.21 11.67
12/5/2020 11:15:00 AM 6.92 44.456 0.349 7.57 11.42 11.72
12/5/2020 11:30:00 AM 6.95 44.51 0.348 7.57 11.53 11.76
12/5/2020 11:45:00 AM 6.99 44.582 0.348 7.58 11.54 11.81
12/5/2020 12:00:00 PM 7.03 44.654 0.347 7.58 12.09 11.83
12/5/2020 12:15:00 PM 7.06 44.708 0.346 7.59 11.19 11.83
12/5/2020 12:30:00 PM 7.07 44.726 0.346 7.59 11.24 11.87
12/5/2020 12:45:00 PM 7.07 44.726 0.346 7.59 11.47 11.81
12/5/2020 1:00:00 PM 7.08 44.744 0.345 7.59 14.05 11.83
12/5/2020 1:15:00 PM 7.07 44.726 0.345 7.58 11.74 11.82
12/5/2020 1:30:00 PM 7.06 44.708 0.344 7.58 11.17 11.74
12/5/2020 1:45:00 PM 7.06 44.708 0.344 7.59 10.8 11.8
12/5/2020 2:00:00 PM 7.09 44.762 0.344 7.59 10.49 11.81
12/5/2020 2:15:00 PM 7.1 44.78 0.344 7.59 10.89 11.85
12/5/2020 2:30:00 PM 7.1 44.78 0.343 7.59 10.71 11.83
12/5/2020 2:45:00 PM 7.09 44.762 0.343 7.59 10.58 11.84
12/5/2020 3:00:00 PM 7.09 44.762 0.343 7.59 10.6 11.87
12/5/2020 3:15:00 PM 7.09 44.762 0.343 7.59 10.66 11.77
12/5/2020 3:30:00 PM 7.08 44.744 0.343 7.58 10.29 11.77
12/5/2020 3:45:00 PM 7.07 44.726 0.343 7.58 10.15 11.78
12/5/2020 4:00:00 PM 7.06 44.708 0.343 7.57 9.81 11.71
12/5/2020 4:15:00 PM 7.04 44.672 0.343 7.56 9.82 11.64
12/5/2020 4:30:00 PM 7.03 44.654 0.343 7.56 9.6 11.6
12/5/2020 4:45:00 PM 7.01 44.618 0.343 7.55 9.57 11.56
12/5/2020 5:00:00 PM 7 44.6 0.343 7.54 9.3 11.48
12/5/2020 5:15:00 PM 6.06 42.908 0.299 6.55 7.72 10
12/5/2020 5:30:00 PM 6.85 44.33 0.337 7.4 9.46 11.27
12/5/2020 5:45:00 PM 6.94 44.492 0.343 7.52 9.67 11.43
12/5/2020 6:00:00 PM 6.95 44.51 0.343 7.52 9.64 11.44
12/5/2020 6:15:00 PM 6.94 44.492 0.344 7.52 9.36 11.46
12/5/2020 6:30:00 PM 6.92 44.456 0.344 7.51 9.22 11.34
12/5/2020 6:45:00 PM 6.9 44.42 0.344 7.52 9.09 11.37
12/5/2020 7:00:00 PM 6.88 44.384 0.345 7.51 8.86 11.38
12/5/2020 7:15:00 PM 6.86 44.348 0.345 7.51 9.23 11.34
12/5/2020 7:30:00 PM 6.84 44.312 0.345 7.5 9.2 11.31
12/5/2020 7:45:00 PM 6.82 44.276 0.345 7.5 9 11.33
12/5/2020 8:00:00 PM 6.81 44.258 0.346 7.5 8.84 11.34
12/5/2020 8:15:00 PM 6.8 44.24 0.346 7.49 9.12 11.29
12/5/2020 8:30:00 PM 6.79 44.222 0.347 7.49 8.6 11.28
12/5/2020 8:45:00 PM 6.78 44.204 0.347 7.49 8.44 11.23
12/5/2020 9:00:00 PM 6.76 44.168 0.347 7.48 8.93 11.23
12/5/2020 9:15:00 PM 6.75 44.15 0.348 7.48 8.8 11.23
12/5/2020 9:30:00 PM 6.73 44.114 0.349 7.48 8.75 11.25
12/5/2020 9:45:00 PM 6.71 44.078 0.349 7.48 8.83 11.21
12/5/2020 10:00:00 PM 6.68 44.024 0.349 7.48 8.9 11.15
12/5/2020 10:15:00 PM 6.65 43.97 0.35 7.48 8.94 11.19
12/5/2020 10:30:00 PM 6.63 43.934 0.35 7.47 8.78 11.21
12/5/2020 10:45:00 PM 6.6 43.88 0.351 7.47 8.54 11.21
12/5/2020 11:00:00 PM 6.58 43.844 0.351 7.47 8.49 11.2
12/5/2020 11:15:00 PM 6.55 43.79 0.352 7.47 8.43 11.2
12/5/2020 11:30:00 PM 6.53 43.754 0.353 7.47 8.6 11.18
12/5/2020 11:45:00 PM 6.5 43.7 0.353 7.47 8.51 11.17
12/6/2020 12:00:00 AM 6.48 43.664 0.353 7.46 8.48 11.18
12/6/2020 12:15:00 AM 6.47 43.646 0.354 7.46 8.37 11.2
12/6/2020 12:30:00 AM 6.45 43.61 0.355 7.46 8.16 11.18
12/6/2020 12:45:00 AM 6.42 43.556 0.355 7.46 8.44 11.2
12/6/2020 1:00:00 AM 6.4 43.52 0.356 7.46 8.2 11.19
12/6/2020 1:15:00 AM 6.37 43.466 0.356 7.46 8.26 11.17
12/6/2020 1:30:00 AM 6.35 43.43 0.357 7.46 8.13 11.16
12/6/2020 1:45:00 AM 6.33 43.394 0.357 7.46 8.24 11.19
12/6/2020 2:00:00 AM 6.31 43.358 0.358 7.46 8.28 11.18
12/6/2020 2:15:00 AM 6.28 43.304 0.358 7.46 8.11 11.18
12/6/2020 2:30:00 AM 6.24 43.232 0.359 7.46 8.11 11.14
12/6/2020 2:45:00 AM 6.19 43.142 0.359 7.45 8.01 11.12
12/6/2020 3:00:00 AM 6.15 43.07 0.36 7.46 8.04 11.19
12/6/2020 3:15:00 AM 6.11 42.998 0.36 7.46 7.93 11.22
12/6/2020 3:30:00 AM 6.07 42.926 0.361 7.46 8.13 11.24
12/6/2020 3:45:00 AM 6.03 42.854 0.361 7.45 7.98 11.26
12/6/2020 4:00:00 AM 5.98 42.764 0.362 7.45 8.55 11.27
12/6/2020 4:15:00 AM 5.95 42.71 0.362 7.46 8.09 11.26
12/6/2020 4:30:00 AM 5.91 42.638 0.363 7.45 7.93 11.27
12/6/2020 4:45:00 AM 5.88 42.584 0.363 7.45 7.93 11.27
12/6/2020 5:00:00 AM 5.85 42.53 0.364 7.45 7.39 11.28
12/6/2020 5:15:00 AM 5.82 42.476 0.364 7.45 7.73 11.28
12/6/2020 5:30:00 AM 5.79 42.422 0.364 7.45 7.68 11.32
12/6/2020 5:45:00 AM 5.76 42.368 0.365 7.45 7.58 11.3
12/6/2020 6:00:00 AM 5.73 42.314 0.365 7.45 7.48 11.32
12/6/2020 6:15:00 AM 5.69 42.242 0.366 7.45 7.46 11.32
12/6/2020 6:30:00 AM 5.66 42.188 0.367 7.45 7.56 11.34
12/6/2020 6:45:00 AM 5.62 42.116 0.367 7.45 7.68 11.37
12/6/2020 7:00:00 AM 5.59 42.062 0.367 7.45 7.62 11.35
12/6/2020 7:15:00 AM 5.55 41.99 0.368 7.45 7.49 11.38
12/6/2020 7:30:00 AM 5.52 41.936 0.368 7.45 7.33 11.37
12/6/2020 7:45:00 AM 5.49 41.882 0.368 7.46 7.39 11.4
12/6/2020 8:00:00 AM 5.47 41.846 0.369 7.46 7.09 11.45
12/6/2020 8:15:00 AM 4.74 40.532 0.321 6.47 6.13 9.95
12/6/2020 8:30:00 AM 5.36 41.648 0.363 7.33 6.91 11.33
12/6/2020 8:45:00 AM 5.45 41.81 0.369 7.45 7.05 11.6
12/6/2020 9:00:00 AM 5.48 41.864 0.371 7.48 7.01 11.71
12/6/2020 9:15:00 AM 5.49 41.882 0.371 7.48 6.85 11.78
12/6/2020 9:30:00 AM 5.52 41.936 0.371 7.49 6.76 11.88
12/6/2020 9:45:00 AM 5.56 42.008 0.371 7.5 6.65 11.86
12/6/2020 10:00:00 AM 5.61 42.098 0.372 7.51 6.59 12.02
12/6/2020 10:15:00 AM 5.67 42.206 0.372 7.52 6.64 12
12/6/2020 10:30:00 AM 5.72 42.296 0.373 7.53 6.68 12.12
12/6/2020 10:45:00 AM 5.8 42.44 0.373 7.53 6.67 12.18
12/6/2020 11:00:00 AM 5.82 42.476 0.373 7.54 6.61 12.21
12/6/2020 11:15:00 AM 5.12 41.216 0.325 6.54 5.48 10.63
12/6/2020 11:30:00 AM 5.83 42.494 0.367 7.41 6.31 12.06
12/6/2020 11:45:00 AM 6 42.8 0.373 7.53 6.45 12.27
12/6/2020 12:00:00 PM 6.08 42.944 0.374 7.56 7.93 12.29
12/6/2020 12:15:00 PM 6.16 43.088 0.374 7.56 6.69 12.31
12/6/2020 12:30:00 PM 6.22 43.196 0.374 7.57 6.4 12.43
12/6/2020 12:45:00 PM 6.25 43.25 0.375 7.58 6.33 12.36
12/6/2020 1:00:00 PM 6.32 43.376 0.375 7.59 6.45 12.52
12/6/2020 1:15:00 PM 6.39 43.502 0.375 7.59 6.36 12.56
12/6/2020 1:30:00 PM 6.39 43.502 0.376 7.6 6.28 12.57
12/6/2020 1:45:00 PM 6.42 43.556 0.376 7.6 6.88 12.59
12/6/2020 2:00:00 PM 6.39 43.502 0.377 7.6 6.64 12.57
12/6/2020 2:15:00 PM 6.34 43.412 0.377 7.6 6.74 12.56
12/6/2020 2:30:00 PM 6.32 43.376 0.378 7.6 6.75 12.56
12/6/2020 2:45:00 PM 6.26 43.268 0.378 7.6 6.86 12.54
12/6/2020 3:00:00 PM 6.21 43.178 0.378 7.6 6.96 12.41
12/6/2020 3:15:00 PM 6.15 43.07 0.379 7.59 6.94 12.44
12/6/2020 3:30:00 PM 5.3 41.54 0.33 6.58 5.95 10.77
12/6/2020 3:45:00 PM 5.99 42.782 0.373 7.45 6.85 12.19
12/6/2020 4:00:00 PM 5.85 42.53 0.365 7.29 6.57 11.93
12/6/2020 4:15:00 PM 6.03 42.854 0.378 7.54 6.66 12.27
12/6/2020 4:30:00 PM 6.03 42.854 0.38 7.57 6.49 12.23
12/6/2020 4:45:00 PM 6.01 42.818 0.381 7.57 6.32 12.19
12/6/2020 5:00:00 PM 5.97 42.746 0.381 7.56 6.15 12.13
12/6/2020 5:15:00 PM 5.93 42.674 0.381 7.56 6.2 12.08
12/6/2020 5:30:00 PM 5.9 42.62 0.382 7.55 6.49 12.05
12/6/2020 5:45:00 PM 5.86 42.548 0.382 7.54 6.6 11.99
12/6/2020 6:00:00 PM 5.83 42.494 0.382 7.54 6.7 11.97
12/6/2020 6:15:00 PM 5.79 42.422 0.383 7.54 6.66 11.85
12/6/2020 6:30:00 PM 5.76 42.368 0.383 7.53 6.54 11.9
12/6/2020 6:45:00 PM 5.72 42.296 0.383 7.53 6.46 11.84
12/6/2020 7:00:00 PM 5.69 42.242 0.384 7.53 6.6 11.88
12/6/2020 7:15:00 PM 5.65 42.17 0.384 7.53 6.5 11.81
12/6/2020 7:30:00 PM 5.61 42.098 0.384 7.53 6.71 11.8
12/6/2020 7:45:00 PM 5.57 42.026 0.385 7.53 6.24 11.79
12/6/2020 8:00:00 PM 5.53 41.954 0.385 7.52 6.3 11.84
12/6/2020 8:15:00 PM 5.49 41.882 0.385 7.52 6.29 11.85
12/6/2020 8:30:00 PM 4.72 40.496 0.335 6.51 5 10.23
12/6/2020 8:45:00 PM 5.31 41.558 0.379 7.38 6.18 11.6
12/6/2020 9:00:00 PM 5.34 41.612 0.386 7.5 6.07 11.75
12/6/2020 9:15:00 PM 5.31 41.558 0.387 7.51 6.25 11.8
12/6/2020 9:30:00 PM 5.27 41.486 0.384 7.51 6.16 11.79
12/6/2020 9:45:00 PM 4.52 40.136 0.336 6.5 6.31 10.2
12/6/2020 10:00:00 PM 5.08 41.144 0.38 7.37 5.94 11.57
12/6/2020 10:15:00 PM 5.12 41.216 0.387 7.48 6.16 11.73
12/6/2020 10:30:00 PM 4.41 39.938 0.338 6.5 5.13 10.22
12/6/2020 10:45:00 PM 4.96 40.928 0.382 7.36 5.81 11.49
12/6/2020 11:00:00 PM 5 41 0.388 7.48 5.91 11.69
12/6/2020 11:15:00 PM 4.98 40.964 0.389 7.49 5.98 11.75
12/6/2020 11:30:00 PM 4.94 40.892 0.389 7.49 6.18 11.79
12/6/2020 11:45:00 PM 4.25 39.65 0.339 6.49 5.02 10.2
12/7/2020 12:00:00 AM 4.77 40.586 0.383 7.36 5.93 11.55
12/7/2020 12:15:00 AM 4.81 40.658 0.389 7.47 6.26 11.66
12/7/2020 12:30:00 AM 4.78 40.604 0.39 7.48 10.1 11.74
12/7/2020 12:45:00 AM 4.74 40.532 0.39 7.48 6.38 11.71
12/7/2020 1:00:00 AM 4.07 39.326 0.34 6.49 4.82 10.21
12/7/2020 1:15:00 AM 4.58 40.244 0.384 7.35 5.37 11.56
12/7/2020 1:30:00 AM 4.61 40.298 0.39 7.46 5.51 11.79
12/7/2020 1:45:00 AM 4.59 40.262 0.391 7.48 5.52 11.82
12/7/2020 2:00:00 AM 4.55 40.19 0.392 7.48 5.5 11.82
12/7/2020 2:15:00 AM 4.51 40.118 0.392 7.48 5.45 11.82
12/7/2020 2:30:00 AM 4.47 40.046 0.392 7.48 5.33 11.77
12/7/2020 2:45:00 AM 3.85 38.93 0.341 6.49 4.47 10.23
12/7/2020 3:00:00 AM 4.32 39.776 0.385 7.35 5.13 11.63
12/7/2020 3:15:00 AM 4.35 39.83 0.392 7.46 5.41 11.81
12/7/2020 3:30:00 AM 4.15 39.47 0.377 7.19 5.01 11.39
12/7/2020 3:45:00 AM 4.26 39.668 0.39 7.44 5.35 11.82
12/7/2020 4:00:00 AM 4.24 39.632 0.393 7.47 5.17 11.88
12/7/2020 4:15:00 AM 4.2 39.56 0.393 7.47 5.15 11.93
12/7/2020 4:30:00 AM 4.15 39.47 0.393 7.48 5.12 11.85
12/7/2020 4:45:00 AM 4.11 39.398 0.393 7.48 5.13 11.93
12/7/2020 5:00:00 AM 3.52 38.336 0.342 6.48 4.34 10.32
12/7/2020 5:15:00 AM 3.96 39.128 0.387 7.35 4.95 11.71
12/7/2020 5:30:00 AM 4 39.2 0.393 7.46 5.03 11.89
12/7/2020 5:45:00 AM 3.98 39.164 0.394 7.47 4.99 11.93
12/7/2020 6:00:00 AM 3.95 39.11 0.394 7.47 4.85 11.96
12/7/2020 6:15:00 AM 3.93 39.074 0.394 7.47 4.66 11.98
12/7/2020 6:30:00 AM 3.9 39.02 0.395 7.47 4.91 11.95
12/7/2020 6:45:00 AM 3.87 38.966 0.395 7.47 4.87 12.03
12/7/2020 7:00:00 AM 3.84 38.912 0.395 7.47 4.94 11.96
12/7/2020 7:15:00 AM 3.82 38.876 0.372 7.47 209.23 11.96
12/7/2020 7:30:00 AM 3.8 38.84 0.391 7.47 67.71 12.06
12/7/2020 7:45:00 AM 3.78 38.804 0.395 7.47 16.17 12.07
12/7/2020 8:00:00 AM 3.76 38.768 0.396 7.47 6.25 12.07
12/7/2020 8:15:00 AM 3.76 38.768 0.396 7.48 5.29 12.16
12/7/2020 8:30:00 AM 3.76 38.768 0.396 7.48 5.08 12.16
12/7/2020 8:45:00 AM 3.78 38.804 0.397 7.49 5.01 12.27
12/7/2020 9:00:00 AM 3.8 38.84 0.397 7.5 5 12.38
12/7/2020 9:15:00 AM 3.83 38.894 0.396 7.51 5.03 12.44
12/7/2020 9:30:00 AM 3.87 38.966 0.397 7.51 4.78 12.56
12/7/2020 9:45:00 AM 3.41 38.138 0.345 6.52 4.06 10.99
12/7/2020 10:00:00 AM 3.91 39.038 0.39 7.4 4.66 12.51
12/7/2020 10:15:00 AM 4.05 39.29 0.396 7.52 4.73 12.7
12/7/2020 10:30:00 AM 4.16 39.488 0.396 7.54 4.75 12.83
12/7/2020 10:45:00 AM 4.28 39.704 0.397 7.56 4.64 12.85
12/7/2020 11:00:00 AM 4.39 39.902 0.397 7.56 4.89 12.94
12/7/2020 11:15:00 AM 4.49 40.082 0.396 7.57 4.82 12.9
12/7/2020 11:30:00 AM 4.58 40.244 0.397 7.57 4.76 12.94
12/7/2020 11:45:00 AM 4.36 39.848 0.37 7.08 4.31 12.07
12/7/2020 12:00:00 PM 4.69 40.442 0.393 7.52 4.75 12.91
12/7/2020 12:15:00 PM 4.8 40.64 0.396 7.58 4.69 13.06
12/7/2020 12:30:00 PM 4.85 40.73 0.396 7.59 4.72 13.06
12/7/2020 12:45:00 PM 4.9 40.82 0.396 7.6 4.8 13.07
12/7/2020 1:00:00 PM 4.94 40.892 0.396 7.6 4.72 13.14
12/7/2020 1:15:00 PM 4.96 40.928 0.397 7.6 4.91 13.12
12/7/2020 1:30:00 PM 4.97 40.946 0.397 7.61 4.72 13.13
12/7/2020 1:45:00 PM 4.96 40.928 0.397 7.61 4.79 13.15
12/7/2020 2:00:00 PM 4.95 40.91 0.397 7.61 4.81 13.17
12/7/2020 2:15:00 PM 4.92 40.856 0.397 7.61 4.85 13.15
12/7/2020 2:30:00 PM 4.9 40.82 0.397 7.61 4.79 13.13
12/7/2020 2:45:00 PM 4.87 40.766 0.397 7.61 4.78 13.13
12/7/2020 3:00:00 PM 4.84 40.712 0.397 7.61 4.6 13.1
12/7/2020 3:15:00 PM 4.82 40.676 0.397 7.61 4.67 13.07
12/7/2020 3:30:00 PM 4.8 40.64 0.397 7.61 4.93 13.02
12/7/2020 3:45:00 PM 4.77 40.586 0.398 7.61 4.71 12.96
12/7/2020 4:00:00 PM 4.75 40.55 0.398 7.6 4.63 12.98
12/7/2020 4:15:00 PM 4.73 40.514 0.398 7.6 6.76 12.9
12/7/2020 4:30:00 PM 4.71 40.478 0.398 7.6 4.97 12.79
12/7/2020 4:45:00 PM 4.68 40.424 0.398 7.59 4.7 12.76
12/7/2020 5:00:00 PM 4.66 40.388 0.398 7.59 4.72 12.69
12/7/2020 5:15:00 PM 4.63 40.334 0.399 7.57 4.65 12.65
12/7/2020 5:30:00 PM 4 39.2 0.348 6.56 5.86 10.91
12/7/2020 5:45:00 PM 4.5 40.1 0.392 7.42 5.02 12.23
12/7/2020 6:00:00 PM 4.56 40.208 0.398 7.54 4.89 12.36
12/7/2020 6:15:00 PM 4.54 40.172 0.399 7.55 4.85 12.42
12/7/2020 6:30:00 PM 4.52 40.136 0.399 7.55 4.95 12.43
12/7/2020 6:45:00 PM 4.5 40.1 0.399 7.55 4.91 12.37
12/7/2020 7:00:00 PM 4.47 40.046 0.4 7.55 20.11 12.34
12/7/2020 7:15:00 PM 4.44 39.992 0.4 7.54 6.69 12.34
12/7/2020 7:30:00 PM 3.81 38.858 0.348 6.54 4.1 10.7
12/7/2020 7:45:00 PM 4.29 39.722 0.393 7.41 4.58 12.12
12/7/2020 8:00:00 PM 3.75 38.75 0.348 6.54 3.79 10.68
12/7/2020 8:15:00 PM 4.21 39.578 0.393 7.4 4.46 12.11
12/7/2020 8:30:00 PM 4.23 39.614 0.4 7.52 4.84 12.31
12/7/2020 8:45:00 PM 4.2 39.56 0.401 7.53 4.63 12.29
12/7/2020 9:00:00 PM 4.16 39.488 0.401 7.53 4.53 12.26
12/7/2020 9:15:00 PM 3.56 38.408 0.349 6.52 3.86 10.6
12/7/2020 9:30:00 PM 3.99 39.182 0.395 7.39 4.3 12.04
12/7/2020 9:45:00 PM 4.01 39.218 0.401 7.5 4.33 12.21
12/7/2020 10:00:00 PM 3.97 39.146 0.402 7.52 4.42 12.15
12/7/2020 10:15:00 PM 3.92 39.056 0.402 7.51 4.25 12.24
12/7/2020 10:30:00 PM 3.88 38.984 0.403 7.51 4.43 12.24
12/7/2020 10:45:00 PM 3.84 38.912 0.402 7.51 4.33 12.17
12/7/2020 11:00:00 PM 3.8 38.84 0.403 7.51 4.43 12.25
12/7/2020 11:15:00 PM 3.76 38.768 0.404 7.51 4.44 12.23
12/7/2020 11:30:00 PM 3.71 38.678 0.404 7.51 4.3 12.25
12/7/2020 11:45:00 PM 3.68 38.624 0.403 7.51 4.24 12.24
12/8/2020 12:00:00 AM 3.39 38.102 0.371 6.99 4 11.39
12/8/2020 12:15:00 AM 3.58 38.444 0.4 7.43 4.39 12.16
12/8/2020 12:30:00 AM 3.58 38.444 0.403 7.49 4.54 12.2
12/8/2020 12:45:00 AM 3.08 37.544 0.351 6.5 3.85 10.66
12/8/2020 1:00:00 AM 3.48 38.264 0.397 7.37 4.25 11.95
12/8/2020 1:15:00 AM 3.55 38.39 0.403 7.49 4.12 12.23
12/8/2020 1:30:00 AM 3.57 38.426 0.405 7.5 4.02 12.29
12/8/2020 1:45:00 AM 3.59 38.462 0.405 7.5 4.18 12.27
12/8/2020 2:00:00 AM 3.58 38.444 0.405 7.5 4.35 12.21
12/8/2020 2:15:00 AM 3.57 38.426 0.405 7.5 4.25 12.25
12/8/2020 2:30:00 AM 3.57 38.426 0.405 7.5 4.15 12.24
12/8/2020 2:45:00 AM 3.08 37.544 0.353 6.5 3.62 10.65
12/8/2020 3:00:00 AM 3.07 37.526 0.354 6.49 3.71 10.64
12/8/2020 3:15:00 AM 3.47 38.246 0.399 7.36 4.12 12.03
12/8/2020 3:30:00 AM 3.51 38.318 0.406 7.48 4.2 12.22
12/8/2020 3:45:00 AM 3.04 37.472 0.353 6.49 3.51 10.67
12/8/2020 4:00:00 AM 3.45 38.21 0.399 7.36 4.03 12.02
12/8/2020 4:15:00 AM 3.52 38.336 0.405 7.47 4.27 12.19
12/8/2020 4:30:00 AM 3.54 38.372 0.406 7.48 4.4 12.15
12/8/2020 4:45:00 AM 3.54 38.372 0.406 7.49 4.43 12.22
12/8/2020 5:00:00 AM 3.06 37.508 0.353 6.49 3.58 10.56
12/8/2020 5:15:00 AM 3.46 38.228 0.399 7.35 4.02 12.01
12/8/2020 5:30:00 AM 3.49 38.282 0.405 7.47 4.29 12.21
12/8/2020 5:45:00 AM 3.48 38.264 0.406 7.49 4.38 12.18
12/8/2020 6:00:00 AM 3.46 38.228 0.406 7.49 4.39 12.23
12/8/2020 6:15:00 AM 2.99 37.382 0.355 6.5 3.47 10.65
12/8/2020 6:30:00 AM 3.36 38.048 0.4 7.35 4.05 12.06
12/8/2020 6:45:00 AM 2.94 37.292 0.354 6.5 3.52 10.62
12/8/2020 7:00:00 AM 3.3 37.94 0.4 7.36 4.36 12.05
12/8/2020 7:15:00 AM 3.33 37.994 0.406 7.47 4.19 12.2
12/8/2020 7:30:00 AM 3.31 37.958 0.407 7.49 4.08 12.28
12/8/2020 7:45:00 AM 2.85 37.13 0.355 6.5 3.89 10.68
12/8/2020 8:00:00 AM 3.23 37.814 0.4 7.37 5.28 12.18
12/8/2020 8:15:00 AM 3.28 37.904 0.406 7.49 5.83 12.33
12/8/2020 8:30:00 AM 3.29 37.922 0.407 7.51 6.65 12.45
12/8/2020 8:45:00 AM 3.32 37.976 0.408 7.52 6.5 12.44
12/8/2020 9:00:00 AM 3.35 38.03 0.407 7.53 5.2 12.56
12/8/2020 9:15:00 AM 2.94 37.292 0.355 6.54 3.69 11
12/8/2020 9:30:00 AM 3.37 38.066 0.401 7.4 4.08 12.55
12/8/2020 9:45:00 AM 3.02 37.436 0.355 6.54 3.67 11.12
12/8/2020 10:00:00 AM 3.48 38.264 0.401 7.42 5.9 12.69
12/8/2020 10:15:00 AM 3.16 37.688 0.355 6.57 3.71 11.25
12/8/2020 10:30:00 AM 3.68 38.624 0.4 7.44 4.85 12.81
12/8/2020 10:45:00 AM 3.85 38.93 0.406 7.56 5.13 13.07
12/8/2020 11:00:00 AM 3.99 39.182 0.406 7.59 5.48 13.17
12/8/2020 11:15:00 AM 3.6 38.48 0.353 6.59 5.26 11.41
12/8/2020 11:30:00 AM 4.18 39.524 0.399 7.47 6.31 13
12/8/2020 11:45:00 AM 4.35 39.83 0.405 7.59 6.19 13.22
12/8/2020 12:00:00 PM 4.43 39.974 0.406 7.61 4.82 13.26
12/8/2020 12:15:00 PM 3.93 39.074 0.353 6.6 3.76 11.55
12/8/2020 12:30:00 PM 4.49 40.082 0.399 7.49 4.03 13.06
12/8/2020 12:45:00 PM 4.61 40.298 0.405 7.61 3.99 13.26
12/8/2020 1:00:00 PM 4.68 40.424 0.406 7.64 3.99 13.27
12/8/2020 1:15:00 PM 4.73 40.514 0.406 7.64 4.14 13.37
12/8/2020 1:30:00 PM 4.77 40.586 0.406 7.64 4.17 13.43
12/8/2020 1:45:00 PM 4.81 40.658 0.406 7.65 4.2 13.44
12/8/2020 2:00:00 PM 4.84 40.712 0.406 7.65 4.07 13.47
12/8/2020 2:15:00 PM 4.88 40.784 0.406 7.66 3.96 13.46
12/8/2020 2:30:00 PM 4.22 39.596 0.353 6.65 3.25 11.68
12/8/2020 2:45:00 PM 4.77 40.586 0.399 7.53 3.71 13.22
12/8/2020 3:00:00 PM 4.61 40.298 0.39 7.36 4.71 12.88
12/8/2020 3:15:00 PM 4.72 40.496 0.404 7.61 4.2 13.26
12/8/2020 3:30:00 PM 4.69 40.442 0.406 7.64 4.14 13.19
12/8/2020 3:45:00 PM 4.64 40.352 0.407 7.64 10.57 13.14
12/8/2020 4:00:00 PM 4.6 40.28 0.407 7.63 8.41 13.06
12/8/2020 4:15:00 PM 4.56 40.208 0.407 7.63 6.41 13.08
12/8/2020 4:30:00 PM 4.52 40.136 0.407 7.62 5.84 13.02
12/8/2020 4:45:00 PM 4.48 40.064 0.407 7.62 6.7 12.95
12/8/2020 5:00:00 PM 4.46 40.028 0.407 7.61 6.15 12.91
12/8/2020 5:15:00 PM 4.44 39.992 0.407 7.6 5.22 12.82
12/8/2020 5:30:00 PM 4.43 39.974 0.408 7.59 4.93 12.77
12/8/2020 5:45:00 PM 3.84 38.912 0.355 6.57 3.99 11.03
12/8/2020 6:00:00 PM 4.35 39.83 0.401 7.44 4.47 12.43
12/8/2020 6:15:00 PM 4.41 39.938 0.406 7.56 4.68 12.51
12/8/2020 6:30:00 PM 4.42 39.956 0.408 7.57 4.66 12.59
12/8/2020 6:45:00 PM 4.41 39.938 0.408 7.57 4.7 12.61
12/8/2020 7:00:00 PM 4.41 39.938 0.408 7.57 4.48 12.58
12/8/2020 7:15:00 PM 4.4 39.92 0.408 7.57 4.5 12.47
12/8/2020 7:30:00 PM 4.39 39.902 0.409 7.57 4.58 12.51
12/8/2020 7:45:00 PM 3.8 38.84 0.356 6.56 3.98 10.8
12/8/2020 8:00:00 PM 4.29 39.722 0.402 7.43 4.56 12.23
12/8/2020 8:15:00 PM 4.35 39.83 0.408 7.54 4.66 12.36
12/8/2020 8:30:00 PM 4.34 39.812 0.409 7.56 4.84 12.34
12/8/2020 8:45:00 PM 4.33 39.794 0.409 7.56 4.75 12.41
12/8/2020 9:00:00 PM 4.31 39.758 0.409 7.55 4.77 12.43
12/8/2020 9:15:00 PM 4.29 39.722 0.41 7.55 4.76 12.38
12/8/2020 9:30:00 PM 4.27 39.686 0.41 7.55 4.79 12.33
12/8/2020 9:45:00 PM 3.7 38.66 0.357 6.55 3.98 10.66
12/8/2020 10:00:00 PM 4.15 39.47 0.403 7.41 4.56 12.03
12/8/2020 10:15:00 PM 4.19 39.542 0.409 7.53 4.74 12.28
12/8/2020 10:30:00 PM 4.17 39.506 0.409 7.54 4.78 12.3
12/8/2020 10:45:00 PM 3.58 38.444 0.356 6.54 3.85 10.66
12/8/2020 11:00:00 PM 4.03 39.254 0.404 7.4 4.73 12.04
12/8/2020 11:15:00 PM 4.06 39.308 0.41 7.52 4.76 12.22
12/8/2020 11:30:00 PM 4.03 39.254 0.411 7.53 4.86 12.26
12/8/2020 11:45:00 PM 4 39.2 0.412 7.53 4.77 12.26
12/9/2020 12:00:00 AM 3.97 39.146 0.411 7.53 4.66 12.22
12/9/2020 12:15:00 AM 3.94 39.092 0.412 7.53 4.79 12.25
12/9/2020 12:30:00 AM 3.91 39.038 0.411 7.53 4.95 12.25
12/9/2020 12:45:00 AM 3.89 39.002 0.412 7.53 4.8 12.23
12/9/2020 1:00:00 AM 3.87 38.966 0.412 7.52 4.65 12.24
12/9/2020 1:15:00 AM 3.86 38.948 0.412 7.52 4.64 12.24
12/9/2020 1:30:00 AM 3.85 38.93 0.412 7.52 4.59 12.28
12/9/2020 1:45:00 AM 3.85 38.93 0.413 7.52 4.64 12.22
12/9/2020 2:00:00 AM 3.85 38.93 0.413 7.52 4.65 12.25
12/9/2020 2:15:00 AM 3.85 38.93 0.413 7.51 4.74 12.18
12/9/2020 2:30:00 AM 3.84 38.912 0.412 7.52 4.9 12.17
12/9/2020 2:45:00 AM 3.82 38.876 0.413 7.51 4.75 12.23
12/9/2020 3:00:00 AM 3.8 38.84 0.413 7.52 4.64 12.21
12/9/2020 3:15:00 AM 3.27 37.886 0.359 6.51 4.01 10.61
12/9/2020 3:30:00 AM 3.69 38.642 0.406 7.38 4.75 12.02
12/9/2020 3:45:00 AM 3.25 37.85 0.361 6.52 3.97 10.58
12/9/2020 4:00:00 AM 3.66 38.588 0.407 7.38 4.67 11.98
12/9/2020 4:15:00 AM 3.71 38.678 0.412 7.5 4.86 12.2
12/9/2020 4:30:00 AM 3.22 37.796 0.36 6.51 4.13 10.59
12/9/2020 4:45:00 AM 3.64 38.552 0.407 7.38 4.69 12
12/9/2020 5:00:00 AM 3.68 38.624 0.413 7.49 4.69 12.17
12/9/2020 5:15:00 AM 3.68 38.624 0.414 7.51 4.74 12.21
12/9/2020 5:30:00 AM 3.19 37.742 0.361 6.51 4.01 10.6
12/9/2020 5:45:00 AM 3.62 38.516 0.407 7.37 4.76 12
12/9/2020 6:00:00 AM 3.69 38.642 0.413 7.49 4.94 12.21
12/9/2020 6:15:00 AM 3.72 38.696 0.414 7.5 4.8 12.2
12/9/2020 6:30:00 AM 3.73 38.714 0.414 7.5 4.86 12.14
12/9/2020 6:45:00 AM 3.74 38.732 0.414 7.5 4.73 12.2
12/9/2020 7:00:00 AM 3.74 38.732 0.413 7.5 4.74 12.24
12/9/2020 7:15:00 AM 3.73 38.714 0.414 7.5 4.67 12.22
12/9/2020 7:30:00 AM 3.73 38.714 0.414 7.5 4.71 12.15
12/9/2020 7:45:00 AM 3.73 38.714 0.414 7.5 5.66 12.23
12/9/2020 8:00:00 AM 3.73 38.714 0.414 7.5 4.85 12.24
12/9/2020 8:15:00 AM 3.74 38.732 0.414 7.51 4.81 12.3
12/9/2020 8:30:00 AM 3.76 38.768 0.414 7.51 4.99 12.35
12/9/2020 8:45:00 AM 3.78 38.804 0.414 7.51 5.11 12.31
12/9/2020 9:00:00 AM 3.8 38.84 0.415 7.52 4.65 12.45
12/9/2020 9:15:00 AM 3.82 38.876 0.415 7.53 4.73 12.52
12/9/2020 9:30:00 AM 3.86 38.948 0.414 7.54 4.69 12.6
12/9/2020 9:45:00 AM 3.37 38.066 0.361 6.55 4.02 10.93
12/9/2020 10:00:00 AM 3.84 38.912 0.407 7.41 4.8 12.36
12/9/2020 10:15:00 AM 3.41 38.138 0.361 6.55 4.18 11.02
12/9/2020 10:30:00 AM 3.78 38.804 0.408 7.42 4.68 12.48
12/9/2020 10:45:00 AM 3.87 38.966 0.414 7.55 4.83 12.68
12/9/2020 11:00:00 AM 3.37 38.066 0.362 6.56 4.27 11.05
12/9/2020 11:15:00 AM 3.84 38.912 0.406 7.44 4.72 12.51
12/9/2020 11:30:00 AM 3.43 38.174 0.361 6.56 4.11 11.16
12/9/2020 11:45:00 AM 3.94 39.092 0.408 7.45 4.66 12.74
12/9/2020 12:00:00 PM 4.06 39.308 0.413 7.56 4.81 12.92
12/9/2020 12:15:00 PM 3.58 38.444 0.361 6.59 4.1 11.27
12/9/2020 12:30:00 PM 4.11 39.398 0.407 7.46 5.13 12.81
12/9/2020 12:45:00 PM 4.23 39.614 0.414 7.59 5.03 13.02
12/9/2020 1:00:00 PM 4.29 39.722 0.414 7.6 6.83 13.05
12/9/2020 1:15:00 PM 4.34 39.812 0.414 7.61 5.8 13.1
12/9/2020 1:30:00 PM 3.82 38.876 0.361 6.61 33.12 11.38
12/9/2020 1:45:00 PM 4.38 39.884 0.406 7.49 16.64 12.89
12/9/2020 2:00:00 PM 3.92 39.056 0.359 6.61 8.3 11.46
12/9/2020 2:15:00 PM 4.49 40.082 0.406 7.5 7.52 13.05
12/9/2020 2:30:00 PM 4 39.2 0.36 6.62 6.66 11.45
12/9/2020 2:45:00 PM 4.55 40.19 0.407 7.51 6.84 12.93
12/9/2020 3:00:00 PM 4.65 40.37 0.414 7.63 6.77 13.23
12/9/2020 3:15:00 PM 4.67 40.406 0.414 7.64 15.8 13.17
12/9/2020 3:30:00 PM 4.68 40.424 0.414 7.64 11.74 13.18
12/9/2020 3:45:00 PM 4.68 40.424 0.414 7.64 7.69 13.18
12/9/2020 4:00:00 PM 4.67 40.406 0.414 7.63 7.05 13.08
12/9/2020 4:15:00 PM 4.04 39.272 0.36 6.61 7.52 11.23
12/9/2020 4:30:00 PM 4.57 40.226 0.407 7.48 8.07 12.68
12/9/2020 4:45:00 PM 4.63 40.334 0.413 7.59 7.25 12.79
12/9/2020 5:00:00 PM 4.63 40.334 0.415 7.59 7.11 12.74
12/9/2020 5:15:00 PM 4.63 40.334 0.415 7.58 7.08 12.67
12/9/2020 5:30:00 PM 4.63 40.334 0.415 7.58 6.62 12.61
12/9/2020 5:45:00 PM 4.63 40.334 0.415 7.57 6.58 12.53
12/9/2020 6:00:00 PM 4.63 40.334 0.415 7.56 6.66 12.48
12/9/2020 6:15:00 PM 4.64 40.352 0.415 7.56 6.55 12.47
12/9/2020 6:30:00 PM 4.66 40.388 0.415 7.56 6.6 12.54
12/9/2020 6:45:00 PM 4.67 40.406 0.417 7.56 6.86 12.47
12/9/2020 7:00:00 PM 4.69 40.442 0.415 7.56 6.81 12.43
12/9/2020 7:15:00 PM 4.7 40.46 0.415 7.56 6.75 12.36
12/9/2020 7:30:00 PM 4.71 40.478 0.416 7.56 6.76 12.36
12/9/2020 7:45:00 PM 4.73 40.514 0.416 7.56 6.7 12.41
12/9/2020 8:00:00 PM 4.75 40.55 0.415 7.56 6.87 12.38
12/9/2020 8:15:00 PM 4.76 40.568 0.416 7.56 6.84 12.37
12/9/2020 8:30:00 PM 4.78 40.604 0.416 7.56 6.86 12.26
12/9/2020 8:45:00 PM 4.8 40.64 0.417 7.55 6.77 12.26
12/9/2020 9:00:00 PM 4.81 40.658 0.416 7.55 6.75 12.24
12/9/2020 9:15:00 PM 4.82 40.676 0.416 7.55 6.89 12.25
12/9/2020 9:30:00 PM 4.83 40.694 0.416 7.55 6.75 12.23
12/9/2020 9:45:00 PM 4.84 40.712 0.416 7.54 7 12.19
12/9/2020 10:00:00 PM 4.21 39.578 0.363 6.53 5.82 10.52
12/9/2020 10:15:00 PM 4.78 40.604 0.409 7.4 11.59 11.9
12/9/2020 10:30:00 PM 4.86 40.748 0.415 7.52 8.08 12.02
12/9/2020 10:45:00 PM 4.88 40.784 0.416 7.53 7.04 12.06
12/9/2020 11:00:00 PM 4.88 40.784 0.417 7.53 6.75 12.08
12/9/2020 11:15:00 PM 4.89 40.802 0.417 7.53 6.77 12.06
12/9/2020 11:30:00 PM 4.89 40.802 0.417 7.53 7.14 12.03
12/9/2020 11:45:00 PM 4.9 40.82 0.417 7.52 6.98 12.02
12/10/2020 12:00:00 AM 4.91 40.838 0.417 7.52 6.71 12.01
12/10/2020 12:15:00 AM 4.92 40.856 0.417 7.52 6.79 11.98
12/10/2020 12:30:00 AM 4.92 40.856 0.417 7.52 6.66 11.95
12/10/2020 12:45:00 AM 4.93 40.874 0.417 7.52 6.82 11.97
12/10/2020 1:00:00 AM 4.94 40.892 0.417 7.52 6.96 11.94
12/10/2020 1:15:00 AM 4.94 40.892 0.417 7.52 6.87 11.98
12/10/2020 1:30:00 AM 4.95 40.91 0.417 7.52 6.74 11.94
12/10/2020 1:45:00 AM 4.96 40.928 0.417 7.52 6.84 11.94
12/10/2020 2:00:00 AM 4.96 40.928 0.417 7.52 6.96 11.93
12/10/2020 2:15:00 AM 4.97 40.946 0.418 7.52 7.2 11.9
12/10/2020 2:30:00 AM 4.32 39.776 0.364 6.52 6.21 10.33
12/10/2020 2:45:00 AM 4.9 40.82 0.41 7.38 6.94 11.71
12/10/2020 3:00:00 AM 4.98 40.964 0.416 7.49 6.93 11.82
12/10/2020 3:15:00 AM 5.01 41.018 0.417 7.51 7.14 11.8
12/10/2020 3:30:00 AM 5.02 41.036 0.417 7.51 6.83 11.85
12/10/2020 3:45:00 AM 5.02 41.036 0.417 7.51 6.84 11.88
12/10/2020 4:00:00 AM 5.03 41.054 0.418 7.51 6.89 11.84
12/10/2020 4:15:00 AM 5.04 41.072 0.417 7.51 7.01 11.9
12/10/2020 4:30:00 AM 5.04 41.072 0.418 7.51 7 11.86
12/10/2020 4:45:00 AM 5.01 41.018 0.418 7.51 7.1 11.79
12/10/2020 5:00:00 AM 4.98 40.964 0.418 7.51 7.04 11.85
12/10/2020 5:15:00 AM 4.95 40.91 0.413 7.51 6.81 11.87
12/10/2020 5:30:00 AM 4.91 40.838 0.417 7.51 6.91 11.85
12/10/2020 5:45:00 AM 4.23 39.614 0.364 6.52 5.98 10.29
12/10/2020 6:00:00 AM 4.77 40.586 0.41 7.38 6.83 11.68
12/10/2020 6:15:00 AM 4.83 40.694 0.416 7.49 6.84 11.85
12/10/2020 6:30:00 AM 4.82 40.676 0.417 7.51 6.83 11.84
12/10/2020 6:45:00 AM 4.8 40.64 0.418 7.51 7.34 11.86
12/10/2020 7:00:00 AM 4.78 40.604 0.418 7.51 7.23 11.88
12/10/2020 7:15:00 AM 4.77 40.586 0.418 7.51 7.03 11.84
12/10/2020 7:30:00 AM 4.12 39.416 0.363 6.51 5.84 10.32
12/10/2020 7:45:00 AM 4.66 40.388 0.41 7.38 6.71 11.66
12/10/2020 8:00:00 AM 4.12 39.416 0.364 6.53 6.3 10.37
12/10/2020 8:15:00 AM 4.68 40.424 0.409 7.39 7.39 11.82
12/10/2020 8:30:00 AM 4.81 40.658 0.416 7.52 7.9 12.1
12/10/2020 8:45:00 AM 4.24 39.632 0.363 6.54 8.22 10.59
12/10/2020 9:00:00 AM 4.85 40.73 0.41 7.41 7.68 11.98
12/10/2020 9:15:00 AM 5.03 41.054 0.415 7.54 7.33 12.33
12/10/2020 9:30:00 AM 4.44 39.992 0.362 6.56 5.79 10.84
12/10/2020 9:45:00 AM 5.11 41.198 0.409 7.44 7.64 12.36
12/10/2020 10:00:00 AM 5.27 41.486 0.415 7.57 7.57 12.63
12/10/2020 10:15:00 AM 5.35 41.63 0.416 7.6 7.64 12.75
12/10/2020 10:30:00 AM 5.45 41.81 0.416 7.61 7.59 12.74
12/10/2020 10:45:00 AM 5.5 41.9 0.416 7.62 8.19 12.85
12/10/2020 11:00:00 AM 5.62 42.116 0.415 7.63 8.46 12.88
12/10/2020 11:15:00 AM 5.72 42.296 0.415 7.64 8 12.99
12/10/2020 11:30:00 AM 5.82 42.476 0.415 7.64 7.83 13.04
12/10/2020 11:45:00 AM 5.91 42.638 0.415 7.65 7.17 13.06
12/10/2020 12:00:00 PM 5.98 42.764 0.415 7.66 6.9 12.97
12/10/2020 12:15:00 PM 6.07 42.926 0.414 7.66 6.59 13.05
12/10/2020 12:30:00 PM 6.14 43.052 0.413 7.67 6.54 13.06
12/10/2020 12:45:00 PM 6.2 43.16 0.414 7.67 6.86 13.04
12/10/2020 1:00:00 PM 6.25 43.25 0.413 7.67 6.39 13.09
12/10/2020 1:15:00 PM 6.3 43.34 0.414 7.68 6.91 13.06
12/10/2020 1:30:00 PM 6.33 43.394 0.413 7.68 7.6 13.04
12/10/2020 1:45:00 PM 6.35 43.43 0.413 7.68 7.21 12.98
12/10/2020 2:00:00 PM 6.36 43.448 0.413 7.68 6.73 13.07
12/10/2020 2:15:00 PM 6.35 43.43 0.413 7.68 6.62 13.03
12/10/2020 2:30:00 PM 6.33 43.394 0.414 7.68 6.6 13.02
12/10/2020 2:45:00 PM 6.31 43.358 0.414 7.68 6.52 12.92
12/10/2020 3:00:00 PM 6.29 43.322 0.414 7.68 6.37 12.97
12/10/2020 3:15:00 PM 6.27 43.286 0.414 7.68 6.38 13
12/10/2020 3:30:00 PM 6.25 43.25 0.414 7.67 6.37 12.93
12/10/2020 3:45:00 PM 6.23 43.214 0.414 7.67 6.42 12.76
12/10/2020 4:00:00 PM 6.22 43.196 0.414 7.66 6.47 12.79
12/10/2020 4:15:00 PM 6.2 43.16 0.414 7.66 6.52 12.76
12/10/2020 4:30:00 PM 6.19 43.142 0.414 7.65 6.51 12.67
12/10/2020 4:45:00 PM 6.16 43.088 0.414 7.64 6.54 12.59
12/10/2020 5:00:00 PM 5.31 41.558 0.36 6.61 5.56 10.86
12/10/2020 5:15:00 PM 5.98 42.764 0.407 7.48 6.36 12.21
12/10/2020 5:30:00 PM 6.03 42.854 0.413 7.59 6.31 12.25
12/10/2020 5:45:00 PM 6.01 42.818 0.414 7.6 6.39 12.31
12/10/2020 6:00:00 PM 5.97 42.746 0.414 7.6 6.45 12.18
12/10/2020 6:15:00 PM 5.93 42.674 0.414 7.59 6.36 12.19
12/10/2020 6:30:00 PM 5.9 42.62 0.414 7.59 6.44 12.17
12/10/2020 6:45:00 PM 5.86 42.548 0.414 7.59 6.44 12.15
12/10/2020 7:00:00 PM 5.05 41.09 0.36 6.57 5.47 10.54
12/10/2020 7:15:00 PM 5.69 42.242 0.407 7.44 6.66 11.91
12/10/2020 7:30:00 PM 5.75 42.35 0.413 7.56 7.4 12.06
12/10/2020 7:45:00 PM 5.73 42.314 0.414 7.57 7.38 12.08
12/10/2020 8:00:00 PM 5.7 42.26 0.414 7.57 6.08 12.01
12/10/2020 8:15:00 PM 5.67 42.206 0.415 7.57 6.16 12.05
12/10/2020 8:30:00 PM 5.63 42.134 0.415 7.57 6.39 12.07
12/10/2020 8:45:00 PM 5.6 42.08 0.415 7.56 6.26 11.95
12/10/2020 9:00:00 PM 5.56 42.008 0.415 7.56 6.14 11.9
12/10/2020 9:15:00 PM 5.52 41.936 0.415 7.55 6.27 11.96
12/10/2020 9:30:00 PM 4.74 40.532 0.361 6.54 5.38 10.38
12/10/2020 9:45:00 PM 5.34 41.612 0.408 7.41 6.2 11.74
12/10/2020 10:00:00 PM 5.38 41.684 0.415 7.53 6.28 11.9
12/10/2020 10:15:00 PM 5.35 41.63 0.416 7.54 6.35 11.94
12/10/2020 10:30:00 PM 5.3 41.54 0.417 7.54 6.37 11.91
12/10/2020 10:45:00 PM 5.26 41.468 0.417 7.54 6.24 11.86
12/10/2020 11:00:00 PM 5.21 41.378 0.417 7.54 6.3 11.89
12/10/2020 11:15:00 PM 5.16 41.288 0.417 7.53 6.39 11.91
12/10/2020 11:30:00 PM 5.11 41.198 0.418 7.53 6.53 11.87
12/10/2020 11:45:00 PM 5.06 41.108 0.417 7.53 6.46 11.92
12/11/2020 12:00:00 AM 5.01 41.018 0.417 7.53 6.41 11.85
12/11/2020 12:15:00 AM 4.97 40.946 0.418 7.53 6.47 11.89
12/11/2020 12:30:00 AM 4.92 40.856 0.418 7.53 6.49 11.89
12/11/2020 12:45:00 AM 4.88 40.784 0.418 7.52 6.44 11.85
12/11/2020 1:00:00 AM 4.83 40.694 0.418 7.52 6.42 11.9
12/11/2020 1:15:00 AM 4.78 40.604 0.419 7.52 6.37 11.91
12/11/2020 1:30:00 AM 4.74 40.532 0.418 7.52 6.34 11.92
12/11/2020 1:45:00 AM 4.08 39.344 0.365 6.52 5.67 10.31
12/11/2020 2:00:00 AM 4.58 40.244 0.411 7.38 6.23 11.7
12/11/2020 2:15:00 AM 4.62 40.316 0.418 7.49 6.45 11.89
12/11/2020 2:30:00 AM 4.59 40.262 0.419 7.51 6.49 11.9
12/11/2020 2:45:00 AM 4.56 40.208 0.42 7.5 6.41 11.93
12/11/2020 3:00:00 AM 4.53 40.154 0.419 7.51 8.05 11.88
12/11/2020 3:15:00 AM 4.5 40.1 0.42 7.51 5.93 11.92
12/11/2020 3:30:00 AM 4.47 40.046 0.42 7.51 6.31 11.95
12/11/2020 3:45:00 AM 3.86 38.948 0.366 6.51 6.48 10.35
12/11/2020 4:00:00 AM 4.35 39.83 0.413 7.37 8.34 11.75
12/11/2020 4:15:00 AM 4.4 39.92 0.419 7.48 5.62 11.94
12/11/2020 4:30:00 AM 4.39 39.902 0.42 7.5 5.32 11.94
12/11/2020 4:45:00 AM 4.37 39.866 0.42 7.5 5.31 11.91
12/11/2020 5:00:00 AM 4.36 39.848 0.42 7.5 5.24 11.92
12/11/2020 5:15:00 AM 4.34 39.812 0.42 7.5 5.06 11.96
12/11/2020 5:30:00 AM 4.33 39.794 0.42 7.5 4.96 11.93
12/11/2020 5:45:00 AM 4.33 39.794 0.42 7.5 5.11 11.97
12/11/2020 6:00:00 AM 3.76 38.768 0.366 6.52 4.32 10.36
12/11/2020 6:15:00 AM 4.25 39.65 0.412 7.37 4.94 11.78
12/11/2020 6:30:00 AM 4.32 39.776 0.419 7.48 5.18 11.95
12/11/2020 6:45:00 AM 4.34 39.812 0.42 7.5 4.93 11.98
12/11/2020 7:00:00 AM 4.35 39.83 0.42 7.5 5.17 12
12/11/2020 7:15:00 AM 4.36 39.848 0.42 7.5 5.08 11.97
12/11/2020 7:30:00 AM 4.35 39.83 0.42 7.5 4.94 11.98
12/11/2020 7:45:00 AM 4.35 39.83 0.42 7.5 5.04 12.05
12/11/2020 8:00:00 AM 4.34 39.812 0.42 7.51 4.88 12.09
12/11/2020 8:15:00 AM 4.34 39.812 0.421 7.51 5.13 12.06
12/11/2020 8:30:00 AM 4.35 39.83 0.42 7.51 5.7 12.21
12/11/2020 8:45:00 AM 4.38 39.884 0.42 7.52 6.51 12.33
12/11/2020 9:00:00 AM 4.48 40.064 0.421 7.54 6.41 12.44
12/11/2020 9:15:00 AM 4.58 40.244 0.42 7.55 5.65 12.58
12/11/2020 9:30:00 AM 4.71 40.478 0.42 7.57 5.53 12.66
12/11/2020 9:45:00 AM 4.8 40.64 0.42 7.58 5.23 12.79
12/11/2020 10:00:00 AM 4.91 40.838 0.419 7.59 5.08 12.89
12/11/2020 10:15:00 AM 5.02 41.036 0.419 7.6 4.94 12.95
12/11/2020 10:30:00 AM 5.12 41.216 0.419 7.61 4.76 13.01
12/11/2020 10:45:00 AM 5.23 41.414 0.419 7.62 4.69 13.05
12/11/2020 11:00:00 AM 5.36 41.648 0.419 7.63 4.88 13.17
12/11/2020 11:15:00 AM 5.49 41.882 0.419 7.63 4.84 13.14
12/11/2020 11:30:00 AM 5.63 42.134 0.418 7.64 4.93 13.17
12/11/2020 11:45:00 AM 5.76 42.368 0.418 7.65 4.94 13.12
12/11/2020 12:00:00 PM 5.86 42.548 0.417 7.66 4.88 13.14
12/11/2020 12:15:00 PM 5.97 42.746 0.417 7.66 4.8 13.09
12/11/2020 12:30:00 PM 6.07 42.926 0.418 7.67 5.23 13.21
12/11/2020 12:45:00 PM 6.15 43.07 0.417 7.67 5.02 13.24
12/11/2020 1:00:00 PM 6.24 43.232 0.417 7.67 4.87 13.19
12/11/2020 1:15:00 PM 6.33 43.394 0.417 7.68 4.88 13.19
12/11/2020 1:30:00 PM 6.39 43.502 0.417 7.69 4.75 13.17
12/11/2020 1:45:00 PM 6.44 43.592 0.417 7.69 4.73 13.27
12/11/2020 2:00:00 PM 6.48 43.664 0.417 7.69 4.76 13.19
12/11/2020 2:15:00 PM 6.51 43.718 0.417 7.7 4.79 13.27
12/11/2020 2:30:00 PM 6.54 43.772 0.417 7.7 4.68 13.28
12/11/2020 2:45:00 PM 6.55 43.79 0.417 7.7 4.73 13.29
12/11/2020 3:00:00 PM 6.57 43.826 0.417 7.7 5.01 13.27
12/11/2020 3:15:00 PM 6.57 43.826 0.416 7.7 5.03 13.22
12/11/2020 3:30:00 PM 6.56 43.808 0.417 7.69 5.03 13.19
12/11/2020 3:45:00 PM 6.54 43.772 0.417 7.69 5.27 13.09
12/11/2020 4:00:00 PM 6.51 43.718 0.417 7.68 5.23 12.99
12/11/2020 4:15:00 PM 6.48 43.664 0.417 7.68 5.22 12.97
12/11/2020 4:30:00 PM 6.44 43.592 0.417 7.66 5.2 12.8
12/11/2020 4:45:00 PM 6.4 43.52 0.417 7.64 5.19 12.68
12/11/2020 5:00:00 PM 6.37 43.466 0.417 7.64 5.16 12.59
12/11/2020 5:15:00 PM 6.33 43.394 0.418 7.62 5.14 12.49
12/11/2020 5:30:00 PM 6.29 43.322 0.418 7.61 5.19 12.39
12/11/2020 5:45:00 PM 6.25 43.25 0.418 7.6 5.3 12.24
12/11/2020 6:00:00 PM 6.22 43.196 0.418 7.59 5.16 12.3
12/11/2020 6:15:00 PM 6.19 43.142 0.418 7.59 5.12 12.14
12/11/2020 6:30:00 PM 6.16 43.088 0.418 7.58 5.12 12.17
12/11/2020 6:45:00 PM 6.13 43.034 0.418 7.58 5.27 12.13
12/11/2020 7:00:00 PM 6.11 42.998 0.418 7.57 5.5 12.11
12/11/2020 7:15:00 PM 6.1 42.98 0.418 7.57 5.45 12.11
12/11/2020 7:30:00 PM 6.09 42.962 0.417 7.57 5.48 12.06
12/11/2020 7:45:00 PM 6.08 42.944 0.417 7.57 5.25 12.06
12/11/2020 8:00:00 PM 6.06 42.908 0.417 7.57 5.35 12.03
12/11/2020 8:15:00 PM 6.05 42.89 0.417 7.57 5.26 12.01
12/11/2020 8:30:00 PM 6.03 42.854 0.417 7.57 5.33 11.91
12/11/2020 8:45:00 PM 6 42.8 0.418 7.56 5.44 11.96
12/11/2020 9:00:00 PM 5.97 42.746 0.417 7.56 5.37 11.9
12/11/2020 9:15:00 PM 5.94 42.692 0.417 7.56 5.8 11.95
12/11/2020 9:30:00 PM 5.9 42.62 0.418 7.56 5.5 11.88
12/11/2020 9:45:00 PM 5.86 42.548 0.418 7.55 5.37 11.85
12/11/2020 10:00:00 PM 5.82 42.476 0.418 7.55 6.04 11.79
12/11/2020 10:15:00 PM 5.78 42.404 0.418 7.54 6.15 11.84
12/11/2020 10:30:00 PM 5.74 42.332 0.418 7.54 5.48 11.8
12/11/2020 10:45:00 PM 5.69 42.242 0.418 7.55 5.28 11.8
12/11/2020 11:00:00 PM 5.64 42.152 0.418 7.54 5.3 11.72
12/11/2020 11:15:00 PM 5.6 42.08 0.418 7.53 5.25 11.78
12/11/2020 11:30:00 PM 5.55 41.99 0.418 7.53 5.4 11.76
12/11/2020 11:45:00 PM 5.5 41.9 0.419 7.53 5.43 11.79
12/12/2020 12:00:00 AM 5.46 41.828 0.419 7.52 5.4 11.77
12/12/2020 12:15:00 AM 5.41 41.738 0.419 7.52 5.33 11.75
12/12/2020 12:30:00 AM 5.37 41.666 0.419 7.52 5.39 11.8
12/12/2020 12:45:00 AM 5.32 41.576 0.419 7.52 5.56 11.78
12/12/2020 1:00:00 AM 5.28 41.504 0.419 7.52 5.41 11.76
12/12/2020 1:15:00 AM 5.24 41.432 0.419 7.52 5.36 11.76
12/12/2020 1:30:00 AM 5.2 41.36 0.419 7.52 5.27 11.72
12/12/2020 1:45:00 AM 5.16 41.288 0.42 7.52 5.43 11.77
12/12/2020 2:00:00 AM 5.13 41.234 0.42 7.52 5.33 11.8
12/12/2020 2:15:00 AM 5.09 41.162 0.42 7.51 5.45 11.85
12/12/2020 2:30:00 AM 5.06 41.108 0.42 7.51 5.34 11.8
12/12/2020 2:45:00 AM 4.36 39.848 0.365 6.51 4.29 10.21
12/12/2020 3:00:00 AM 4.92 40.856 0.412 7.38 4.87 11.59
12/12/2020 3:15:00 AM 4.97 40.946 0.418 7.49 5.05 11.71
12/12/2020 3:30:00 AM 4.31 39.758 0.365 6.52 4.32 10.25
12/12/2020 3:45:00 AM 4.86 40.748 0.412 7.38 5.03 11.57
12/12/2020 4:00:00 AM 4.93 40.874 0.418 7.49 4.84 11.75
12/12/2020 4:15:00 AM 4.93 40.874 0.42 7.5 4.71 11.75
12/12/2020 4:30:00 AM 4.93 40.874 0.419 7.51 4.78 11.78
12/12/2020 4:45:00 AM 4.93 40.874 0.42 7.51 5.04 11.8
12/12/2020 5:00:00 AM 4.92 40.856 0.42 7.5 5.15 11.8
12/12/2020 5:15:00 AM 4.93 40.874 0.42 7.5 4.88 11.77
12/12/2020 5:30:00 AM 4.94 40.892 0.42 7.5 4.76 11.8
12/12/2020 5:45:00 AM 4.97 40.946 0.421 7.5 4.77 11.81
12/12/2020 6:00:00 AM 4.99 40.982 0.42 7.49 4.8 11.79
12/12/2020 6:15:00 AM 5.03 41.054 0.42 7.5 4.9 11.79
12/12/2020 6:30:00 AM 5.06 41.108 0.42 7.5 4.83 11.76
12/12/2020 6:45:00 AM 5.09 41.162 0.42 7.5 4.97 11.69
12/12/2020 7:00:00 AM 5.13 41.234 0.42 7.5 5.14 11.72
12/12/2020 7:15:00 AM 5.16 41.288 0.42 7.5 4.97 11.66
12/12/2020 7:30:00 AM 5.2 41.36 0.42 7.5 5.02 11.7
12/12/2020 7:45:00 AM 5.23 41.414 0.42 7.5 5.62 11.67
12/12/2020 8:00:00 AM 5.28 41.504 0.42 7.5 5.27 11.73
12/12/2020 8:15:00 AM 5.33 41.594 0.42 7.5 7.5 11.8
12/12/2020 8:30:00 AM 5.39 41.702 0.42 7.51 6.17 11.85
12/12/2020 8:45:00 AM 5.44 41.792 0.42 7.51 8.57 11.88
12/12/2020 9:00:00 AM 5.5 41.9 0.42 7.52 6.34 12
12/12/2020 9:15:00 AM 5.56 42.008 0.419 7.53 5.6 11.99
12/12/2020 9:30:00 AM 5.63 42.134 0.419 7.54 5.75 12.16
12/12/2020 9:45:00 AM 5.69 42.242 0.419 7.55 8.25 12.18
12/12/2020 10:00:00 AM 5.74 42.332 0.42 7.55 6.16 12.21
12/12/2020 10:15:00 AM 5.8 42.44 0.419 7.56 6.1 12.22
12/12/2020 10:30:00 AM 5.85 42.53 0.419 7.57 5.96 12.31
12/12/2020 10:45:00 AM 5.91 42.638 0.419 7.57 5.76 12.31
12/12/2020 11:00:00 AM 5.96 42.728 0.419 7.57 5.77 12.35
12/12/2020 11:15:00 AM 6.03 42.854 0.419 7.59 5.77 12.44
12/12/2020 11:30:00 AM 6.1 42.98 0.419 7.59 5.96 12.46
12/12/2020 11:45:00 AM 6.17 43.106 0.419 7.6 5.96 12.48
12/12/2020 12:00:00 PM 6.24 43.232 0.419 7.61 5.7 12.55
12/12/2020 12:15:00 PM 6.31 43.358 0.419 7.62 5.43 12.57
12/12/2020 12:30:00 PM 6.39 43.502 0.419 7.62 5.37 12.61
12/12/2020 12:45:00 PM 6.48 43.664 0.418 7.64 5.45 12.65
12/12/2020 1:00:00 PM 6.58 43.844 0.418 7.65 5.59 12.75
12/12/2020 1:15:00 PM 6.69 44.042 0.418 7.66 5.44 12.83
12/12/2020 1:30:00 PM 6.81 44.258 0.418 7.67 5.33 12.9
12/12/2020 1:45:00 PM 6.93 44.474 0.418 7.69 5.36 12.99
12/12/2020 2:00:00 PM 7.04 44.672 0.417 7.7 5.08 13
12/12/2020 2:15:00 PM 7.08 44.744 0.417 7.7 5.36 12.97
12/12/2020 2:30:00 PM 7.13 44.834 0.417 7.71 5.64 12.93
12/12/2020 2:45:00 PM 7.19 44.942 0.417 7.71 5.32 12.94
12/12/2020 3:00:00 PM 7.19 44.942 0.417 7.71 5.33 12.87
12/12/2020 3:15:00 PM 7.17 44.906 0.417 7.7 5.53 12.8
12/12/2020 3:30:00 PM 7.16 44.888 0.417 7.7 5.46 12.82
12/12/2020 3:45:00 PM 7.14 44.852 0.417 7.69 5.33 12.74
12/12/2020 4:00:00 PM 7.13 44.834 0.417 7.69 5.62 12.59
12/12/2020 4:15:00 PM 7.11 44.798 0.416 7.68 5.33 12.57
12/12/2020 4:30:00 PM 7.09 44.762 0.417 7.67 5.32 12.47
12/12/2020 4:45:00 PM 7.07 44.726 0.417 7.65 5.2 12.38
12/12/2020 5:00:00 PM 6.12 43.016 0.362 6.62 4.51 10.6
12/12/2020 5:15:00 PM 6.91 44.438 0.41 7.49 5.14 11.93
12/12/2020 5:30:00 PM 7.01 44.618 0.416 7.6 5.28 11.95
12/12/2020 5:45:00 PM 7.02 44.636 0.417 7.6 5.35 11.95
12/12/2020 6:00:00 PM 7.02 44.636 0.417 7.59 5.49 11.92
12/12/2020 6:15:00 PM 7.02 44.636 0.417 7.59 5.37 11.83
12/12/2020 6:30:00 PM 7.02 44.636 0.417 7.59 5.41 11.81
12/12/2020 6:45:00 PM 7.02 44.636 0.417 7.58 5.38 11.74
12/12/2020 7:00:00 PM 7.03 44.654 0.417 7.58 5.4 11.69
12/12/2020 7:15:00 PM 7.04 44.672 0.417 7.58 5.49 11.66
12/12/2020 7:30:00 PM 7.05 44.69 0.417 7.57 5.49 11.54
12/12/2020 7:45:00 PM 7.07 44.726 0.417 7.57 5.58 11.62
12/12/2020 8:00:00 PM 7.09 44.762 0.416 7.57 5.57 11.59
12/12/2020 8:15:00 PM 7.11 44.798 0.417 7.57 5.54 11.56
12/12/2020 8:30:00 PM 7.13 44.834 0.417 7.56 5.43 11.54
12/12/2020 8:45:00 PM 7.15 44.87 0.417 7.56 5.45 11.5
12/12/2020 9:00:00 PM 7.16 44.888 0.417 7.56 5.64 11.45
12/12/2020 9:15:00 PM 7.18 44.924 0.417 7.56 5.53 11.41
12/12/2020 9:30:00 PM 7.19 44.942 0.417 7.55 5.5 11.35
12/12/2020 9:45:00 PM 7.21 44.978 0.417 7.55 5.44 11.36
12/12/2020 10:00:00 PM 7.21 44.978 0.417 7.55 5.51 11.29
12/12/2020 10:15:00 PM 7.22 44.996 0.417 7.55 5.47 11.25
12/12/2020 10:30:00 PM 7.22 44.996 0.417 7.55 5.46 11.24
12/12/2020 10:45:00 PM 7.22 44.996 0.417 7.54 5.61 11.21
12/12/2020 11:00:00 PM 7.22 44.996 0.417 7.54 5.56 11.18
12/12/2020 11:15:00 PM 7.21 44.978 0.417 7.54 6.28 11.17
12/12/2020 11:30:00 PM 7.19 44.942 0.417 7.53 10.73 11.19
12/12/2020 11:45:00 PM 7.16 44.888 0.417 7.53 6.17 11.1
12/13/2020 12:00:00 AM 7.13 44.834 0.417 7.53 5.47 11.12
12/13/2020 12:15:00 AM 7.09 44.762 0.417 7.53 5.44 11.13
12/13/2020 12:30:00 AM 7.04 44.672 0.417 7.53 5.62 11.14
12/13/2020 12:45:00 AM 7.01 44.618 0.417 7.52 5.36 11.1
12/13/2020 1:00:00 AM 6.98 44.564 0.417 7.52 5.59 11.15
12/13/2020 1:15:00 AM 6.97 44.546 0.417 7.52 5.57 11.13
12/13/2020 1:30:00 AM 6.97 44.546 0.418 7.52 5.45 11.13
12/13/2020 1:45:00 AM 6.97 44.546 0.418 7.52 5.49 11.13
12/13/2020 2:00:00 AM 6.98 44.564 0.418 7.52 5.68 11.13
12/13/2020 2:15:00 AM 6.99 44.582 0.418 7.51 5.68 11.09
12/13/2020 2:30:00 AM 6.99 44.582 0.418 7.51 5.6 11.02
12/13/2020 2:45:00 AM 6.98 44.564 0.418 7.51 5.49 11.06
12/13/2020 3:00:00 AM 6.96 44.528 0.418 7.51 5.7 11.02
12/13/2020 3:15:00 AM 6.93 44.474 0.418 7.51 5.68 10.97
12/13/2020 3:30:00 AM 6.89 44.402 0.418 7.51 5.58 11.09
12/13/2020 3:45:00 AM 6.84 44.312 0.418 7.51 5.8 11.06
12/13/2020 4:00:00 AM 5.89 42.602 0.364 6.51 4.72 9.61
12/13/2020 4:15:00 AM 6.63 43.934 0.411 7.37 5.76 10.9
12/13/2020 4:30:00 AM 6.7 44.06 0.418 7.49 6.63 11.06
12/13/2020 4:45:00 AM 6.67 44.006 0.419 7.5 6.15 11.09
12/13/2020 5:00:00 AM 6.63 43.934 0.419 7.51 6.05 11.12
12/13/2020 5:15:00 AM 6.6 43.88 0.419 7.51 6.08 11.09
12/13/2020 5:30:00 AM 6.56 43.808 0.419 7.51 5.74 11.1
12/13/2020 5:45:00 AM 6.54 43.772 0.419 7.5 6.12 11.07
12/13/2020 6:00:00 AM 6.51 43.718 0.419 7.5 6.53 11.06
12/13/2020 6:15:00 AM 6.49 43.682 0.419 7.5 6.51 11.1
12/13/2020 6:30:00 AM 6.48 43.664 0.419 7.5 6.2 11.12
12/13/2020 6:45:00 AM 6.48 43.664 0.419 7.5 6.15 11.08
12/13/2020 7:00:00 AM 6.5 43.7 0.419 7.5 6.02 11.09
12/13/2020 7:15:00 AM 6.53 43.754 0.419 7.5 5.9 11.08
12/13/2020 7:30:00 AM 6.55 43.79 0.419 7.5 5.99 11.06
12/13/2020 7:45:00 AM 6.58 43.844 0.419 7.5 6.79 11.09
12/13/2020 8:00:00 AM 6.6 43.88 0.419 7.5 6.78 11.1
12/13/2020 8:15:00 AM 6.61 43.898 0.419 7.5 8.91 11.16
12/13/2020 8:30:00 AM 6.62 43.916 0.419 7.51 11.51 11.26
12/13/2020 8:45:00 AM 6.65 43.97 0.419 7.52 10.93 11.33
12/13/2020 9:00:00 AM 6.69 44.042 0.419 7.53 10.67 11.4
12/13/2020 9:15:00 AM 6.75 44.15 0.419 7.54 10.4 11.61
12/13/2020 9:30:00 AM 6.83 44.294 0.418 7.55 9.88 11.74
12/13/2020 9:45:00 AM 6.92 44.456 0.418 7.57 9.86 11.85
12/13/2020 10:00:00 AM 7.04 44.672 0.418 7.59 9.89 11.96
12/13/2020 10:15:00 AM 7.12 44.816 0.418 7.6 10.14 12.07
12/13/2020 10:30:00 AM 7.26 45.068 0.418 7.62 7.3 12.19
12/13/2020 10:45:00 AM 7.42 45.356 0.418 7.64 6.95 12.31
12/13/2020 11:00:00 AM 7.59 45.662 0.417 7.66 6.52 12.38
12/13/2020 11:15:00 AM 7.68 45.824 0.417 7.68 6.52 12.46
12/13/2020 11:30:00 AM 7.78 46.004 0.417 7.69 7.61 12.52
12/13/2020 11:45:00 AM 7.86 46.148 0.417 7.7 9.49 12.56
12/13/2020 12:00:00 PM 7.9 46.22 0.417 7.71 9.93 12.53
12/13/2020 12:15:00 PM 7.94 46.292 0.417 7.73 9.96 12.57
12/13/2020 12:30:00 PM 7.95 46.31 0.417 7.73 8.66 12.58
12/13/2020 12:45:00 PM 7.96 46.328 0.417 7.74 9.44 12.61
12/13/2020 1:00:00 PM 8.02 46.436 0.417 7.74 9.06 12.69
12/13/2020 1:15:00 PM 8.05 46.49 0.417 7.75 8.63 12.7
12/13/2020 1:30:00 PM 8.04 46.472 0.416 7.75 10.19 12.71
12/13/2020 1:45:00 PM 8.04 46.472 0.416 7.75 7.46 12.73
12/13/2020 2:00:00 PM 8.05 46.49 0.417 7.76 7.85 12.7
12/13/2020 2:15:00 PM 8.06 46.508 0.416 7.76 8.07 12.75
12/13/2020 2:30:00 PM 8.06 46.508 0.416 7.76 8.11 12.73
12/13/2020 2:45:00 PM 8.06 46.508 0.417 7.77 7.94 12.7
12/13/2020 3:00:00 PM 8.06 46.508 0.416 7.77 7.98 12.72
12/13/2020 3:15:00 PM 8.06 46.508 0.417 7.77 8.09 12.68
12/13/2020 3:30:00 PM 8.04 46.472 0.417 7.76 7.91 12.65
12/13/2020 3:45:00 PM 8.02 46.436 0.417 7.75 8.07 12.6
12/13/2020 4:00:00 PM 8 46.4 0.416 7.74 7.7 12.44
12/13/2020 4:15:00 PM 7.96 46.328 0.417 7.73 7.6 12.35
12/13/2020 4:30:00 PM 7.92 46.256 0.417 7.72 7.63 12.22
12/13/2020 4:45:00 PM 7.88 46.184 0.417 7.7 7.87 12.09
12/13/2020 5:00:00 PM 7.85 46.13 0.417 7.68 7.99 12.01
12/13/2020 5:15:00 PM 7.8 46.04 0.417 7.67 8.17 11.86
12/13/2020 5:30:00 PM 7.75 45.95 0.417 7.65 8.39 11.74
12/13/2020 5:45:00 PM 7.71 45.878 0.417 7.64 9.6 11.64
12/13/2020 6:00:00 PM 7.66 45.788 0.417 7.63 9.67 11.59
12/13/2020 6:15:00 PM 7.62 45.716 0.417 7.62 9.1 11.56
12/13/2020 6:30:00 PM 7.58 45.644 0.417 7.62 8.93 11.5
12/13/2020 6:45:00 PM 7.55 45.59 0.417 7.62 9.02 11.44
12/13/2020 7:00:00 PM 7.51 45.518 0.417 7.61 9.34 11.45
12/13/2020 7:15:00 PM 7.47 45.446 0.417 7.61 8.92 11.45
12/13/2020 7:30:00 PM 7.44 45.392 0.417 7.6 8.83 11.42
12/13/2020 7:45:00 PM 7.41 45.338 0.417 7.6 8.64 11.35
12/13/2020 8:00:00 PM 7.37 45.266 0.417 7.6 8.64 11.39
12/13/2020 8:15:00 PM 7.33 45.194 0.417 7.6 8.42 11.41
12/13/2020 8:30:00 PM 7.3 45.14 0.417 7.6 8.86 11.33
12/13/2020 8:45:00 PM 7.27 45.086 0.417 7.59 7.53 11.34
12/13/2020 9:00:00 PM 7.23 45.014 0.417 7.59 8.55 11.35
12/13/2020 9:15:00 PM 7.2 44.96 0.417 7.59 8.09 11.3
12/13/2020 9:30:00 PM 7.17 44.906 0.418 7.58 7.92 11.35
12/13/2020 9:45:00 PM 7.14 44.852 0.417 7.58 7.41 11.27
12/13/2020 10:00:00 PM 7.1 44.78 0.418 7.58 7.71 11.27
12/13/2020 10:15:00 PM 7.05 44.69 0.418 7.57 7.91 11.23
12/13/2020 10:30:00 PM 7.03 44.654 0.418 7.57 7.82 11.22
12/13/2020 10:45:00 PM 7 44.6 0.418 7.56 7.39 11.24
12/13/2020 11:00:00 PM 6.97 44.546 0.418 7.57 7.61 11.19
12/13/2020 11:15:00 PM 6.93 44.474 0.418 7.56 7.23 11.16
12/13/2020 11:30:00 PM 6.89 44.402 0.419 7.56 7.27 11.19
12/13/2020 11:45:00 PM 6.83 44.294 0.419 7.56 7.43 11.17
12/14/2020 12:00:00 AM 6.76 44.168 0.419 7.55 7.55 11.15
12/14/2020 12:15:00 AM 6.7 44.06 0.419 7.55 7.71 11.18
12/14/2020 12:30:00 AM 6.64 43.952 0.419 7.54 7.39 11.16
12/14/2020 12:45:00 AM 6.59 43.862 0.419 7.54 7.71 11.17
12/14/2020 1:00:00 AM 6.55 43.79 0.419 7.54 8.13 11.11
12/14/2020 1:15:00 AM 6.5 43.7 0.42 7.54 8.19 11.17
12/14/2020 1:30:00 AM 6.47 43.646 0.419 7.54 8.73 11.17
12/14/2020 1:45:00 AM 6.45 43.61 0.42 7.54 7.91 11.2
12/14/2020 2:00:00 AM 6.43 43.574 0.42 7.53 8.28 11.2
12/14/2020 2:15:00 AM 6.41 43.538 0.42 7.53 8.22 11.2
12/14/2020 2:30:00 AM 6.39 43.502 0.42 7.53 7.84 11.17
12/14/2020 2:45:00 AM 6.38 43.484 0.42 7.52 7.7 11.14
12/14/2020 3:00:00 AM 6.37 43.466 0.42 7.52 6.56 11.15
12/14/2020 3:15:00 AM 6.37 43.466 0.42 7.52 6.73 11.21
12/14/2020 3:30:00 AM 6.36 43.448 0.42 7.52 6.48 11.18
12/14/2020 3:45:00 AM 6.35 43.43 0.42 7.52 6.41 11.13
12/14/2020 4:00:00 AM 6.35 43.43 0.42 7.52 6.5 11.15
12/14/2020 4:15:00 AM 6.34 43.412 0.421 7.52 6.15 11.16
12/14/2020 4:30:00 AM 6.33 43.394 0.423 7.51 5.94 11.14
12/14/2020 4:45:00 AM 6.33 43.394 0.425 7.52 6.35 11.13
12/14/2020 5:00:00 AM 6.32 43.376 0.425 7.52 7.03 11.11
12/14/2020 5:15:00 AM 6.32 43.376 0.425 7.52 7.32 11.13
12/14/2020 5:30:00 AM 6.31 43.358 0.425 7.51 7.61 11.12
12/14/2020 5:45:00 AM 6.31 43.358 0.425 7.51 7.54 11.14
12/14/2020 6:00:00 AM 5.48 41.864 0.369 6.52 6.38 9.65
12/14/2020 6:15:00 AM 6.2 43.16 0.417 7.38 7.23 10.93
12/14/2020 6:30:00 AM 6.29 43.322 0.423 7.5 7.44 11.13
12/14/2020 6:45:00 AM 6.3 43.34 0.423 7.51 7.33 11.12
12/14/2020 7:00:00 AM 6.3 43.34 0.423 7.51 7.36 11.15
12/14/2020 7:15:00 AM 6.29 43.322 0.422 7.51 7.21 11.18
12/14/2020 7:30:00 AM 6.29 43.322 0.421 7.51 7.21 11.15
12/14/2020 7:45:00 AM 6.28 43.304 0.421 7.51 7.22 11.06
12/14/2020 8:00:00 AM 6.28 43.304 0.42 7.51 7.59 11.04
12/14/2020 8:15:00 AM 6.28 43.304 0.42 7.51 6.88 11.11
12/14/2020 8:30:00 AM 6.27 43.286 0.419 7.51 5.77 11.2
12/14/2020 8:45:00 AM 6.26 43.268 0.419 7.52 5.82 11.23
12/14/2020 9:00:00 AM 6.23 43.214 0.417 7.52 6.43 11.27
12/14/2020 9:15:00 AM 6.2 43.16 0.416 7.53 6.55 11.28
12/14/2020 9:30:00 AM 6.15 43.07 0.415 7.53 6.47 11.35
12/14/2020 9:45:00 AM 6.1 42.98 0.414 7.54 6.55 11.4
12/14/2020 10:00:00 AM 6.05 42.89 0.413 7.54 6.81 11.4
12/14/2020 10:15:00 AM 6 42.8 0.413 7.55 7.42 11.48
12/14/2020 10:30:00 AM 5.98 42.764 0.412 7.55 7.54 11.58
12/14/2020 10:45:00 AM 5.93 42.674 0.412 7.56 8.12 11.54
12/14/2020 11:00:00 AM 5.84 42.512 0.411 7.56 10.76 11.64
12/14/2020 11:15:00 AM 4.97 40.946 0.356 6.55 7.14 10.18
12/14/2020 11:30:00 AM 5.55 41.99 0.403 7.43 10.24 11.57
12/14/2020 11:45:00 AM 5.57 42.026 0.409 7.55 8.59 11.7
12/14/2020 12:00:00 PM 5.55 41.99 0.409 7.57 8.4 11.85
12/14/2020 12:15:00 PM 5.53 41.954 0.409 7.57 12.91 11.92
12/14/2020 12:30:00 PM 5.54 41.972 0.409 7.58 9.77 12.01
12/14/2020 12:45:00 PM 5.54 41.972 0.409 7.58 39.02 12.05
12/14/2020 1:00:00 PM 5.54 41.972 0.408 7.59 44.22 12.07
12/14/2020 1:15:00 PM 4.82 40.676 0.353 6.58 12.17 10.51
12/14/2020 1:30:00 PM 5.49 41.882 0.4 7.47 10.4 11.99
12/14/2020 1:45:00 PM 5.63 42.134 0.405 7.59 11.46 12.23
12/14/2020 2:00:00 PM 5.68 42.224 0.405 7.61 8.75 12.34
12/14/2020 2:15:00 PM 5.72 42.296 0.405 7.62 8.13 12.34
12/14/2020 2:30:00 PM 5.75 42.35 0.404 7.62 8.16 12.38
12/14/2020 2:45:00 PM 5.78 42.404 0.403 7.63 8.29 12.4
12/14/2020 3:00:00 PM 5.03 41.054 0.348 6.62 6.81 10.91
12/14/2020 3:15:00 PM 5.68 42.224 0.394 7.51 7.78 12.36
12/14/2020 3:30:00 PM 5.75 42.35 0.399 7.63 7.61 12.62
12/14/2020 3:45:00 PM 5.73 42.314 0.399 7.65 6.94 12.64
12/14/2020 4:00:00 PM 5.68 42.224 0.398 7.65 12.26 12.65
12/14/2020 4:15:00 PM 5.64 42.152 0.397 7.65 9 12.5
12/14/2020 4:30:00 PM 5.59 42.062 0.396 7.64 7.67 12.41
12/14/2020 4:45:00 PM 5.28 41.504 0.377 7.29 6.55 11.87
12/14/2020 5:00:00 PM 5.43 41.774 0.392 7.57 6.86 12.29
12/14/2020 5:15:00 PM 5.38 41.684 0.393 7.6 6.89 12.28
12/14/2020 5:30:00 PM 5.31 41.558 0.393 7.6 6.85 12.23
12/14/2020 5:45:00 PM 5.24 41.432 0.392 7.59 7.41 12.19
12/14/2020 6:00:00 PM 4.49 40.082 0.34 6.59 6.66 10.63
12/14/2020 6:15:00 PM 5.06 41.108 0.384 7.46 7.51 12.03
12/14/2020 6:30:00 PM 5.13 41.234 0.389 7.57 7.44 12.25
12/14/2020 6:45:00 PM 5.15 41.27 0.389 7.59 7.63 12.29
12/14/2020 7:00:00 PM 5.16 41.288 0.389 7.6 7.54 12.15
12/14/2020 7:15:00 PM 5.17 41.306 0.388 7.6 7.76 12.23
12/14/2020 7:30:00 PM 5.19 41.342 0.387 7.59 8.14 12.25
12/14/2020 7:45:00 PM 5.2 41.36 0.386 7.59 8 12.2
12/14/2020 8:00:00 PM 5.2 41.36 0.386 7.59 7.95 12.13
12/14/2020 8:15:00 PM 4.5 40.1 0.334 6.58 7.07 10.54
12/14/2020 8:30:00 PM 5.07 41.126 0.378 7.45 8.28 11.89
12/14/2020 8:45:00 PM 5.1 41.18 0.383 7.56 8.57 12.05
12/14/2020 9:00:00 PM 5.05 41.09 0.383 7.58 8.53 12.1
12/14/2020 9:15:00 PM 4.97 40.946 0.383 7.57 9.05 12.11
12/14/2020 9:30:00 PM 4.89 40.802 0.383 7.57 8.83 12.14
12/14/2020 9:45:00 PM 4.81 40.658 0.382 7.57 9.37 12.09
12/14/2020 10:00:00 PM 4.76 40.568 0.382 7.57 8.87 12.17
12/14/2020 10:15:00 PM 4.53 40.154 0.367 7.27 8.38 11.65
12/14/2020 10:30:00 PM 4.66 40.388 0.379 7.53 9.35 12.07
12/14/2020 10:45:00 PM 4.66 40.388 0.38 7.56 9.28 12.12
12/14/2020 11:00:00 PM 4.64 40.352 0.38 7.56 10.61 12.12
12/14/2020 11:15:00 PM 4.01 39.218 0.33 6.56 9.34 10.54
12/14/2020 11:30:00 PM 4.52 40.136 0.373 7.42 10.8 11.94
12/14/2020 11:45:00 PM 4.57 40.226 0.378 7.54 11.43 12.12
12/15/2020 12:00:00 AM 4.55 40.19 0.379 7.56 11.17 12.18
12/15/2020 12:15:00 AM 4.51 40.118 0.378 7.56 11.21 12.19
12/15/2020 12:30:00 AM 3.87 38.966 0.328 6.56 8.2 10.52
12/15/2020 12:45:00 AM 4.34 39.812 0.371 7.42 9.47 11.95
12/15/2020 1:00:00 AM 4.36 39.848 0.376 7.54 78.62 12.14
12/15/2020 1:15:00 AM 4.32 39.776 0.377 7.55 124.69 12.16
12/15/2020 1:30:00 AM 4.28 39.704 0.377 7.56 49.4 12.2
12/15/2020 1:45:00 AM 4.24 39.632 0.376 7.56 59.4 12.2
12/15/2020 2:00:00 AM 4.19 39.542 0.376 7.55 130.6 12.23
12/15/2020 2:15:00 AM 4.15 39.47 0.376 7.55 126.25 12.22
12/15/2020 2:30:00 AM 4.12 39.416 0.376 7.55 69.38 12.22
12/15/2020 2:45:00 AM 4.09 39.362 0.375 7.55 45.69 12.26
12/15/2020 3:00:00 AM 4.05 39.29 0.375 7.55 26.66 12.28
12/15/2020 3:15:00 AM 4.02 39.236 0.375 7.55 19.4 12.21
12/15/2020 3:30:00 AM 3.98 39.164 0.374 7.55 16.18 12.25
12/15/2020 3:45:00 AM 3.94 39.092 0.374 7.54 125.24 12.28
12/15/2020 4:00:00 AM 3.9 39.02 0.373 7.54 92.66 12.3
12/15/2020 4:15:00 AM 3.87 38.966 0.373 7.54 91.38 12.29
12/15/2020 4:30:00 AM 3.32 37.976 0.323 6.53 18.49 10.67
12/15/2020 4:45:00 AM 3.72 38.696 0.365 7.4 22.08 12.03
12/15/2020 5:00:00 AM 3.75 38.75 0.371 7.52 19.17 12.27
12/15/2020 5:15:00 AM 3.72 38.696 0.372 7.53 47.04 12.32
12/15/2020 5:30:00 AM 3.68 38.624 0.371 7.53 80.42 12.34
12/15/2020 5:45:00 AM 3.65 38.57 0.371 7.53 91.32 12.31
12/15/2020 6:00:00 AM 3.61 38.498 0.371 7.53 115.16 12.33
12/15/2020 6:15:00 AM 3.1 37.58 0.322 6.53 25.24 10.72
12/15/2020 6:30:00 AM 3.48 38.264 0.364 7.39 93.72 12.15
12/15/2020 6:45:00 AM 3.5 38.3 0.369 7.51 105.47 12.35
12/15/2020 7:00:00 AM 3.48 38.264 0.37 7.52 80.98 12.31
12/15/2020 7:15:00 AM 3 37.4 0.321 6.52 58.97 10.8
12/15/2020 7:30:00 AM 3.38 38.084 0.364 7.39 42.68 12.24
12/15/2020 7:45:00 AM 3.41 38.138 0.37 7.5 55.45 12.37
12/15/2020 8:00:00 AM -99999.99 -179968 -99999.99 -99999.99 -99999.99 -99999.99
12/15/2020 8:15:00 AM -99999.99 -179968 -99999.99 -99999.99 -99999.99 -99999.99
12/15/2020 8:30:00 AM -99999.99 -179968 -99999.99 -99999.99 -99999.99 -99999.99
12/15/2020 8:45:00 AM -99999.99 -179968 -99999.99 -99999.99 -99999.99 -99999.99
12/15/2020 9:00:00 AM 2.83 37.094 0.001 7.25 0.17 13.66
12/15/2020 9:15:00 AM 3.46 38.228 0.311 7.41 21.59 13.05
12/15/2020 9:30:00 AM 3.63 38.534 0.361 7.46 17.2 12.98
12/15/2020 9:45:00 AM 3.71 38.678 0.368 7.49 6.72 13.12
12/15/2020 10:00:00 AM 3.78 38.804 0.368 7.52 5.03 13.19
12/15/2020 10:15:00 AM 3.84 38.912 0.37 7.54 4.98 13.32
12/15/2020 10:30:00 AM 3.88 38.984 0.369 7.55 5.79 13.39
12/15/2020 10:45:00 AM 3.95 39.11 0.37 7.57 5.82 13.46
12/15/2020 11:00:00 AM 4.05 39.29 0.369 7.58 5.81 13.53
12/15/2020 11:15:00 AM 4.14 39.452 0.37 7.59 5.08 13.55
12/15/2020 11:30:00 AM 4.23 39.614 0.37 7.6 4.96 13.62
12/15/2020 11:45:00 AM 4.32 39.776 0.37 7.61 4.12 13.69
12/15/2020 12:00:00 PM 4.36 39.848 0.37 7.62 3.8 13.68
12/15/2020 12:15:00 PM 4.42 39.956 0.37 7.63 3.7 13.59
12/15/2020 12:30:00 PM 4.46 40.028 0.37 7.63 3.57 13.69
12/15/2020 12:45:00 PM 4.49 40.082 0.37 7.64 3.47 13.68
12/15/2020 1:00:00 PM 4.53 40.154 0.371 7.65 3.23 13.78
12/15/2020 1:15:00 PM 4.57 40.226 0.371 7.66 2.79 13.83
12/15/2020 1:30:00 PM 4.6 40.28 0.37 7.66 2.47 13.88
12/15/2020 1:45:00 PM 3.99 39.182 0.322 6.65 2.23 12
12/15/2020 2:00:00 PM 4.52 40.136 0.364 7.54 2.41 13.57
12/15/2020 2:15:00 PM 4.6 40.28 0.37 7.67 4.04 13.78
12/15/2020 2:30:00 PM 4.61 40.298 0.37 7.69 3.01 13.93
12/15/2020 2:45:00 PM 4.61 40.298 0.371 7.7 2.15 13.85
12/15/2020 3:00:00 PM 4.61 40.298 0.372 7.7 1.91 13.94
12/15/2020 3:15:00 PM 4.6 40.28 0.371 7.7 2.01 13.91
12/15/2020 3:30:00 PM 4.6 40.28 0.372 7.7 2.25 13.92
12/15/2020 3:45:00 PM 4.59 40.262 0.372 7.7 2.27 13.88
12/15/2020 4:00:00 PM 4.58 40.244 0.372 7.69 2.37 13.73
12/15/2020 4:15:00 PM 4.56 40.208 0.373 7.68 1.96 13.68
12/15/2020 4:30:00 PM 4.53 40.154 0.373 7.67 2.72 13.51
12/15/2020 4:45:00 PM 4.5 40.1 0.373 7.65 2.11 13.46
12/15/2020 5:00:00 PM 4.47 40.046 0.373 7.64 2.25 13.33
12/15/2020 5:15:00 PM 4.44 39.992 0.374 7.63 2.33 13.28
12/15/2020 5:30:00 PM 4.42 39.956 0.374 7.62 2 13.18
12/15/2020 5:45:00 PM 4.4 39.92 0.374 7.6 1.83 13.05
12/15/2020 6:00:00 PM 4.38 39.884 0.375 7.6 1.85 13.05
12/15/2020 6:15:00 PM 4.37 39.866 0.375 7.59 1.66 13.02
12/15/2020 6:30:00 PM 4.35 39.83 0.376 7.59 1.91 12.97
12/15/2020 6:45:00 PM 4.34 39.812 0.375 7.59 2.09 12.96
12/15/2020 7:00:00 PM 4.31 39.758 0.376 7.58 2.23 12.94
12/15/2020 7:15:00 PM 4.29 39.722 0.376 7.58 1.8 12.92
12/15/2020 7:30:00 PM 4.27 39.686 0.376 7.58 1.88 12.84
12/15/2020 7:45:00 PM 4.25 39.65 0.376 7.57 1.84 12.89
12/15/2020 8:00:00 PM 4.22 39.596 0.377 7.57 1.97 12.85
12/15/2020 8:15:00 PM 4.18 39.524 0.377 7.56 2.09 12.82
12/15/2020 8:30:00 PM 4.15 39.47 0.377 7.56 2.22 12.79
12/15/2020 8:45:00 PM 4.12 39.416 0.378 7.56 2.23 12.76
12/15/2020 9:00:00 PM 4.08 39.344 0.378 7.55 2.32 12.67
12/15/2020 9:15:00 PM 4.04 39.272 0.378 7.55 2 12.66
12/15/2020 9:30:00 PM 4.01 39.218 0.379 7.54 1.87 12.69
12/15/2020 9:45:00 PM 3.97 39.146 0.38 7.54 1.91 12.66
12/15/2020 10:00:00 PM 3.4 38.12 0.331 6.54 1.59 10.95
12/15/2020 10:15:00 PM 3.81 38.858 0.374 7.4 1.92 12.31
12/15/2020 10:30:00 PM 3.84 38.912 0.38 7.52 1.75 12.56
12/15/2020 10:45:00 PM 3.81 38.858 0.381 7.53 1.83 12.56
12/15/2020 11:00:00 PM 3.79 38.822 0.382 7.53 1.73 12.58
12/15/2020 11:15:00 PM 3.76 38.768 0.382 7.53 1.85 12.53
12/15/2020 11:30:00 PM 3.73 38.714 0.382 7.52 1.83 12.57
12/15/2020 11:45:00 PM 3.21 37.778 0.333 6.52 1.38 10.89
12/16/2020 12:00:00 AM 3.61 38.498 0.377 7.38 1.71 12.31
12/16/2020 12:15:00 AM 3.64 38.552 0.383 7.5 1.57 12.5
12/16/2020 12:30:00 AM 3.62 38.516 0.384 7.51 1.94 12.53
12/16/2020 12:45:00 AM 3.12 37.616 0.334 6.51 1.05 10.85
12/16/2020 1:00:00 AM 3.52 38.336 0.378 7.37 1.31 12.33
12/16/2020 1:15:00 AM 3.54 38.372 0.385 7.49 1.29 12.51
12/16/2020 1:30:00 AM 3.52 38.336 0.386 7.51 1.48 12.51
12/16/2020 1:45:00 AM 3.03 37.454 0.337 6.51 1.2 10.85
12/16/2020 2:00:00 AM 3.4 38.12 0.381 7.37 1.58 12.31
12/16/2020 2:15:00 AM 3.43 38.174 0.387 7.48 1.46 12.42
12/16/2020 2:30:00 AM 3.41 38.138 0.388 7.5 1.68 12.5
12/16/2020 2:45:00 AM 3.38 38.084 0.388 7.5 1.66 12.51
12/16/2020 3:00:00 AM 3.34 38.012 0.388 7.5 2.03 12.54
12/16/2020 3:15:00 AM 2.86 37.148 0.338 6.5 1.29 10.82
12/16/2020 3:30:00 AM 3.22 37.796 0.382 7.36 1.35 12.27
12/16/2020 3:45:00 AM 3.25 37.85 0.388 7.48 1.35 12.43
12/16/2020 4:00:00 AM 3.24 37.832 0.389 7.49 1.36 12.42
12/16/2020 4:15:00 AM 3.23 37.814 0.389 7.49 1.32 12.49
12/16/2020 4:30:00 AM 3.21 37.778 0.39 7.49 1.31 12.55
12/16/2020 4:45:00 AM 3.2 37.76 0.39 7.49 1.45 12.55
12/16/2020 5:00:00 AM 2.76 36.968 0.339 6.49 1.14 10.85
12/16/2020 5:15:00 AM 3.11 37.598 0.384 7.35 1.32 12.21
12/16/2020 5:30:00 AM 3.14 37.652 0.39 7.47 1.41 12.49
12/16/2020 5:45:00 AM 3.12 37.616 0.391 7.48 1.58 12.47
12/16/2020 6:00:00 AM 3.11 37.598 0.392 7.49 1.44 12.49
12/16/2020 6:15:00 AM 3.1 37.58 0.392 7.49 1.47 12.52
12/16/2020 6:30:00 AM 2.68 36.824 0.341 6.49 0.98 10.83
12/16/2020 6:45:00 AM 3.04 37.472 0.386 7.35 1.24 12.29
12/16/2020 7:00:00 AM 2.68 36.824 0.341 6.48 1.22 10.89
12/16/2020 7:15:00 AM 3.02 37.436 0.386 7.35 1.74 12.3
12/16/2020 7:30:00 AM 3.05 37.49 0.392 7.47 1.5 12.5
12/16/2020 7:45:00 AM 2.64 36.752 0.342 6.49 0.96 10.85
12/16/2020 8:00:00 AM 2.99 37.382 0.387 7.35 2.1 12.34
12/16/2020 8:15:00 AM 3.03 37.454 0.393 7.47 3.04 12.55
12/16/2020 8:30:00 AM 3.04 37.472 0.395 7.48 3.16 12.56
12/16/2020 8:45:00 AM 3.02 37.436 0.394 7.49 3.87 12.65
12/16/2020 9:00:00 AM 3.01 37.418 0.395 7.5 2.73 12.7
12/16/2020 9:15:00 AM 3 37.4 0.395 7.5 2.36 12.76
12/16/2020 9:30:00 AM 3 37.4 0.395 7.51 2.95 12.72
12/16/2020 9:45:00 AM 3 37.4 0.396 7.51 2.64 12.83
12/16/2020 10:00:00 AM 2.61 36.698 0.345 6.53 2.2 11.18
12/16/2020 10:15:00 AM 2.95 37.31 0.39 7.39 2.34 12.75
12/16/2020 10:30:00 AM 2.99 37.382 0.396 7.51 3.31 13.04
12/16/2020 10:45:00 AM 3 37.4 0.396 7.54 3 13.13
12/16/2020 11:00:00 AM 3.01 37.418 0.397 7.54 2.73 13.09
12/16/2020 11:15:00 AM 3.02 37.436 0.397 7.54 2.77 13.19
12/16/2020 11:30:00 AM 3.02 37.436 0.398 7.55 2.38 13.24
12/16/2020 11:45:00 AM 3.02 37.436 0.398 7.55 2.44 13.27
12/16/2020 12:00:00 PM 2.57 36.626 0.346 6.55 2.04 11.52
12/16/2020 12:15:00 PM 2.85 37.13 0.391 7.43 1.97 13.07
12/16/2020 12:30:00 PM 2.83 37.094 0.397 7.56 1.48 13.35
12/16/2020 12:45:00 PM 2.76 36.968 0.398 7.58 1.39 13.45
12/16/2020 1:00:00 PM 2.37 36.266 0.345 6.58 1.28 11.77
12/16/2020 1:15:00 PM 2.69 36.842 0.391 7.46 1.8 13.33
12/16/2020 1:30:00 PM 2.74 36.932 0.397 7.58 1.63 13.62
12/16/2020 1:45:00 PM 2.74 36.932 0.398 7.61 1.69 13.66
12/16/2020 2:00:00 PM 2.33 36.194 0.345 6.6 1.32 11.9
12/16/2020 2:15:00 PM 2.54 36.572 0.39 7.48 1.59 13.47
12/16/2020 2:30:00 PM 2.45 36.41 0.396 7.6 1.46 13.57
12/16/2020 2:45:00 PM 1.98 35.564 0.345 6.6 1.31 11.91
12/16/2020 3:00:00 PM 2.15 35.87 0.39 7.48 1.55 13.43
12/16/2020 3:15:00 PM 1.76 35.168 0.345 6.6 1.44 11.79
12/16/2020 3:30:00 PM 1.88 35.384 0.389 7.47 1.69 13.34
12/16/2020 3:45:00 PM 1.78 35.204 0.395 7.58 1.73 13.55
12/16/2020 4:00:00 PM 1.64 34.952 0.395 7.59 1.79 13.53
12/16/2020 4:15:00 PM 1.18 34.124 0.343 6.58 1.44 11.74
12/16/2020 4:30:00 PM 1.09 33.962 0.387 7.45 1.7 13.33
12/16/2020 4:45:00 PM 0.69 33.242 0.341 6.58 1.44 11.7
12/16/2020 5:00:00 PM 0.65 33.17 0.386 7.45 1.92 13.29
12/16/2020 5:15:00 PM 0.48 32.864 0.391 7.57 2.49 13.42
12/16/2020 5:30:00 PM 0.33 32.594 0.392 7.58 1.97 13.55
12/16/2020 5:45:00 PM 0.23 32.414 0.391 7.58 1.98 13.52
12/16/2020 6:00:00 PM 0.26 32.468 0.391 7.58 1.74 13.49
12/16/2020 6:15:00 PM 0.31 32.558 0.391 7.57 1.53 13.51
12/16/2020 6:30:00 PM 0.47 32.846 0.392 7.57 1.34 13.59
12/16/2020 6:45:00 PM 0.59 33.062 0.392 7.56 1.48 13.56
12/16/2020 7:00:00 PM 0.69 33.242 0.342 6.55 1.39 11.69
12/16/2020 7:15:00 PM 0.85 33.53 0.387 7.42 1.7 13.23
12/16/2020 7:30:00 PM 0.79 33.422 0.343 6.54 1.79 11.71
12/16/2020 7:45:00 PM 0.81 33.458 0.388 7.41 1.69 13.23
12/16/2020 8:00:00 PM 0.81 33.458 0.394 7.53 1.75 13.4
12/16/2020 8:15:00 PM 0.79 33.422 0.394 7.54 1.7 13.44
12/16/2020 8:30:00 PM 0.83 33.494 0.395 7.54 1.79 13.45
12/16/2020 8:45:00 PM 0.85 33.53 0.396 7.53 1.71 13.42
12/16/2020 9:00:00 PM 0.71 33.278 0.396 7.53 1.79 13.31
12/16/2020 9:15:00 PM 0.77 33.386 0.397 7.53 1.84 13.38
12/16/2020 9:30:00 PM 0.62 33.116 0.346 6.53 1.69 11.58
12/16/2020 9:45:00 PM 0.62 33.116 0.39 7.39 1.6 13.12
12/16/2020 10:00:00 PM 0.58 33.044 0.397 7.5 1.53 13.29
12/16/2020 10:15:00 PM 0.55 32.99 0.397 7.52 1.51 13.35
12/16/2020 10:30:00 PM 0.41 32.738 0.346 6.52 1.38 11.55
12/16/2020 10:45:00 PM 0.28 32.504 0.391 7.38 1.64 13.14
12/16/2020 11:00:00 PM 0.14 32.252 0.396 7.5 1.81 13.24
12/16/2020 11:15:00 PM 0.06 32.108 0.397 7.51 1.97 13.38
12/16/2020 11:30:00 PM 0.03 32.054 0.397 7.51 2.13 13.37
12/16/2020 11:45:00 PM 0.02 32.036 0.347 6.51 1.53 11.55
12/17/2020 12:00:00 AM 0.02 32.036 0.392 7.36 2.01 13.12
12/17/2020 12:15:00 AM 0.01 32.018 0.399 7.48 1.81 13.17
12/17/2020 12:30:00 AM 0.01 32.018 0.401 7.49 1.71 13.25
12/17/2020 12:45:00 AM 0.02 32.036 0.35 6.5 1.42 11.55
12/17/2020 1:00:00 AM 0.03 32.054 0.351 6.5 1.53 11.51
12/17/2020 1:15:00 AM 0.03 32.054 0.397 7.36 1.48 13.05
12/17/2020 1:30:00 AM 0.07 32.126 0.403 7.48 1.52 13.15
12/17/2020 1:45:00 AM 0.1 32.18 0.352 6.5 1.25 11.53
12/17/2020 2:00:00 AM 0.13 32.234 0.398 7.36 1.43 13.04
12/17/2020 2:15:00 AM 0.17 32.306 0.354 6.5 1.09 11.48
12/17/2020 2:30:00 AM 0.23 32.414 0.4 7.36 1.31 13
12/17/2020 2:45:00 AM 0.28 32.504 0.406 7.48 1.25 13.13
12/17/2020 3:00:00 AM 0.32 32.576 0.354 6.5 0.95 11.47
12/17/2020 3:15:00 AM 0.39 32.702 0.354 6.5 0.92 11.51
12/17/2020 3:30:00 AM 0.48 32.864 0.355 6.49 1 11.49
12/17/2020 3:45:00 AM 0.56 33.008 0.356 6.49 1.02 11.44
12/17/2020 4:00:00 AM 0.64 33.152 0.357 6.5 1.76 11.38
12/17/2020 4:15:00 AM 0.81 33.458 0.404 7.35 1.91 12.89
12/17/2020 4:30:00 AM 0.81 33.458 0.358 6.48 1.11 11.31
12/17/2020 4:45:00 AM 0.98 33.764 0.406 7.34 1.4 12.66
12/17/2020 5:00:00 AM 1.07 33.926 0.413 7.45 1.53 13
12/17/2020 5:15:00 AM 1.12 34.016 0.413 7.46 1.4 12.96
12/17/2020 5:30:00 AM 1.16 34.088 0.414 7.47 1.51 12.97
12/17/2020 5:45:00 AM 1.18 34.124 0.415 7.47 1.49 12.99
12/17/2020 6:00:00 AM 1.2 34.16 0.414 7.47 1.62 12.95
12/17/2020 6:15:00 AM 1.06 33.908 0.36 6.47 1.13 11.21
12/17/2020 6:30:00 AM 1.07 33.926 0.36 6.47 1.17 11.23
12/17/2020 6:45:00 AM 1.22 34.196 0.406 7.33 1.44 12.62
12/17/2020 7:00:00 AM 1.25 34.25 0.413 7.45 1.53 12.89
12/17/2020 7:15:00 AM 1.24 34.232 0.413 7.46 1.68 12.94
12/17/2020 7:30:00 AM 1.23 34.214 0.413 7.47 1.7 13.02
12/17/2020 7:45:00 AM 1.23 34.214 0.413 7.46 1.48 12.98
12/17/2020 8:00:00 AM 1.23 34.214 0.413 7.47 1.71 13.06
12/17/2020 8:15:00 AM 1.08 33.944 0.358 6.48 3.32 11.4
12/17/2020 8:30:00 AM 1.25 34.25 0.405 7.34 3.6 12.85
12/17/2020 8:45:00 AM 1.32 34.376 0.411 7.47 2.81 13.11
12/17/2020 9:00:00 AM 1.36 34.448 0.411 7.49 2.82 13.19
12/17/2020 9:15:00 AM 1.39 34.502 0.411 7.5 2.9 13.45
12/17/2020 9:30:00 AM 1.44 34.592 0.411 7.51 2.5 13.52
12/17/2020 9:45:00 AM 1.49 34.682 0.411 7.52 2.36 13.6
12/17/2020 10:00:00 AM 1.36 34.448 0.356 6.53 1.9 11.85
12/17/2020 10:15:00 AM 1.61 34.898 0.401 7.4 2.36 13.44
12/17/2020 10:30:00 AM 1.72 35.096 0.406 7.52 2.75 13.66
12/17/2020 10:45:00 AM 1.58 34.844 0.353 6.54 2.49 12
12/17/2020 11:00:00 AM 1.86 35.348 0.398 7.42 3.98 13.63
12/17/2020 11:15:00 AM 1.96 35.528 0.401 7.54 3.85 13.79
12/17/2020 11:30:00 AM 2.03 35.654 0.401 7.56 4.66 13.97
12/17/2020 11:45:00 AM 2.08 35.744 0.4 7.57 4.7 13.98
12/17/2020 12:00:00 PM 1.82 35.276 0.346 6.56 3.59 12.16
12/17/2020 12:15:00 PM 2.06 35.708 0.39 7.44 4.65 13.81
12/17/2020 12:30:00 PM 1.81 35.258 0.343 6.57 3.21 12.23
12/17/2020 12:45:00 PM 2.05 35.69 0.386 7.46 3.64 13.8
12/17/2020 1:00:00 PM 2.06 35.708 0.391 7.58 3.42 14.08
12/17/2020 1:15:00 PM 2.04 35.672 0.391 7.6 3.96 14.14
12/17/2020 1:30:00 PM 1.73 35.114 0.339 6.59 3.07 12.28
12/17/2020 1:45:00 PM 1.9 35.42 0.382 7.47 3.55 13.9
12/17/2020 2:00:00 PM 1.86 35.348 0.387 7.58 2.67 14.2
12/17/2020 2:15:00 PM 1.54 34.772 0.337 6.6 2.05 12.36
12/17/2020 2:30:00 PM 1.67 35.006 0.379 7.46 2.27 13.91
12/17/2020 2:45:00 PM 1.62 34.916 0.384 7.59 2.4 14.24
12/17/2020 3:00:00 PM 1.55 34.79 0.384 7.6 2.55 14.3
12/17/2020 3:15:00 PM 1.27 34.286 0.333 6.59 2.92 12.41
12/17/2020 3:30:00 PM 1.37 34.466 0.376 7.47 3.08 13.91
12/17/2020 3:45:00 PM 1.33 34.394 0.382 7.59 3.31 14.24
12/17/2020 4:00:00 PM 1.26 34.268 0.382 7.6 2.97 14.3
12/17/2020 4:15:00 PM 1.2 34.16 0.383 7.61 3.02 14.33
12/17/2020 4:30:00 PM 0.98 33.764 0.333 6.6 2.26 12.34
12/17/2020 4:45:00 PM 1.05 33.89 0.376 7.46 2.82 13.95
12/17/2020 5:00:00 PM 1 33.8 0.381 7.57 2.97 14.11
12/17/2020 5:15:00 PM 0.95 33.71 0.381 7.58 3.6 14.16
12/17/2020 5:30:00 PM 0.92 33.656 0.381 7.58 3.42 14.13
12/17/2020 5:45:00 PM 0.91 33.638 0.381 7.57 2.6 14.1
12/17/2020 6:00:00 PM 0.92 33.656 0.381 7.57 2.16 13.91
12/17/2020 6:15:00 PM 0.93 33.674 0.381 7.57 1.79 13.99
12/17/2020 6:30:00 PM 0.83 33.494 0.332 6.58 1.45 12.18
12/17/2020 6:45:00 PM 0.95 33.71 0.374 7.43 1.72 13.63
12/17/2020 7:00:00 PM 0.98 33.764 0.379 7.54 1.82 13.85
12/17/2020 7:15:00 PM 1 33.8 0.38 7.55 1.71 13.89
12/17/2020 7:30:00 PM 0.88 33.584 0.33 6.54 1.26 12.01
12/17/2020 7:45:00 PM 1.01 33.818 0.372 7.41 1.5 13.49
12/17/2020 8:00:00 PM 1.05 33.89 0.379 7.53 1.52 13.8
12/17/2020 8:15:00 PM 1.07 33.926 0.379 7.54 1.6 13.8
12/17/2020 8:30:00 PM 1.09 33.962 0.379 7.54 1.57 13.75
12/17/2020 8:45:00 PM 0.96 33.728 0.33 6.54 1.26 11.97
12/17/2020 9:00:00 PM 1.1 33.98 0.372 7.4 1.5 13.53
12/17/2020 9:15:00 PM 1.13 34.034 0.378 7.51 1.55 13.72
12/17/2020 9:30:00 PM 1.13 34.034 0.378 7.52 1.52 13.67
12/17/2020 9:45:00 PM 1.13 34.034 0.378 7.52 1.75 13.6
12/17/2020 10:00:00 PM 1.12 34.016 0.379 7.52 1.8 13.71
12/17/2020 10:15:00 PM 1.11 33.998 0.379 7.52 1.63 13.68
12/17/2020 10:30:00 PM 1.1 33.98 0.378 7.51 1.54 13.64
12/17/2020 10:45:00 PM 0.95 33.71 0.33 6.51 1.3 11.86
12/17/2020 11:00:00 PM 1.08 33.944 0.372 7.37 1.64 13.4
12/17/2020 11:15:00 PM 1.09 33.962 0.378 7.49 1.62 13.52
12/17/2020 11:30:00 PM 1.09 33.962 0.379 7.5 1.39 13.61
12/17/2020 11:45:00 PM 0.93 33.674 0.33 6.5 1.25 11.81
12/18/2020 12:00:00 AM 1.05 33.89 0.373 7.37 1.58 13.36
12/18/2020 12:15:00 AM 0.94 33.692 0.33 6.49 1.12 11.82
12/18/2020 12:30:00 AM 0.95 33.71 0.33 6.49 1.1 11.77
12/18/2020 12:45:00 AM 1.09 33.962 0.373 7.36 1.23 13.33
12/18/2020 1:00:00 AM 1.12 34.016 0.379 7.48 1.19 13.5
12/18/2020 1:15:00 AM 1.12 34.016 0.38 7.49 1.24 13.55
12/18/2020 1:30:00 AM 0.96 33.728 0.331 6.49 0.99 11.76
12/18/2020 1:45:00 AM 1.07 33.926 0.374 7.36 1.25 13.32
12/18/2020 2:00:00 AM 1.06 33.908 0.38 7.47 1.36 13.51
12/18/2020 2:15:00 AM 1.03 33.854 0.381 7.49 1.27 13.55
12/18/2020 2:30:00 AM 0.99 33.782 0.381 7.49 1.28 13.57
12/18/2020 2:45:00 AM 0.96 33.728 0.381 7.49 1.29 13.58
12/18/2020 3:00:00 AM 0.93 33.674 0.382 7.49 1.37 13.6
12/18/2020 3:15:00 AM 0.92 33.656 0.382 7.49 1.58 13.64
12/18/2020 3:30:00 AM 0.93 33.674 0.382 7.48 1.3 13.46
12/18/2020 3:45:00 AM 0.83 33.494 0.333 6.49 0.92 11.77
12/18/2020 4:00:00 AM 0.96 33.728 0.376 7.35 1.06 13.32
12/18/2020 4:15:00 AM 0.88 33.584 0.333 6.48 0.79 11.74
12/18/2020 4:30:00 AM 1.03 33.854 0.376 7.34 0.98 13.32
12/18/2020 4:45:00 AM 0.95 33.71 0.333 6.48 0.84 11.75
12/18/2020 5:00:00 AM 1.11 33.998 0.376 7.34 1.1 13.28
12/18/2020 5:15:00 AM 1.17 34.106 0.382 7.46 1.11 13.47
12/18/2020 5:30:00 AM 1.21 34.178 0.383 7.47 1.05 13.35
12/18/2020 5:45:00 AM 1.24 34.232 0.384 7.47 1.22 13.48
12/18/2020 6:00:00 AM 1.27 34.286 0.383 7.47 1.14 13.37
12/18/2020 6:15:00 AM 1.29 34.322 0.384 7.47 0.97 13.45
12/18/2020 6:30:00 AM 1.31 34.358 0.384 7.47 0.89 13.44
12/18/2020 6:45:00 AM 1.32 34.376 0.385 7.47 0.87 13.45
12/18/2020 7:00:00 AM 1.16 34.088 0.335 6.47 0.8 11.68
12/18/2020 7:15:00 AM 1.17 34.106 0.336 6.48 0.79 11.62
12/18/2020 7:30:00 AM 1.33 34.394 0.379 7.34 15.14 13.15
12/18/2020 7:45:00 AM 1.36 34.448 0.385 7.46 3.25 13.32
12/18/2020 8:00:00 AM 1.38 34.484 0.386 7.48 2.49 13.43
12/18/2020 8:15:00 AM 1.22 34.196 0.336 6.49 1.75 11.71
12/18/2020 8:30:00 AM 1.41 34.538 0.38 7.35 2.96 13.31
12/18/2020 8:45:00 AM 1.28 34.304 0.337 6.49 2.12 11.8
12/18/2020 9:00:00 AM 1.49 34.682 0.381 7.36 2.72 13.37
12/18/2020 9:15:00 AM 1.57 34.826 0.387 7.49 2.44 13.78
12/18/2020 9:30:00 AM 1.64 34.952 0.389 7.52 2.96 12.03
12/18/2020 9:45:00 AM 1.71 35.078 0.388 7.54 3.06 13.74
12/18/2020 10:00:00 AM 1.57 34.826 0.337 6.54 1.71 12.21
12/18/2020 10:15:00 AM 1.82 35.276 0.374 7.27 1.77 13.62
12/18/2020 10:30:00 AM 1.96 35.528 0.386 7.53 1.38 14.16
12/18/2020 10:45:00 AM 2.05 35.69 0.388 7.57 9.92 14.25
12/18/2020 11:00:00 AM 1.86 35.348 0.338 6.58 9.08 12.4
12/18/2020 11:15:00 AM 2.18 35.924 0.382 7.45 4.63 14.09
12/18/2020 11:30:00 AM 2.29 36.122 0.387 7.57 2.14 14.27
12/18/2020 11:45:00 AM 2.37 36.266 0.388 7.6 1.64 14.39
12/18/2020 12:00:00 PM 2.44 36.392 0.389 7.61 1.3 14.31
12/18/2020 12:15:00 PM 2.48 36.464 0.388 7.61 1.31 14.4
12/18/2020 12:30:00 PM 2.53 36.554 0.389 7.62 1.56 14.46
12/18/2020 12:45:00 PM 2.57 36.626 0.389 7.62 1.9 14.45
12/18/2020 1:00:00 PM 2.59 36.662 0.389 7.63 1.99 14.53
12/18/2020 1:15:00 PM 2.61 36.698 0.389 7.63 2 14.53
12/18/2020 1:30:00 PM 2.27 36.086 0.338 6.62 1.64 12.64
12/18/2020 1:45:00 PM 2.57 36.626 0.382 7.5 1.99 14.29
12/18/2020 2:00:00 PM 2.26 36.068 0.339 6.63 1.64 12.62
12/18/2020 2:15:00 PM 2.55 36.59 0.383 7.51 1.79 14.32
12/18/2020 2:30:00 PM 2.2 35.96 0.339 6.63 1.32 12.62
12/18/2020 2:45:00 PM 2.45 36.41 0.383 7.5 1.65 14.3
12/18/2020 3:00:00 PM 2.43 36.374 0.389 7.62 1.68 14.47
12/18/2020 3:15:00 PM 2.37 36.266 0.39 7.63 1.81 14.36
12/18/2020 3:30:00 PM 2.03 35.654 0.339 6.61 1.36 12.6
12/18/2020 3:45:00 PM 2.29 36.122 0.383 7.5 1.67 14.1
12/18/2020 4:00:00 PM 2.31 36.158 0.389 7.61 2 14.39
12/18/2020 4:15:00 PM 1.99 35.582 0.34 6.62 1.39 12.5
12/18/2020 4:30:00 PM 2.22 35.996 0.383 7.48 1.92 13.98
12/18/2020 4:45:00 PM 1.92 35.456 0.34 6.6 1.63 12.4
12/18/2020 5:00:00 PM 2.14 35.852 0.383 7.47 1.78 13.84
12/18/2020 5:15:00 PM 2.13 35.834 0.39 7.58 1.76 13.99
12/18/2020 5:30:00 PM 2.09 35.762 0.391 7.59 1.52 14.04
12/18/2020 5:45:00 PM 1.78 35.204 0.341 6.58 1.16 12.11
12/18/2020 6:00:00 PM 1.99 35.582 0.385 7.44 1.13 13.71
12/18/2020 6:15:00 PM 1.99 35.582 0.39 7.55 1.27 13.89
12/18/2020 6:30:00 PM 1.96 35.528 0.391 7.56 1.08 13.88
12/18/2020 6:45:00 PM 1.93 35.474 0.392 7.56 0.98 13.84
12/18/2020 7:00:00 PM 1.9 35.42 0.392 7.55 0.88 13.72
12/18/2020 7:15:00 PM 1.87 35.366 0.392 7.55 1.06 13.8
12/18/2020 7:30:00 PM 1.84 35.312 0.392 7.55 0.84 13.68
12/18/2020 7:45:00 PM 1.82 35.276 0.392 7.55 0.77 13.69
12/18/2020 8:00:00 PM 1.8 35.24 0.392 7.55 0.8 13.71
12/18/2020 8:15:00 PM 1.75 35.15 0.392 7.55 0.89 13.75
12/18/2020 8:30:00 PM 1.71 35.078 0.392 7.55 0.82 13.76
12/18/2020 8:45:00 PM 1.67 35.006 0.392 7.54 1.05 13.65
12/18/2020 9:00:00 PM 1.63 34.934 0.392 7.54 1.11 13.71
12/18/2020 9:15:00 PM 1.57 34.826 0.393 7.54 1.1 13.75
12/18/2020 9:30:00 PM 1.52 34.736 0.393 7.54 0.93 13.71
12/18/2020 9:45:00 PM 1.47 34.646 0.393 7.53 0.96 13.69
12/18/2020 10:00:00 PM 1.42 34.556 0.393 7.53 0.87 13.7
12/18/2020 10:15:00 PM 1.17 34.106 0.342 6.52 0.72 11.92
12/18/2020 10:30:00 PM 1.28 34.304 0.386 7.39 0.78 13.45
12/18/2020 10:45:00 PM 1.25 34.25 0.392 7.51 0.73 13.58
12/18/2020 11:00:00 PM 1.04 33.872 0.342 6.52 0.45 11.85
12/18/2020 11:15:00 PM 0.99 33.782 0.342 6.52 0.54 11.85
12/18/2020 11:30:00 PM 0.96 33.728 0.342 6.51 0.46 11.89
12/18/2020 11:45:00 PM 1.04 33.872 0.387 7.38 0.54 13.46
12/19/2020 12:00:00 AM 1.01 33.818 0.393 7.49 0.95 13.69
12/19/2020 12:15:00 AM 0.97 33.746 0.394 7.51 0.64 13.72
12/19/2020 12:30:00 AM 0.93 33.674 0.395 7.5 0.72 13.72
12/19/2020 12:45:00 AM 0.89 33.602 0.395 7.5 1.92 13.61
12/19/2020 1:00:00 AM 0.73 33.314 0.344 6.5 0.5 11.93
12/19/2020 1:15:00 AM 0.8 33.44 0.389 7.37 0.72 13.46
12/19/2020 1:30:00 AM 0.66 33.188 0.344 6.5 0.63 11.91
12/19/2020 1:45:00 AM 0.63 33.134 0.345 6.5 0.54 11.93
12/19/2020 2:00:00 AM 0.69 33.242 0.39 7.36 0.65 13.51
12/19/2020 2:15:00 AM 0.67 33.206 0.397 7.47 0.68 13.72
12/19/2020 2:30:00 AM 0.65 33.17 0.398 7.49 0.71 13.72
12/19/2020 2:45:00 AM 0.54 32.972 0.347 6.49 0.52 11.92
12/19/2020 3:00:00 AM 0.59 33.062 0.393 7.35 0.78 13.49
12/19/2020 3:15:00 AM 0.58 33.044 0.4 7.47 0.84 13.69
12/19/2020 3:30:00 AM 0.49 32.882 0.349 6.48 0.52 11.94
12/19/2020 3:45:00 AM 0.55 32.99 0.396 7.34 0.66 13.49
12/19/2020 4:00:00 AM 0.54 32.972 0.403 7.47 0.65 13.66
12/19/2020 4:15:00 AM 0.52 32.936 0.405 7.48 0.52 13.71
12/19/2020 4:30:00 AM 0.52 32.936 0.406 7.47 0.39 13.59
12/19/2020 4:45:00 AM 0.51 32.918 0.407 7.48 0.41 13.7
12/19/2020 5:00:00 AM 0.51 32.918 0.409 7.47 0.29 13.7
12/19/2020 5:15:00 AM 0.44 32.792 0.357 6.48 0.16 11.86
12/19/2020 5:30:00 AM 0.5 32.9 0.404 7.34 0.23 13.43
12/19/2020 5:45:00 AM 0.52 32.936 0.412 7.46 0.16 13.51
12/19/2020 6:00:00 AM 0.52 32.936 0.414 7.47 0.24 13.6
12/19/2020 6:15:00 AM 0.53 32.954 0.416 7.48 0.34 13.49
12/19/2020 6:30:00 AM 0.55 32.99 0.418 7.47 0.35 13.62
12/19/2020 6:45:00 AM 0.49 32.882 0.365 6.47 0.28 11.82
12/19/2020 7:00:00 AM 0.57 33.026 0.414 7.33 0.63 13.23
12/19/2020 7:15:00 AM 0.52 32.936 0.368 6.47 1.73 11.77
12/19/2020 7:30:00 AM 0.61 33.098 0.417 7.33 2.45 13.36
12/19/2020 7:45:00 AM 0.57 33.026 0.37 6.47 0.37 11.74
12/19/2020 8:00:00 AM 0.6 33.08 0.372 6.47 0.66 11.76
12/19/2020 8:15:00 AM 0.72 33.296 0.421 7.34 15.52 13.26
12/19/2020 8:30:00 AM 0.77 33.386 0.428 7.45 3.72 13.51
12/19/2020 8:45:00 AM 0.83 33.494 0.43 7.48 1.77 13.75
12/19/2020 9:00:00 AM 0.91 33.638 0.431 7.49 1.93 13.8
12/19/2020 9:15:00 AM 0.99 33.782 0.431 7.5 2.27 13.76
12/19/2020 9:30:00 AM 1.09 33.962 0.431 7.51 2.6 13.91
12/19/2020 9:45:00 AM 1.04 33.872 0.375 6.52 3.17 12.12
12/19/2020 10:00:00 AM 1.3 34.34 0.424 7.39 2.49 13.83
12/19/2020 10:15:00 AM 1.27 34.286 0.374 6.53 1.91 12.26
12/19/2020 10:30:00 AM 1.57 34.826 0.423 7.41 1.96 13.96
12/19/2020 10:45:00 AM 1.73 35.114 0.429 7.53 1.4 14.24
12/19/2020 11:00:00 AM 1.88 35.384 0.429 7.55 1.14 14.3
12/19/2020 11:15:00 AM 2.03 35.654 0.429 7.55 1.13 14.33
12/19/2020 11:30:00 AM 1.89 35.402 0.372 6.55 0.87 12.44
12/19/2020 11:45:00 AM 2.25 36.05 0.419 7.43 1.11 14.18
12/19/2020 12:00:00 PM 2.36 36.248 0.425 7.55 1.03 14.38
12/19/2020 12:15:00 PM 2.43 36.374 0.424 7.57 0.99 14.46
12/19/2020 12:30:00 PM 2.49 36.482 0.423 7.58 0.8 14.51
12/19/2020 12:45:00 PM 2.18 35.924 0.365 6.57 0.65 12.61
12/19/2020 1:00:00 PM 2.18 35.924 0.364 6.58 0.59 12.59
12/19/2020 1:15:00 PM 2.45 36.41 0.41 7.46 0.91 14.33
12/19/2020 1:30:00 PM 2.44 36.392 0.414 7.58 0.87 14.49
12/19/2020 1:45:00 PM 2.37 36.266 0.412 7.6 1.04 14.64
12/19/2020 2:00:00 PM 2.28 36.104 0.41 7.61 0.89 14.7
12/19/2020 2:15:00 PM 2.17 35.906 0.408 7.62 9.62 14.73
12/19/2020 2:30:00 PM 2.07 35.726 0.406 7.62 4.37 14.72
12/19/2020 2:45:00 PM 1.69 35.042 0.351 6.61 4.89 12.82
12/19/2020 3:00:00 PM 1.82 35.276 0.395 7.49 4.82 14.42
12/19/2020 3:15:00 PM 1.76 35.168 0.4 7.62 2.57 14.78
12/19/2020 3:30:00 PM 1.68 35.024 0.4 7.64 2.37 14.86
12/19/2020 3:45:00 PM 1.59 34.862 0.399 7.64 2.35 14.8
12/19/2020 4:00:00 PM 1.52 34.736 0.398 7.64 3.13 14.8
12/19/2020 4:15:00 PM 1.44 34.592 0.397 7.64 4.62 14.62
12/19/2020 4:30:00 PM 1.37 34.466 0.396 7.63 4.21 14.61
12/19/2020 4:45:00 PM 1.32 34.376 0.396 7.62 7 14.61
12/19/2020 5:00:00 PM 1.27 34.286 0.395 7.61 6.74 14.51
12/19/2020 5:15:00 PM 1.24 34.232 0.395 7.6 3.44 14.46
12/19/2020 5:30:00 PM 1.05 33.89 0.344 6.59 1.41 12.45
12/19/2020 5:45:00 PM 1.17 34.106 0.389 7.45 1.36 14.09
12/19/2020 6:00:00 PM 1.17 34.106 0.395 7.55 1.56 14.26
12/19/2020 6:15:00 PM 1 33.8 0.344 6.56 1.08 12.38
12/19/2020 6:30:00 PM 0.98 33.764 0.344 6.55 1.2 12.33
12/19/2020 6:45:00 PM 1.08 33.944 0.39 7.42 1.16 13.94
12/19/2020 7:00:00 PM 1.07 33.926 0.396 7.53 1.22 14.15
12/19/2020 7:15:00 PM 1.05 33.89 0.398 7.54 1.1 14.12
12/19/2020 7:30:00 PM 0.9 33.62 0.346 6.54 1.15 12.22
12/19/2020 7:45:00 PM 1 33.8 0.392 7.4 1.28 13.88
12/19/2020 8:00:00 PM 0.85 33.53 0.347 6.53 0.99 12.2
12/19/2020 8:15:00 PM 0.97 33.746 0.393 7.4 1.09 13.81
12/19/2020 8:30:00 PM 0.98 33.764 0.399 7.52 1.13 14
12/19/2020 8:45:00 PM 0.99 33.782 0.401 7.53 1.26 14.01
12/19/2020 9:00:00 PM 0.85 33.53 0.349 6.52 0.96 12.14
12/19/2020 9:15:00 PM 0.85 33.53 0.349 6.52 0.91 12.12
12/19/2020 9:30:00 PM 0.97 33.746 0.395 7.38 1.17 13.7
12/19/2020 9:45:00 PM 1.01 33.818 0.402 7.5 1.09 13.84
12/19/2020 10:00:00 PM 0.91 33.638 0.35 6.51 0.93 12.03
12/19/2020 10:15:00 PM 1.04 33.872 0.396 7.38 1.26 13.58
12/19/2020 10:30:00 PM 0.92 33.656 0.351 6.51 1.06 11.97
12/19/2020 10:45:00 PM 1.04 33.872 0.398 7.37 1.17 13.56
12/19/2020 11:00:00 PM 1.06 33.908 0.404 7.49 1.27 13.62
12/19/2020 11:15:00 PM 1.06 33.908 0.406 7.5 1.27 13.65
12/19/2020 11:30:00 PM 0.92 33.656 0.353 6.5 0.89 11.9
12/19/2020 11:45:00 PM 1.05 33.89 0.4 7.37 1.34 13.48
12/20/2020 12:00:00 AM 1.09 33.962 0.407 7.48 1.29 13.68
12/20/2020 12:15:00 AM 1.1 33.98 0.408 7.49 1.17 13.65
12/20/2020 12:30:00 AM 1.13 34.034 0.409 7.49 1.14 13.67
12/20/2020 12:45:00 AM 1.16 34.088 0.409 7.49 1.09 13.68
12/20/2020 1:00:00 AM 1.18 34.124 0.41 7.5 1.01 13.67
12/20/2020 1:15:00 AM 1.21 34.178 0.41 7.49 0.98 13.67
12/20/2020 1:30:00 AM 1.24 34.232 0.411 7.49 1.87 13.64
12/20/2020 1:45:00 AM 1.11 33.998 0.357 6.5 7.11 11.77
12/20/2020 2:00:00 AM 1.27 34.286 0.404 7.36 5.61 13.32
12/20/2020 2:15:00 AM 1.29 34.322 0.41 7.47 2.41 13.53
12/20/2020 2:30:00 AM 1.3 34.34 0.411 7.48 2.39 13.62
12/20/2020 2:45:00 AM 1.12 34.016 0.358 6.49 1.27 11.75
12/20/2020 3:00:00 AM 1.13 34.034 0.359 6.48 1.2 11.71
12/20/2020 3:15:00 AM 1.28 34.304 0.406 7.35 1.4 13.31
12/20/2020 3:30:00 AM 1.14 34.052 0.359 6.48 1.75 11.76
12/20/2020 3:45:00 AM 1.3 34.34 0.406 7.34 1.72 13.29
12/20/2020 4:00:00 AM 1.17 34.106 0.36 6.49 1.26 11.69
12/20/2020 4:15:00 AM 1.33 34.394 0.407 7.35 1.18 13.33
12/20/2020 4:30:00 AM 1.38 34.484 0.413 7.46 1.3 13.45
12/20/2020 4:45:00 AM 1.4 34.52 0.414 7.48 1.22 13.45
12/20/2020 5:00:00 AM 1.42 34.556 0.414 7.48 1.35 13.47
12/20/2020 5:15:00 AM 1.25 34.25 0.361 6.48 1.13 11.73
12/20/2020 5:30:00 AM 1.36 34.448 0.388 6.97 1.09 12.52
12/20/2020 5:45:00 AM 1.29 34.322 0.361 6.48 2.44 11.67
12/20/2020 6:00:00 AM 1.47 34.646 0.408 7.34 1.86 13.21
12/20/2020 6:15:00 AM 1.32 34.376 0.361 6.49 1.37 11.63
12/20/2020 6:30:00 AM 1.33 34.394 0.362 6.49 7.75 11.59
12/20/2020 6:45:00 AM 1.33 34.394 0.362 6.48 1 11.67
12/20/2020 7:00:00 AM 1.34 34.412 0.362 6.49 1.34 11.61
12/20/2020 7:15:00 AM 1.53 34.754 0.409 7.34 2.09 13.04
12/20/2020 7:30:00 AM 1.56 34.808 0.415 7.46 5.13 13.26
12/20/2020 7:45:00 AM 1.58 34.844 0.416 7.47 3.93 13.35
12/20/2020 8:00:00 AM 1.59 34.862 0.416 7.47 6.72 13.34
12/20/2020 8:15:00 AM 1.4 34.52 0.362 6.49 3.04 11.64
12/20/2020 8:30:00 AM 1.61 34.898 0.409 7.35 3.36 13.1
12/20/2020 8:45:00 AM 1.68 35.024 0.415 7.47 2.74 13.48
12/20/2020 9:00:00 AM 1.72 35.096 0.416 7.5 3.11 13.54
12/20/2020 9:15:00 AM 1.78 35.204 0.416 7.51 4 13.58
12/20/2020 9:30:00 AM 1.85 35.33 0.416 7.52 4.17 13.73
12/20/2020 9:45:00 AM 1.67 35.006 0.362 6.53 2.11 12
12/20/2020 10:00:00 AM 2 35.6 0.408 7.41 2.69 13.66
12/20/2020 10:15:00 AM 2.2 35.96 0.414 7.53 5.45 14.01
12/20/2020 10:30:00 AM 2.02 35.636 0.361 6.55 2.7 12.28
12/20/2020 10:45:00 AM 2.39 36.302 0.408 7.44 2.84 13.95
12/20/2020 11:00:00 AM 2.52 36.536 0.414 7.57 3.06 14.17
12/20/2020 11:15:00 AM 2.59 36.662 0.415 7.58 3.09 14.22
12/20/2020 11:30:00 AM 2.7 36.86 0.415 7.59 3.27 14.25
12/20/2020 11:45:00 AM 2.78 37.004 0.415 7.6 2.53 14.28
12/20/2020 12:00:00 PM 2.88 37.184 0.415 7.61 2.45 14.34
12/20/2020 12:15:00 PM 2.97 37.346 0.415 7.61 7.65 14.23
12/20/2020 12:30:00 PM 3.02 37.436 0.414 7.62 4.33 14.2
12/20/2020 12:45:00 PM 3.06 37.508 0.415 7.62 3.35 14.26
12/20/2020 1:00:00 PM 3.09 37.562 0.415 7.63 2.92 14.35
12/20/2020 1:15:00 PM 3.1 37.58 0.414 7.63 3.16 14.32
12/20/2020 1:30:00 PM 3.12 37.616 0.414 7.63 2.38 14.24
12/20/2020 1:45:00 PM 2.72 36.896 0.36 6.62 1.5 12.42
12/20/2020 2:00:00 PM 3.09 37.562 0.407 7.5 2.21 14.09
12/20/2020 2:15:00 PM 3.16 37.688 0.413 7.62 2.24 14.35
12/20/2020 2:30:00 PM 2.77 36.986 0.36 6.62 4.48 12.5
12/20/2020 2:45:00 PM 3.14 37.652 0.406 7.51 3.78 14.13
12/20/2020 3:00:00 PM 3.18 37.724 0.412 7.63 3.35 14.33
12/20/2020 3:15:00 PM 3.15 37.67 0.413 7.64 2.21 14.31
12/20/2020 3:30:00 PM 3.12 37.616 0.413 7.64 2.16 14.29
12/20/2020 3:45:00 PM 2.68 36.824 0.359 6.62 1.73 12.37
12/20/2020 4:00:00 PM 3.02 37.436 0.405 7.5 1.6 13.87
12/20/2020 4:15:00 PM 3.04 37.472 0.412 7.61 1.47 14.13
12/20/2020 4:30:00 PM 3.02 37.436 0.412 7.62 1.64 14.06
12/20/2020 4:45:00 PM 2.59 36.662 0.359 6.6 1.57 12.11
12/20/2020 5:00:00 PM 2.88 37.184 0.405 7.46 1.84 13.57
12/20/2020 5:15:00 PM 2.9 37.22 0.411 7.57 2.18 13.76
12/20/2020 5:30:00 PM 2.87 37.166 0.412 7.58 1.74 13.73
12/20/2020 5:45:00 PM 2.83 37.094 0.412 7.58 1.49 13.69
12/20/2020 6:00:00 PM 2.81 37.058 0.412 7.57 1.47 13.6
12/20/2020 6:15:00 PM 2.82 37.076 0.412 7.57 1.42 13.53
12/20/2020 6:30:00 PM 2.45 36.41 0.358 6.56 1.3 11.7
12/20/2020 6:45:00 PM 2.77 36.986 0.405 7.43 1.51 13.24
12/20/2020 7:00:00 PM 2.47 36.446 0.358 6.56 1.46 11.62
12/20/2020 7:15:00 PM 2.81 37.058 0.404 7.42 1.61 13.14
12/20/2020 7:30:00 PM 2.87 37.166 0.41 7.53 1.66 13.32
12/20/2020 7:45:00 PM 2.9 37.22 0.411 7.55 1.78 13.32
12/20/2020 8:00:00 PM 2.92 37.256 0.411 7.55 1.83 13.25
12/20/2020 8:15:00 PM 2.55 36.59 0.357 6.54 1.81 11.51
12/20/2020 8:30:00 PM 2.89 37.202 0.404 7.4 1.64 13.01
12/20/2020 8:45:00 PM 2.56 36.608 0.357 6.53 1.24 11.5
12/20/2020 9:00:00 PM 2.9 37.22 0.403 7.39 2.07 12.95
12/20/2020 9:15:00 PM 2.56 36.608 0.357 6.52 1.36 11.4
12/20/2020 9:30:00 PM 2.89 37.202 0.403 7.39 1.69 12.87
12/20/2020 9:45:00 PM 2.93 37.274 0.41 7.51 1.72 13.09
12/20/2020 10:00:00 PM 2.92 37.256 0.411 7.52 2.09 13.12
12/20/2020 10:15:00 PM 2.91 37.238 0.411 7.52 1.69 13.09
12/20/2020 10:30:00 PM 2.9 37.22 0.411 7.52 1.56 13.04
12/20/2020 10:45:00 PM 2.89 37.202 0.411 7.51 1.72 13.07
12/20/2020 11:00:00 PM 2.88 37.184 0.411 7.51 1.94 13.06
12/20/2020 11:15:00 PM 2.86 37.148 0.411 7.51 1.96 13.02
12/20/2020 11:30:00 PM 2.85 37.13 0.411 7.51 1.96 12.98
12/20/2020 11:45:00 PM 2.84 37.112 0.411 7.51 1.85 13.02
12/21/2020 12:00:00 AM 2.45 36.41 0.357 6.51 1.22 11.31
12/21/2020 12:15:00 AM 2.77 36.986 0.403 7.37 1.6 12.69
12/21/2020 12:30:00 AM 2.8 37.04 0.41 7.49 1.66 12.95
12/21/2020 12:45:00 AM 2.42 36.356 0.358 6.51 1.48 11.26
12/21/2020 1:00:00 AM 2.73 36.914 0.404 7.37 1.67 12.74
12/21/2020 1:15:00 AM 2.76 36.968 0.41 7.48 1.63 12.94
12/21/2020 1:30:00 AM 2.75 36.95 0.41 7.49 1.66 12.96
12/21/2020 1:45:00 AM 2.74 36.932 0.41 7.49 1.61 12.89
12/21/2020 2:00:00 AM 2.73 36.914 0.41 7.49 1.69 12.94
12/21/2020 2:15:00 AM 2.72 36.896 0.41 7.49 1.67 12.86
12/21/2020 2:30:00 AM 2.71 36.878 0.41 7.49 1.69 12.83
12/21/2020 2:45:00 AM 2.7 36.86 0.41 7.49 1.7 12.85
12/21/2020 3:00:00 AM 2.69 36.842 0.41 7.49 1.72 12.88
12/21/2020 3:15:00 AM 2.69 36.842 0.41 7.49 1.6 12.91
12/21/2020 3:30:00 AM 2.33 36.194 0.356 6.49 1.3 11.24
12/21/2020 3:45:00 AM 2.63 36.734 0.402 7.35 1.57 12.68
12/21/2020 4:00:00 AM 2.67 36.806 0.408 7.46 1.67 12.86
12/21/2020 4:15:00 AM 2.67 36.806 0.409 7.48 1.7 12.91
12/21/2020 4:30:00 AM 2.31 36.158 0.356 6.49 1.36 11.22
12/21/2020 4:45:00 AM 2.61 36.698 0.402 7.35 1.5 12.68
12/21/2020 5:00:00 AM 2.3 36.14 0.355 6.48 1.22 11.24
12/21/2020 5:15:00 AM 2.6 36.68 0.401 7.34 1.46 12.66
12/21/2020 5:30:00 AM 2.3 36.14 0.355 6.48 1.36 11.15
12/21/2020 5:45:00 AM 2.61 36.698 0.401 7.34 1.55 12.65
12/21/2020 6:00:00 AM 2.65 36.77 0.407 7.46 1.42 12.87
12/21/2020 6:15:00 AM 2.65 36.77 0.408 7.47 1.39 12.85
12/21/2020 6:30:00 AM 2.66 36.788 0.408 7.48 1.28 12.77
12/21/2020 6:45:00 AM 2.66 36.788 0.407 7.47 1.23 12.82
12/21/2020 7:00:00 AM 2.66 36.788 0.408 7.47 1.2 12.78
12/21/2020 7:15:00 AM 2.31 36.158 0.354 6.48 0.96 11.15
12/21/2020 7:30:00 AM 2.62 36.716 0.4 7.34 1.34 12.61
12/21/2020 7:45:00 AM 2.67 36.806 0.406 7.46 1.41 12.82
12/21/2020 8:00:00 AM 2.68 36.824 0.407 7.47 1.45 12.79
12/21/2020 8:15:00 AM 2.34 36.212 0.354 6.48 2.47 11.15
12/21/2020 8:30:00 AM 2.67 36.806 0.4 7.35 2.3 12.68
12/21/2020 8:45:00 AM 2.74 36.932 0.405 7.47 2.19 12.99
12/21/2020 9:00:00 AM 2.78 37.004 0.406 7.5 2.16 13.04
12/21/2020 9:15:00 AM 2.45 36.41 0.353 6.51 2.28 11.49
12/21/2020 9:30:00 AM 2.81 37.058 0.399 7.39 2.07 13.06
12/21/2020 9:45:00 AM 2.91 37.238 0.405 7.52 2.12 13.34
12/21/2020 10:00:00 AM 2.97 37.346 0.405 7.54 1.72 13.47
12/21/2020 10:15:00 AM 3.03 37.454 0.405 7.56 1.83 13.56
12/21/2020 10:30:00 AM 3.08 37.544 0.405 7.57 1.87 13.65
12/21/2020 10:45:00 AM 3.15 37.67 0.404 7.58 2.24 13.74
12/21/2020 11:00:00 AM 3.22 37.796 0.404 7.59 2.09 13.79
12/21/2020 11:15:00 AM 3.28 37.904 0.404 7.6 2.52 13.81
12/21/2020 11:30:00 AM 3.36 38.048 0.403 7.6 2.62 13.88
12/21/2020 11:45:00 AM 3.41 38.138 0.403 7.61 2.58 13.88
12/21/2020 12:00:00 PM 3.01 37.418 0.35 6.6 1.89 12.1
12/21/2020 12:15:00 PM 3.45 38.21 0.396 7.48 5.46 13.67
12/21/2020 12:30:00 PM 3.55 38.39 0.402 7.59 2.68 13.84
12/21/2020 12:45:00 PM 3.59 38.462 0.402 7.62 4.54 13.96
12/21/2020 1:00:00 PM 3.62 38.516 0.402 7.63 5.69 13.98
12/21/2020 1:15:00 PM 3.65 38.57 0.402 7.64 2.94 14
12/21/2020 1:30:00 PM 3.66 38.588 0.402 7.64 2.22 14.04
12/21/2020 1:45:00 PM 3.68 38.624 0.402 7.64 2.32 14.02
12/21/2020 2:00:00 PM 3.7 38.66 0.402 7.65 1.83 14.05
12/21/2020 2:15:00 PM 3.71 38.678 0.402 7.65 1.56 14.06
12/21/2020 2:30:00 PM 3.74 38.732 0.402 7.66 1.41 14.11
12/21/2020 2:45:00 PM 3.26 37.868 0.349 6.64 1.24 12.24
12/21/2020 3:00:00 PM 3.7 38.66 0.394 7.53 1.53 13.84
12/21/2020 3:15:00 PM 3.77 38.786 0.4 7.64 1.55 14.03
12/21/2020 3:30:00 PM 3.79 38.822 0.401 7.66 1.6 14
12/21/2020 3:45:00 PM 3.78 38.804 0.401 7.66 1.6 13.87
12/21/2020 4:00:00 PM 3.26 37.868 0.348 6.63 1.37 12.08
12/21/2020 4:15:00 PM 3.68 38.624 0.394 7.51 1.63 13.58
12/21/2020 4:30:00 PM 3.7 38.66 0.4 7.61 1.56 13.71
12/21/2020 4:45:00 PM 3.19 37.742 0.348 6.6 1.35 11.79
12/21/2020 5:00:00 PM 3.59 38.462 0.393 7.47 1.65 13.19
12/21/2020 5:15:00 PM 3.63 38.534 0.399 7.58 1.57 13.39
12/21/2020 5:30:00 PM 3.61 38.498 0.4 7.59 1.61 13.34
12/21/2020 5:45:00 PM 3.6 38.48 0.4 7.58 1.64 13.29
12/21/2020 6:00:00 PM 3.6 38.48 0.4 7.57 1.63 13.2
12/21/2020 6:15:00 PM 3.6 38.48 0.4 7.57 1.65 13.16
12/21/2020 6:30:00 PM 3.61 38.498 0.399 7.56 1.71 13.16
12/21/2020 6:45:00 PM 3.61 38.498 0.399 7.56 1.74 13.09
12/21/2020 7:00:00 PM 3.62 38.516 0.399 7.56 1.66 13.07
12/21/2020 7:15:00 PM 3.63 38.534 0.398 7.56 1.63 13.06
12/21/2020 7:30:00 PM 3.62 38.516 0.397 7.55 1.66 13.01
12/21/2020 7:45:00 PM 3.14 37.652 0.346 6.54 1.11 11.31
12/21/2020 8:00:00 PM 3.55 38.39 0.39 7.41 1.73 12.73
12/21/2020 8:15:00 PM 3.6 38.48 0.396 7.53 1.59 12.99
12/21/2020 8:30:00 PM 3.6 38.48 0.396 7.54 2.08 12.99
12/21/2020 8:45:00 PM 3.59 38.462 0.396 7.54 1.86 12.91
12/21/2020 9:00:00 PM 3.58 38.444 0.396 7.54 1.62 12.87
12/21/2020 9:15:00 PM 3.57 38.426 0.395 7.53 1.52 12.88
12/21/2020 9:30:00 PM 3.56 38.408 0.395 7.53 2.17 12.75
12/21/2020 9:45:00 PM 3.55 38.39 0.394 7.52 2.05 12.69
12/21/2020 10:00:00 PM 3.07 37.526 0.343 6.53 1.55 11.06
12/21/2020 10:15:00 PM 3.46 38.228 0.387 7.39 1.65 12.45
12/21/2020 10:30:00 PM 3.5 38.3 0.392 7.5 1.78 12.6
12/21/2020 10:45:00 PM 3.5 38.3 0.393 7.51 1.79 12.64
12/21/2020 11:00:00 PM 3.49 38.282 0.393 7.51 1.79 12.69
12/21/2020 11:15:00 PM 3.47 38.246 0.393 7.5 3.01 12.69
12/21/2020 11:30:00 PM 3.46 38.228 0.392 7.5 2.19 12.58
12/21/2020 11:45:00 PM 3.45 38.21 0.392 7.5 2.17 12.64
12/22/2020 12:00:00 AM 3.43 38.174 0.391 7.5 1.88 12.66
12/22/2020 12:15:00 AM 3.42 38.156 0.391 7.49 1.79 12.63
12/22/2020 12:30:00 AM 2.95 37.31 0.34 6.49 1.54 10.97
12/22/2020 12:45:00 AM 3.33 37.994 0.384 7.35 1.97 12.38
12/22/2020 1:00:00 AM 3.37 38.066 0.389 7.47 2.11 12.54
12/22/2020 1:15:00 AM 3.37 38.066 0.39 7.48 2.56 12.62
12/22/2020 1:30:00 AM 3.35 38.03 0.39 7.48 2.13 12.56
12/22/2020 1:45:00 AM 3.35 38.03 0.39 7.48 1.71 12.6
12/22/2020 2:00:00 AM 3.34 38.012 0.39 7.48 2.19 12.59
12/22/2020 2:15:00 AM 3.34 38.012 0.39 7.48 1.78 12.61
12/22/2020 2:30:00 AM 2.9 37.22 0.339 6.49 1.49 10.86
12/22/2020 2:45:00 AM 3.28 37.904 0.382 7.35 1.88 12.31
12/22/2020 3:00:00 AM 2.9 37.22 0.338 6.48 1.77 10.92
12/22/2020 3:15:00 AM 3.29 37.922 0.382 7.34 1.81 12.34
12/22/2020 3:30:00 AM 3.34 38.012 0.388 7.46 2.1 12.49
12/22/2020 3:45:00 AM 2.9 37.22 0.338 6.47 1.42 10.86
12/22/2020 4:00:00 AM 3.3 37.94 0.381 7.34 2.04 12.3
12/22/2020 4:15:00 AM 3.35 38.03 0.387 7.46 1.94 12.49
12/22/2020 4:30:00 AM 3.36 38.048 0.387 7.47 1.83 12.49
12/22/2020 4:45:00 AM 3.37 38.066 0.387 7.47 1.92 12.53
12/22/2020 5:00:00 AM 3.37 38.066 0.387 7.47 1.68 12.5
12/22/2020 5:15:00 AM 3.37 38.066 0.386 7.47 1.7 12.51
12/22/2020 5:30:00 AM 3.36 38.048 0.386 7.47 1.8 12.43
12/22/2020 5:45:00 AM 3.35 38.03 0.386 7.47 1.9 12.41
12/22/2020 6:00:00 AM 3.34 38.012 0.386 7.47 1.78 12.39
12/22/2020 6:15:00 AM 3.33 37.994 0.386 7.47 1.64 12.5
12/22/2020 6:30:00 AM 3.33 37.994 0.386 7.47 1.64 12.5
12/22/2020 6:45:00 AM 3.32 37.976 0.385 7.47 1.61 12.51
12/22/2020 7:00:00 AM 3.32 37.976 0.385 7.47 1.82 12.41
12/22/2020 7:15:00 AM 3.32 37.976 0.384 7.47 1.84 12.5
12/22/2020 7:30:00 AM 3.32 37.976 0.384 7.47 2.17 12.49
12/22/2020 7:45:00 AM 3.32 37.976 0.384 7.47 2.08 12.54
12/22/2020 8:00:00 AM 3.34 38.012 0.384 7.47 1.95 12.5
12/22/2020 8:15:00 AM 3.35 38.03 0.384 7.48 1.91 12.56
12/22/2020 8:30:00 AM 3.37 38.066 0.384 7.48 2.08 12.63
12/22/2020 8:45:00 AM 3.4 38.12 0.384 7.49 2.16 12.71
12/22/2020 9:00:00 AM 3.42 38.156 0.383 7.5 2.32 12.82
12/22/2020 9:15:00 AM 3.46 38.228 0.383 7.51 2.26 12.94
12/22/2020 9:30:00 AM 3.04 37.472 0.333 6.52 1.86 11.32
12/22/2020 9:45:00 AM 3.5 38.3 0.376 7.4 2.11 12.87
12/22/2020 10:00:00 AM 3.61 38.498 0.382 7.53 2.2 13.16
12/22/2020 10:15:00 AM 3.67 38.606 0.382 7.55 1.96 13.25
12/22/2020 10:30:00 AM 3.72 38.696 0.383 7.57 2.34 13.27
12/22/2020 10:45:00 AM 3.74 38.732 0.382 7.58 2.57 13.28
12/22/2020 11:00:00 AM 3.81 38.858 0.382 7.58 2.44 13.4
12/22/2020 11:15:00 AM 3.85 38.93 0.382 7.59 2.58 13.47
12/22/2020 11:30:00 AM 3.89 39.002 0.382 7.6 2.59 13.48
12/22/2020 11:45:00 AM 4.04 39.272 0.382 7.6 3.56 13.51
12/22/2020 12:00:00 PM 4.04 39.272 0.382 7.61 3.11 13.39
12/22/2020 12:15:00 PM 4.09 39.362 0.382 7.61 3.41 13.43
12/22/2020 12:30:00 PM 4.1 39.38 0.382 7.61 3.41 13.49
12/22/2020 12:45:00 PM 3.56 38.408 0.332 6.6 2.98 11.71
12/22/2020 1:00:00 PM 4.03 39.254 0.375 7.49 2.71 13.29
12/22/2020 1:15:00 PM 4.14 39.452 0.38 7.61 2.85 13.57
12/22/2020 1:30:00 PM 4.19 39.542 0.381 7.64 3.06 13.66
12/22/2020 1:45:00 PM 4.24 39.632 0.381 7.65 3.22 13.67
12/22/2020 2:00:00 PM 4.27 39.686 0.381 7.65 2.54 13.64
12/22/2020 2:15:00 PM 4.3 39.74 0.38 7.66 2.32 13.75
12/22/2020 2:30:00 PM 4.31 39.758 0.381 7.65 2.33 13.61
12/22/2020 2:45:00 PM 4.33 39.794 0.381 7.65 2.6 13.65
12/22/2020 3:00:00 PM 4.35 39.83 0.38 7.66 2.43 13.59
12/22/2020 3:15:00 PM 4.36 39.848 0.38 7.65 2.33 13.57
12/22/2020 3:30:00 PM 4.36 39.848 0.38 7.64 2.31 13.54
12/22/2020 3:45:00 PM 3.77 38.786 0.331 6.63 2 11.65
12/22/2020 4:00:00 PM 4.24 39.632 0.374 7.5 2.48 13.21
12/22/2020 4:15:00 PM 4.29 39.722 0.379 7.61 2.64 13.32
12/22/2020 4:30:00 PM 4.29 39.722 0.38 7.62 2.69 13.31
12/22/2020 4:45:00 PM 4.3 39.74 0.38 7.61 2.88 13.23
12/22/2020 5:00:00 PM 4.32 39.776 0.38 7.6 3 13.14
12/22/2020 5:15:00 PM 4.34 39.812 0.379 7.59 2.84 13.02
12/22/2020 5:30:00 PM 4.33 39.794 0.379 7.58 2.66 13.04
12/22/2020 5:45:00 PM 4.32 39.776 0.379 7.58 2.91 13.03
12/22/2020 6:00:00 PM 4.31 39.758 0.379 7.58 3.99 12.95
12/22/2020 6:15:00 PM 3.71 38.678 0.329 6.56 2.92 11.21
12/22/2020 6:30:00 PM 4.21 39.578 0.371 7.43 4.35 12.69
12/22/2020 6:45:00 PM 4.25 39.65 0.376 7.55 3.88 12.86
12/22/2020 7:00:00 PM 4.25 39.65 0.377 7.56 3.51 12.85
12/22/2020 7:15:00 PM 4.23 39.614 0.377 7.56 3.41 12.9
12/22/2020 7:30:00 PM 4.2 39.56 0.376 7.56 4.04 12.81
12/22/2020 7:45:00 PM 4.17 39.506 0.376 7.55 4.01 12.8
12/22/2020 8:00:00 PM 4.13 39.434 0.375 7.55 4.17 12.75
12/22/2020 8:15:00 PM 4.11 39.398 0.375 7.55 4.61 12.73
12/22/2020 8:30:00 PM 4.07 39.326 0.375 7.54 4.69 12.7
12/22/2020 8:45:00 PM 4.05 39.29 0.374 7.54 5.51 12.69
12/22/2020 9:00:00 PM 4.02 39.236 0.373 7.53 5.64 12.59
12/22/2020 9:15:00 PM 3.98 39.164 0.373 7.53 6.26 12.6
12/22/2020 9:30:00 PM 3.42 38.156 0.323 6.53 5.06 10.99
12/22/2020 9:45:00 PM 3.84 38.912 0.365 7.39 5.96 12.43
12/22/2020 10:00:00 PM 3.36 38.048 0.322 6.52 5.99 11.01
12/22/2020 10:15:00 PM 3.79 38.822 0.363 7.39 6.84 12.42
12/22/2020 10:30:00 PM 3.82 38.876 0.369 7.5 6.88 12.54
12/22/2020 10:45:00 PM 3.29 37.922 0.32 6.51 6.03 10.94
12/22/2020 11:00:00 PM 3.71 38.678 0.362 7.38 6.96 12.44
12/22/2020 11:15:00 PM 3.75 38.75 0.367 7.49 7.08 12.65
12/22/2020 11:30:00 PM 3.24 37.832 0.319 6.51 6.45 11.03
12/22/2020 11:45:00 PM 3.65 38.57 0.361 7.37 7.57 12.47
12/23/2020 12:00:00 AM 3.69 38.642 0.366 7.49 7.49 12.66
12/23/2020 12:15:00 AM 3.66 38.588 0.366 7.5 8 12.7
12/23/2020 12:30:00 AM 3.15 37.67 0.318 6.5 7.34 11
12/23/2020 12:45:00 AM 3.53 38.354 0.36 7.37 8.42 12.49
12/23/2020 1:00:00 AM 3.56 38.408 0.365 7.48 8.44 12.67
12/23/2020 1:15:00 AM 3.54 38.372 0.366 7.5 8.93 12.62
12/23/2020 1:30:00 AM 3.51 38.318 0.366 7.5 9.19 12.69
12/23/2020 1:45:00 AM 3.48 38.264 0.366 7.5 9.53 12.68
12/23/2020 2:00:00 AM 2.99 37.382 0.318 6.5 9.06 11.04
12/23/2020 2:15:00 AM 3.35 38.03 0.359 7.36 10.39 12.5
12/23/2020 2:30:00 AM 2.92 37.256 0.317 6.49 9.86 11.02
12/23/2020 2:45:00 AM 3.27 37.886 0.358 7.35 11.77 12.47
12/23/2020 3:00:00 AM 3.29 37.922 0.364 7.46 11.92 12.68
12/23/2020 3:15:00 AM 3.25 37.85 0.364 7.47 12.28 12.63
12/23/2020 3:30:00 AM 3.22 37.796 0.363 7.47 12.66 12.7
12/23/2020 3:45:00 AM 2.76 36.968 0.316 6.48 10.16 11.08
12/23/2020 4:00:00 AM 3.09 37.562 0.357 7.34 11.65 12.53
12/23/2020 4:15:00 AM 3.11 37.598 0.362 7.45 11.51 12.73
12/23/2020 4:30:00 AM 3.08 37.544 0.362 7.46 11.47 12.77
12/23/2020 4:45:00 AM 3.05 37.49 0.362 7.47 11.11 12.78
12/23/2020 5:00:00 AM 2.61 36.698 0.314 6.47 9.56 11.11
12/23/2020 5:15:00 AM 2.93 37.274 0.355 7.33 11.33 12.51
12/23/2020 5:30:00 AM 2.95 37.31 0.361 7.44 11.05 12.77
12/23/2020 5:45:00 AM 2.93 37.274 0.362 7.46 11.39 12.83
12/23/2020 6:00:00 AM 2.51 36.518 0.314 6.46 9.39 11.09
12/23/2020 6:15:00 AM 2.81 37.058 0.355 7.32 11.08 12.64
12/23/2020 6:30:00 AM 2.45 36.41 0.314 6.46 9.06 11.18
12/23/2020 6:45:00 AM 2.75 36.95 0.355 7.32 14.78 12.59
12/23/2020 7:00:00 AM 2.77 36.986 0.361 7.43 10.87 12.85
12/23/2020 7:15:00 AM 2.75 36.95 0.361 7.44 10.61 12.84
12/23/2020 7:30:00 AM 2.72 36.896 0.361 7.45 10.88 12.87
12/23/2020 7:45:00 AM 2.69 36.842 0.361 7.45 10.45 12.91
12/23/2020 8:00:00 AM 2.68 36.824 0.361 7.45 10.32 12.93
12/23/2020 8:15:00 AM 2.31 36.158 0.314 6.45 8.52 11.24
12/23/2020 8:30:00 AM 2.62 36.716 0.355 7.32 9.66 12.73
12/23/2020 8:45:00 AM 2.32 36.176 0.315 6.47 8.35 11.39
12/23/2020 9:00:00 AM 2.33 36.194 0.315 6.46 8.18 11.37
12/23/2020 9:15:00 AM 2.66 36.788 0.355 7.33 9.09 12.89
12/23/2020 9:30:00 AM 2.74 36.932 0.361 7.45 9.05 13.23
12/23/2020 9:45:00 AM 2.8 37.04 0.362 7.47 8.72 13.22
12/23/2020 10:00:00 AM 2.86 37.148 0.362 7.48 8.35 13.27
12/23/2020 10:15:00 AM 2.93 37.274 0.363 7.49 8.21 13.36
12/23/2020 10:30:00 AM 3 37.4 0.363 7.49 8.01 13.47
12/23/2020 10:45:00 AM 3.07 37.526 0.363 7.5 7.64 13.52
12/23/2020 11:00:00 AM 3.14 37.652 0.363 7.51 7.45 13.54
12/23/2020 11:15:00 AM 3.22 37.796 0.363 7.51 6.93 13.52
12/23/2020 11:30:00 AM 3.31 37.958 0.363 7.52 6.78 13.64
12/23/2020 11:45:00 AM -99999.99 -179968 -99999.99 -99999.99 -99999.99 -99999.99
12/23/2020 12:00:00 PM 3.48 38.264 0.362 7.57 9.35 13.6
12/23/2020 12:45:00 PM 3.72 38.696 0.368 7.55 6.26 13.78
12/23/2020 1:00:00 PM -99999.99 -179968 -99999.99 -99999.99 -99999.99 -99999.99
12/28/2020 12:45:00 PM -99999.99 -179968 -99999.99 -99999.99 -99999.99 -99999.99
12/28/2020 12:55:00 PM -99999.99 -179968 -99999.99 -99999.99 -99999.99 -99999.99
12/28/2020 1:00:00 PM -99999.99 -179968 -99999.99 -99999.99 -99999.99 -99999.99
12/28/2020 1:05:00 PM -99999.99 -179968 -99999.99 -99999.99 -99999.99 -99999.99
12/28/2020 1:40:00 PM -99999.99 -179968 -99999.99 -99999.99 -99999.99 -99999.99
12/29/2020 10:00:00 AM -99999.99 -179968 -99999.99 -99999.99 -99999.99 -99999.99
12/29/2020 10:45:00 AM -99999.99 -179968 -99999.99 -99999.99 -99999.99 -99999.99
12/29/2020 11:00:00 AM -99999.99 -179968 -99999.99 -99999.99 -99999.99 -99999.99
12/29/2020 1:45:00 PM -99999.99 -179968 -99999.99 -99999.99 -99999.99 -99999.99
12/29/2020 2:00:00 PM 5.84 42.512 0.265 7.32 50.02 12.21
12/29/2020 2:15:00 PM 5.82 42.476 0.346 7.32 1317.76 12.21
12/29/2020 2:30:00 PM 5.8 42.44 0.36 7.32 196.87 12.19
12/29/2020 2:45:00 PM 5.78 42.404 0.37 7.32 8.73 12.24
12/29/2020 3:00:00 PM 5.77 42.386 0.362 7.32 6.95 12.2
12/29/2020 3:15:00 PM 5.75 42.35 0.363 7.32 6.59 12.19
12/29/2020 3:30:00 PM 5.73 42.314 0.363 7.32 6.8 12.22
12/29/2020 3:45:00 PM 5.71 42.278 0.363 7.33 6.11 12.18
12/29/2020 4:00:00 PM 5.67 42.206 0.363 7.32 6.94 12.21
12/29/2020 4:15:00 PM 5.65 42.17 0.364 7.33 6.19 12.2
12/29/2020 4:30:00 PM 5.62 42.116 0.364 7.33 6.2 12.22
12/29/2020 4:45:00 PM 5.59 42.062 0.364 7.33 7.02 12.19
12/29/2020 5:00:00 PM 5.57 42.026 0.364 7.32 5.5 12.19
12/29/2020 5:15:00 PM 5.53 41.954 0.365 7.33 5.69 12.21
12/29/2020 5:30:00 PM 5.51 41.918 0.364 7.34 5.13 12.19
12/29/2020 5:45:00 PM 5.48 41.864 0.365 7.33 5.21 12.2
12/29/2020 6:00:00 PM 5.44 41.792 0.365 7.33 4.95 12.18
12/29/2020 6:15:00 PM 5.42 41.756 0.366 7.33 5.67 12.26
12/29/2020 6:30:00 PM 5.38 41.684 0.365 7.33 5.47 12.23
12/29/2020 6:45:00 PM 5.35 41.63 0.366 7.33 6.12 12.27
12/29/2020 7:00:00 PM 5.32 41.576 0.365 7.32 5.98 12.26
12/29/2020 7:15:00 PM 5.28 41.504 0.366 7.33 5.65 12.25
12/29/2020 7:30:00 PM 5.25 41.45 0.366 7.33 5.7 12.24
12/29/2020 7:45:00 PM 5.22 41.396 0.366 7.32 5.68 12.25
12/29/2020 8:00:00 PM 5.18 41.324 0.366 7.32 5.51 12.26
12/29/2020 8:15:00 PM 5.14 41.252 0.366 7.33 5.56 12.27
12/29/2020 8:30:00 PM 5.1 41.18 0.366 7.33 5.47 12.3
12/29/2020 8:45:00 PM 5.06 41.108 0.366 7.32 5.33 12.32
12/29/2020 9:00:00 PM 5.03 41.054 0.366 7.32 5.42 12.31
12/29/2020 9:15:00 PM 4.98 40.964 0.366 7.33 5.42 12.33
12/29/2020 9:30:00 PM 4.94 40.892 0.367 7.33 5.15 12.34
12/29/2020 9:45:00 PM 4.9 40.82 0.367 7.33 5.56 12.4
12/29/2020 10:00:00 PM 4.87 40.766 0.367 7.33 5.84 12.42
12/29/2020 10:15:00 PM 4.83 40.694 0.368 7.32 5.14 12.39
12/29/2020 10:30:00 PM 4.79 40.622 0.367 7.33 5.17 12.44
12/29/2020 10:45:00 PM 4.74 40.532 0.368 7.33 5.49 12.41
12/29/2020 11:00:00 PM 4.08 39.344 0.32 6.35 3.98 10.79
12/29/2020 11:15:00 PM 4.59 40.262 0.362 7.2 4.79 12.24
12/29/2020 11:30:00 PM 4.65 40.37 0.367 7.32 4.78 12.43
12/29/2020 11:45:00 PM 4.64 40.352 0.368 7.33 4.95 12.42
12/30/2020 12:00:00 AM 4.63 40.334 0.368 7.33 4.92 12.51
12/30/2020 12:15:00 AM 4.62 40.316 0.369 7.32 5.33 12.47
12/30/2020 12:30:00 AM 4.61 40.298 0.368 7.32 4.96 12.5
12/30/2020 12:45:00 AM 4.59 40.262 0.369 7.32 4.86 12.49
12/30/2020 1:00:00 AM 4.57 40.226 0.369 7.33 4.8 12.5
12/30/2020 1:15:00 AM 4.55 40.19 0.369 7.33 4.8 12.51
12/30/2020 1:30:00 AM 4.54 40.172 0.369 7.32 4.82 12.58
12/30/2020 1:45:00 AM 4.53 40.154 0.37 7.33 4.85 12.54
12/30/2020 2:00:00 AM 4.52 40.136 0.37 7.33 4.74 12.45
12/30/2020 2:15:00 AM 4.5 40.1 0.37 7.32 5.06 12.53
12/30/2020 2:30:00 AM 4.49 40.082 0.369 7.33 4.81 12.59
12/30/2020 2:45:00 AM 4.48 40.064 0.369 7.32 4.79 12.56
12/30/2020 3:00:00 AM 4.47 40.046 0.37 7.32 4.72 12.6
12/30/2020 3:15:00 AM 4.48 40.064 0.37 7.33 4.47 12.59
12/30/2020 3:30:00 AM 3.88 38.984 0.322 6.35 3.77 10.88
12/30/2020 3:45:00 AM 4.4 39.92 0.364 7.2 4.38 12.34
12/30/2020 4:00:00 AM 4.47 40.046 0.369 7.31 4.49 12.54
12/30/2020 4:15:00 AM 4.47 40.046 0.371 7.32 4.59 12.61
12/30/2020 4:30:00 AM 4.47 40.046 0.371 7.33 4.56 12.58
12/30/2020 4:45:00 AM 4.46 40.028 0.371 7.33 4.86 12.58
12/30/2020 5:00:00 AM 4.45 40.01 0.371 7.33 4.81 12.65
12/30/2020 5:15:00 AM 4.45 40.01 0.371 7.33 4.61 12.6
12/30/2020 5:30:00 AM 4.45 40.01 0.371 7.32 4.48 12.63
12/30/2020 5:45:00 AM 4.45 40.01 0.372 7.32 4.38 12.62
12/30/2020 6:00:00 AM 3.86 38.948 0.324 6.36 3.77 10.91
12/30/2020 6:15:00 AM 4.36 39.848 0.366 7.19 4.27 12.37
12/30/2020 6:30:00 AM 3.85 38.93 0.324 6.35 3.68 10.91
12/30/2020 6:45:00 AM 4.35 39.83 0.366 7.19 4.27 12.41
12/30/2020 7:00:00 AM 4.41 39.938 0.371 7.31 4.28 12.55
12/30/2020 7:15:00 AM 4.42 39.956 0.372 7.33 4.36 12.59
12/30/2020 7:30:00 AM 4.42 39.956 0.373 7.33 4.61 12.6
12/30/2020 7:45:00 AM 4.41 39.938 0.371 7.33 4.96 12.64
12/30/2020 8:00:00 AM 4.42 39.956 0.371 7.32 4.58 12.66
12/30/2020 8:15:00 AM 4.41 39.938 0.371 7.33 4.47 12.63
12/30/2020 8:30:00 AM 4.4 39.92 0.371 7.32 4.41 12.64
12/30/2020 8:45:00 AM 4.38 39.884 0.371 7.32 4.43 12.65
12/30/2020 9:00:00 AM 4.38 39.884 0.37 7.33 4.19 12.67
12/30/2020 9:15:00 AM 4.39 39.902 0.371 7.34 4.15 12.69
12/30/2020 9:30:00 AM 3.83 38.894 0.323 6.36 3.57 10.98
12/30/2020 9:45:00 AM 4.37 39.866 0.365 7.2 4.06 12.46
12/30/2020 10:00:00 AM 4.47 40.046 0.37 7.32 4.16 12.65
12/30/2020 10:15:00 AM 4.53 40.154 0.371 7.33 3.92 12.68
12/30/2020 10:30:00 AM 4.58 40.244 0.371 7.34 3.79 12.66
12/30/2020 10:45:00 AM 4.65 40.37 0.371 7.34 3.88 12.7
12/30/2020 11:00:00 AM 4.7 40.46 0.371 7.33 3.92 12.7
12/30/2020 11:15:00 AM 4.77 40.586 0.371 7.34 3.81 12.62
12/30/2020 11:30:00 AM 4.85 40.73 0.371 7.34 3.72 12.64
12/30/2020 11:45:00 AM 4.92 40.856 0.371 7.34 3.73 12.59
12/30/2020 12:00:00 PM 4.98 40.964 0.371 7.35 3.53 12.57
12/30/2020 12:15:00 PM 5.04 41.072 0.371 7.35 3.53 12.58
12/30/2020 12:30:00 PM 5.11 41.198 0.372 7.35 3.5 12.56
12/30/2020 12:45:00 PM 5.17 41.306 0.372 7.35 3.46 12.53
12/30/2020 1:00:00 PM 5.21 41.378 0.372 7.35 3.41 12.54
12/30/2020 1:15:00 PM 5.24 41.432 0.372 7.35 3.56 12.52
12/30/2020 1:30:00 PM 4.57 40.226 0.324 6.38 2.99 10.85
12/30/2020 1:45:00 PM 5.18 41.324 0.366 7.21 3.61 12.27
12/30/2020 2:00:00 PM 5.27 41.486 0.371 7.33 3.69 12.44
12/30/2020 2:15:00 PM 5.3 41.54 0.372 7.35 3.56 12.49
12/30/2020 2:30:00 PM 5.32 41.576 0.372 7.35 3.49 12.42
12/30/2020 2:45:00 PM 5.35 41.63 0.372 7.35 3.49 12.4
12/30/2020 3:00:00 PM 5.38 41.684 0.372 7.34 3.47 12.46
12/30/2020 3:15:00 PM 5.4 41.72 0.372 7.35 3.36 12.41
12/30/2020 3:30:00 PM 5.42 41.756 0.372 7.36 3.45 12.45
12/30/2020 3:45:00 PM 5.43 41.774 0.372 7.36 3.58 12.34
12/30/2020 4:00:00 PM 5.44 41.792 0.372 7.36 3.6 12.37
12/30/2020 4:15:00 PM 5.43 41.774 0.372 7.35 3.63 12.32
12/30/2020 4:30:00 PM 5.43 41.774 0.371 7.35 3.52 12.32
12/30/2020 4:45:00 PM 5.42 41.756 0.371 7.34 3.51 12.3
12/30/2020 5:00:00 PM 5.41 41.738 0.371 7.35 3.44 12.27
12/30/2020 5:15:00 PM 5.41 41.738 0.373 7.35 3.6 12.26
12/30/2020 5:30:00 PM 4.69 40.442 0.324 6.37 2.98 10.66
12/30/2020 5:45:00 PM 5.31 41.558 0.365 7.21 3.48 12.07
12/30/2020 6:00:00 PM 5.39 41.702 0.371 7.33 3.63 12.24
12/30/2020 6:15:00 PM 5.39 41.702 0.372 7.35 3.54 12.25
12/30/2020 6:30:00 PM 5.37 41.666 0.372 7.35 3.58 12.23
12/30/2020 6:45:00 PM 5.37 41.666 0.372 7.35 3.59 12.17
12/30/2020 7:00:00 PM 5.36 41.648 0.372 7.36 3.6 12.17
12/30/2020 7:15:00 PM 5.36 41.648 0.372 7.36 3.52 12.22
12/30/2020 7:30:00 PM 5.36 41.648 0.372 7.36 3.6 12.15
12/30/2020 7:45:00 PM 5.36 41.648 0.372 7.35 3.93 12.21
12/30/2020 8:00:00 PM 5.35 41.63 0.372 7.34 3.89 12.18
12/30/2020 8:15:00 PM 5.34 41.612 0.372 7.35 4.02 12.17
12/30/2020 8:30:00 PM 5.34 41.612 0.372 7.35 3.87 12.16
12/30/2020 8:45:00 PM 5.33 41.594 0.372 7.34 3.88 12.12
12/30/2020 9:00:00 PM 5.32 41.576 0.372 7.34 3.92 12.14
12/30/2020 9:15:00 PM 5.32 41.576 0.372 7.35 3.87 12.15
12/30/2020 9:30:00 PM 5.32 41.576 0.372 7.34 3.71 12.12
12/30/2020 9:45:00 PM 5.32 41.576 0.371 7.34 3.83 12.15
12/30/2020 10:00:00 PM 5.31 41.558 0.372 7.34 3.78 12.1
12/30/2020 10:15:00 PM 5.31 41.558 0.372 7.34 3.74 12.12
12/30/2020 10:30:00 PM 5.32 41.576 0.372 7.34 3.83 12.12
12/30/2020 10:45:00 PM 5.33 41.594 0.372 7.34 4.38 12.09
12/30/2020 11:00:00 PM 5.36 41.648 0.372 7.34 3.9 12.06
12/30/2020 11:15:00 PM 5.38 41.684 0.372 7.34 3.83 12.08
12/30/2020 11:30:00 PM 5.4 41.72 0.372 7.34 3.94 12.1
12/30/2020 11:45:00 PM 5.41 41.738 0.372 7.34 3.87 12.08
12/31/2020 12:00:00 AM 5.43 41.774 0.372 7.34 3.65 12.05
12/31/2020 12:15:00 AM 5.43 41.774 0.372 7.34 3.74 12.03
12/31/2020 12:30:00 AM 5.45 41.81 0.372 7.34 3.69 12.03
12/31/2020 12:45:00 AM 5.46 41.828 0.372 7.34 3.59 11.99
12/31/2020 1:00:00 AM 5.48 41.864 0.372 7.34 3.78 12
12/31/2020 1:15:00 AM 5.49 41.882 0.372 7.33 3.74 12.03
12/31/2020 1:30:00 AM 5.51 41.918 0.372 7.34 4.08 12.03
12/31/2020 1:45:00 AM 5.53 41.954 0.372 7.34 3.96 12.02
12/31/2020 2:00:00 AM 5.55 41.99 0.372 7.33 3.95 12
12/31/2020 2:15:00 AM 5.59 42.062 0.372 7.34 3.95 11.97
12/31/2020 2:30:00 AM 5.63 42.134 0.372 7.34 4.02 11.99
12/31/2020 2:45:00 AM 4.91 40.838 0.324 6.37 3.47 10.38
12/31/2020 3:00:00 AM 5.58 42.044 0.365 7.21 4.04 11.75
12/31/2020 3:15:00 AM 5.68 42.224 0.371 7.32 4.13 11.91
12/31/2020 3:30:00 AM 5.71 42.278 0.372 7.34 4.2 11.94
12/31/2020 3:45:00 AM 5.73 42.314 0.372 7.34 4.36 11.96
12/31/2020 4:00:00 AM 5.75 42.35 0.372 7.33 4.08 11.93
12/31/2020 4:15:00 AM 5.77 42.386 0.372 7.33 4.11 11.91
12/31/2020 4:30:00 AM 5.79 42.422 0.372 7.33 4.2 11.91
12/31/2020 4:45:00 AM 5.8 42.44 0.372 7.33 4.27 11.92
12/31/2020 5:00:00 AM 5.04 41.072 0.322 6.36 3.93 10.34
12/31/2020 5:15:00 AM 5.73 42.314 0.365 7.21 4.13 11.69
12/31/2020 5:30:00 AM 5.07 41.126 0.322 6.36 3.72 10.28
12/31/2020 5:45:00 AM 5.76 42.368 0.365 7.2 4.33 11.67
12/31/2020 6:00:00 AM 5.86 42.548 0.37 7.32 4.43 11.88
12/31/2020 6:15:00 AM 5.89 42.602 0.371 7.34 4.49 11.88
12/31/2020 6:30:00 AM 5.91 42.638 0.37 7.34 4.66 11.89
12/31/2020 6:45:00 AM 5.92 42.656 0.371 7.33 4.49 11.87
12/31/2020 7:00:00 AM 5.93 42.674 0.371 7.33 4.4 11.87
12/31/2020 7:15:00 AM 5.94 42.692 0.37 7.34 4.45 11.88
12/31/2020 7:30:00 AM 5.95 42.71 0.37 7.34 4.51 11.84
12/31/2020 7:45:00 AM 5.17 41.306 0.322 6.37 3.84 10.34
12/31/2020 8:00:00 AM 5.86 42.548 0.364 7.21 4.45 11.68
12/31/2020 8:15:00 AM 5.95 42.71 0.369 7.32 4.29 11.81
12/31/2020 8:30:00 AM 5.97 42.746 0.37 7.33 4.42 11.84
12/31/2020 8:45:00 AM 5.99 42.782 0.37 7.34 4.32 11.86
12/31/2020 9:00:00 AM 6 42.8 0.37 7.33 4.13 11.91
12/31/2020 9:15:00 AM 6.01 42.818 0.369 7.34 4.13 11.9
12/31/2020 9:30:00 AM 6.02 42.836 0.369 7.34 4.22 11.87
12/31/2020 9:45:00 AM 6.04 42.872 0.37 7.34 4.25 11.89
12/31/2020 10:00:00 AM 6.04 42.872 0.37 7.34 4.15 11.87
12/31/2020 10:15:00 AM 6.04 42.872 0.369 7.35 4.03 11.87
12/31/2020 10:30:00 AM 6.05 42.89 0.369 7.34 4 11.86
12/31/2020 10:45:00 AM 6.06 42.908 0.369 7.35 3.93 11.9
12/31/2020 11:00:00 AM 6.07 42.926 0.369 7.36 3.69 11.9
12/31/2020 11:15:00 AM 6.09 42.962 0.369 7.35 3.7 11.94
12/31/2020 11:30:00 AM 6.11 42.998 0.369 7.36 3.76 11.91
12/31/2020 11:45:00 AM 6.12 43.016 0.369 7.35 3.86 11.95
12/31/2020 12:00:00 PM 6.14 43.052 0.368 7.35 3.92 11.97
12/31/2020 12:15:00 PM 6.17 43.106 0.369 7.35 3.61 11.97
12/31/2020 12:30:00 PM 6.2 43.16 0.368 7.36 3.65 11.91
12/31/2020 12:45:00 PM 6.22 43.196 0.369 7.36 3.81 11.92
12/31/2020 1:00:00 PM 6.23 43.214 0.368 7.36 3.62 11.96
12/31/2020 1:15:00 PM 6.25 43.25 0.368 7.36 3.66 11.91
12/31/2020 1:30:00 PM 5.42 41.756 0.32 6.38 3.11 10.32
12/31/2020 1:45:00 PM 6.15 43.07 0.361 7.23 3.91 11.73
12/31/2020 2:00:00 PM 6.25 43.25 0.367 7.35 4.07 11.92
12/31/2020 2:15:00 PM 6.28 43.304 0.368 7.36 3.8 11.82
12/31/2020 2:30:00 PM 6.3 43.34 0.365 7.37 18.56 11.91
12/31/2020 2:45:00 PM 6.31 43.358 0.368 7.37 5.64 11.88
12/31/2020 3:00:00 PM 5.49 41.882 0.32 6.39 3.2 10.32
12/31/2020 3:15:00 PM 6.22 43.196 0.362 7.24 3.74 11.68
12/31/2020 3:30:00 PM 6.31 43.358 0.367 7.36 3.78 11.84
12/31/2020 3:45:00 PM 6.33 43.394 0.368 7.37 3.87 11.87
12/31/2020 4:00:00 PM 6.33 43.394 0.368 7.37 3.81 11.95
12/31/2020 4:15:00 PM 6.34 43.412 0.368 7.37 3.79 11.83
12/31/2020 4:30:00 PM 6.34 43.412 0.368 7.37 3.73 11.85
12/31/2020 4:45:00 PM 6.35 43.43 0.368 7.37 3.75 11.87
12/31/2020 5:00:00 PM 6.35 43.43 0.368 7.36 3.91 11.89
12/31/2020 5:15:00 PM 6.34 43.412 0.368 7.37 3.71 11.87
12/31/2020 5:30:00 PM 6.34 43.412 0.368 7.36 3.64 11.85
12/31/2020 5:45:00 PM 6.34 43.412 0.368 7.37 3.54 11.88
12/31/2020 6:00:00 PM 6.34 43.412 0.368 7.37 3.53 11.84
12/31/2020 6:15:00 PM 6.34 43.412 0.368 7.37 4.23 11.85
12/31/2020 6:30:00 PM 6.34 43.412 0.367 7.36 308.56 11.86
12/31/2020 6:45:00 PM 6.34 43.412 0.367 7.36 45.63 11.84
12/31/2020 7:00:00 PM 6.34 43.412 0.367 7.37 9.33 11.81
12/31/2020 7:15:00 PM 6.33 43.394 0.368 7.36 4.67 11.8
12/31/2020 7:30:00 PM 6.32 43.376 0.368 7.36 4.07 11.81
12/31/2020 7:45:00 PM 6.29 43.322 0.368 7.36 3.91 11.82
12/31/2020 8:00:00 PM 6.26 43.268 0.368 7.35 4.07 11.87
12/31/2020 8:15:00 PM 6.23 43.214 0.368 7.36 4.04 11.83
12/31/2020 8:30:00 PM 6.19 43.142 0.368 7.36 4.07 11.86
12/31/2020 8:45:00 PM 6.17 43.106 0.369 7.36 4.04 11.84
12/31/2020 9:00:00 PM 6.15 43.07 0.369 7.36 4.04 11.85
12/31/2020 9:15:00 PM 6.12 43.016 0.369 7.36 4.18 11.79
12/31/2020 9:30:00 PM 6.09 42.962 0.369 7.35 3.98 11.86
12/31/2020 9:45:00 PM 6.06 42.908 0.369 7.36 3.99 11.89
12/31/2020 10:00:00 PM 6.03 42.854 0.369 7.36 3.93 11.86
12/31/2020 10:15:00 PM 6 42.8 0.369 7.36 4.04 11.9
12/31/2020 10:30:00 PM 5.97 42.746 0.369 7.36 3.91 11.91
12/31/2020 10:45:00 PM 5.94 42.692 0.369 7.36 3.81 11.93
12/31/2020 11:00:00 PM 5.91 42.638 0.369 7.35 3.79 11.9
12/31/2020 11:15:00 PM 5.87 42.566 0.37 7.35 3.79 11.93
12/31/2020 11:30:00 PM 5.83 42.494 0.369 7.36 3.74 11.95
12/31/2020 11:45:00 PM 5.79 42.422 0.37 7.35 3.76 11.9
1/1/2021 12:00:00 AM 5.75 42.35 0.37 7.36 3.8 11.9
1/1/2021 12:15:00 AM 5.72 42.296 0.37 7.35 3.91 11.96
1/1/2021 12:30:00 AM 4.92 40.856 0.322 6.38 3.03 10.38
1/1/2021 12:45:00 AM 5.54 41.972 0.364 7.22 3.48 11.79
1/1/2021 1:00:00 AM 5.59 42.062 0.37 7.34 3.69 11.94
1/1/2021 1:15:00 AM 5.57 42.026 0.371 7.36 3.53 11.99
1/1/2021 1:30:00 AM 5.53 41.954 0.371 7.36 3.66 12.03
1/1/2021 1:45:00 AM 5.48 41.864 0.371 7.37 3.58 12.01
1/1/2021 2:00:00 AM 5.44 41.792 0.371 7.37 3.53 12.07
1/1/2021 2:15:00 AM 5.4 41.72 0.371 7.36 3.55 12.09
1/1/2021 2:30:00 AM 5.36 41.648 0.371 7.36 3.53 12.13
1/1/2021 2:45:00 AM 5.33 41.594 0.372 7.35 3.57 12.12
1/1/2021 3:00:00 AM 5.29 41.522 0.372 7.36 3.78 12.02
1/1/2021 3:15:00 AM 5.25 41.45 0.372 7.36 3.64 12.12
1/1/2021 3:30:00 AM 5.21 41.378 0.373 7.36 3.77 12.12
1/1/2021 3:45:00 AM 5.17 41.306 0.373 7.35 3.78 12.19
1/1/2021 4:00:00 AM 4.45 40.01 0.324 6.37 3.27 10.55
1/1/2021 4:15:00 AM 5 41 0.367 7.23 3.88 11.99
1/1/2021 4:30:00 AM 5.04 41.072 0.372 7.35 4.11 12.17
1/1/2021 4:45:00 AM 5.01 41.018 0.374 7.36 4.04 12.18
1/1/2021 5:00:00 AM 4.97 40.946 0.374 7.36 3.94 12.21
1/1/2021 5:15:00 AM 4.92 40.856 0.374 7.36 4.03 12.31
1/1/2021 5:30:00 AM 4.89 40.802 0.374 7.36 4.01 12.35
1/1/2021 5:45:00 AM 4.85 40.73 0.374 7.36 3.93 12.38
1/1/2021 6:00:00 AM 4.81 40.658 0.374 7.36 3.9 12.38
1/1/2021 6:15:00 AM 4.76 40.568 0.374 7.35 3.92 12.39
1/1/2021 6:30:00 AM 4.73 40.514 0.375 7.36 3.89 12.36
1/1/2021 6:45:00 AM 4.7 40.46 0.375 7.36 3.93 12.44
1/1/2021 7:00:00 AM 4.67 40.406 0.375 7.35 3.86 12.43
1/1/2021 7:15:00 AM 4.64 40.352 0.375 7.35 3.94 12.4
1/1/2021 7:30:00 AM 4.61 40.298 0.375 7.35 4.13 12.51
1/1/2021 7:45:00 AM 3.98 39.164 0.326 6.37 3.38 10.8
1/1/2021 8:00:00 AM 4.49 40.082 0.369 7.22 3.88 12.26
1/1/2021 8:15:00 AM 4.56 40.208 0.374 7.33 3.71 12.51
1/1/2021 8:30:00 AM 3.97 39.146 0.326 6.38 3.17 10.84
1/1/2021 8:45:00 AM 3.98 39.164 0.326 6.38 3.32 10.8
1/1/2021 9:00:00 AM 3.99 39.182 0.327 6.38 3.06 10.89
1/1/2021 9:15:00 AM 4.54 40.172 0.369 7.23 3.37 12.34
1/1/2021 9:30:00 AM 4.62 40.316 0.375 7.35 3.34 12.58
1/1/2021 9:45:00 AM 4.65 40.37 0.376 7.36 3.32 12.61
1/1/2021 10:00:00 AM 4.67 40.406 0.376 7.36 3.48 12.46
1/1/2021 10:15:00 AM 4.7 40.46 0.376 7.36 3.36 12.56
1/1/2021 10:30:00 AM 4.72 40.496 0.376 7.37 3.44 12.61
1/1/2021 10:45:00 AM 4.73 40.514 0.376 7.37 3.51 12.58
1/1/2021 11:00:00 AM 4.74 40.532 0.377 7.36 3.24 12.66
1/1/2021 11:15:00 AM 4.77 40.586 0.377 7.36 3.61 12.52
1/1/2021 11:30:00 AM 4.79 40.622 0.377 7.37 3.83 12.57
1/1/2021 11:45:00 AM 4.81 40.658 0.377 7.38 3.81 12.59
1/1/2021 12:00:00 PM 4.82 40.676 0.377 7.38 3.81 12.58
1/1/2021 12:15:00 PM 4.82 40.676 0.377 7.37 3.71 12.55
1/1/2021 12:30:00 PM 4.84 40.712 0.377 7.37 3.71 12.56
1/1/2021 12:45:00 PM 4.85 40.73 0.377 7.37 3.56 12.57
1/1/2021 1:00:00 PM 4.21 39.578 0.327 6.38 3.17 10.9
1/1/2021 1:15:00 PM 4.76 40.568 0.37 7.24 3.55 12.37
1/1/2021 1:30:00 PM 4.85 40.73 0.375 7.35 3.58 12.58
1/1/2021 1:45:00 PM 4.87 40.766 0.376 7.37 3.41 12.58
1/1/2021 2:00:00 PM 4.25 39.65 0.327 6.4 2.89 10.91
1/1/2021 2:15:00 PM 4.82 40.676 0.37 7.24 3.35 12.29
1/1/2021 2:30:00 PM 4.91 40.838 0.376 7.36 3.29 12.49
1/1/2021 2:45:00 PM 4.93 40.874 0.376 7.37 3.31 12.51
1/1/2021 3:00:00 PM 4.93 40.874 0.376 7.38 3.39 12.48
1/1/2021 3:15:00 PM 4.92 40.856 0.376 7.38 3.39 12.57
1/1/2021 3:30:00 PM 4.91 40.838 0.375 7.37 3.53 12.47
1/1/2021 3:45:00 PM 4.89 40.802 0.374 7.37 3.68 12.49
1/1/2021 4:00:00 PM 4.88 40.784 0.374 7.37 4.01 12.57
1/1/2021 4:15:00 PM 4.88 40.784 0.374 7.37 4.03 12.51
1/1/2021 4:30:00 PM 4.88 40.784 0.373 7.37 4.19 12.51
1/1/2021 4:45:00 PM 4.87 40.766 0.373 7.37 4.29 12.49
1/1/2021 5:00:00 PM 4.87 40.766 0.372 7.37 4.56 12.46
1/1/2021 5:15:00 PM 4.85 40.73 0.371 7.37 4.81 12.51
1/1/2021 5:30:00 PM 4.84 40.712 0.371 7.37 4.72 12.51
1/1/2021 5:45:00 PM 4.83 40.694 0.369 7.37 4.83 12.46
1/1/2021 6:00:00 PM 4.83 40.694 0.369 7.37 4.74 12.45
1/1/2021 6:15:00 PM 4.82 40.676 0.368 7.37 4.52 12.51
1/1/2021 6:30:00 PM 4.8 40.64 0.367 7.37 5.1 12.49
1/1/2021 6:45:00 PM 4.78 40.604 0.365 7.37 5.72 12.51
1/1/2021 7:00:00 PM 4.77 40.586 0.364 7.37 6.26 12.51
1/1/2021 7:15:00 PM 4.75 40.55 0.362 7.37 6.63 12.49
1/1/2021 7:30:00 PM 4.73 40.514 0.361 7.37 7.06 12.52
1/1/2021 7:45:00 PM 4.71 40.478 0.359 7.36 7.5 12.5
1/1/2021 8:00:00 PM 4.68 40.424 0.357 7.37 9.05 12.47
1/1/2021 8:15:00 PM 4.64 40.352 0.354 7.37 10.56 12.49
1/1/2021 8:30:00 PM 4.61 40.298 0.352 7.37 11.89 12.61
1/1/2021 8:45:00 PM 4.56 40.208 0.349 7.37 12.74 12.63
1/1/2021 9:00:00 PM 4.53 40.154 0.347 7.36 15.2 12.59
1/1/2021 9:15:00 PM 4.5 40.1 0.345 7.36 16.53 12.6
1/1/2021 9:30:00 PM 4.46 40.028 0.342 7.37 18.88 12.65
1/1/2021 9:45:00 PM 4.42 39.956 0.339 7.36 22.46 12.64
1/1/2021 10:00:00 PM 4.38 39.884 0.336 7.36 28.18 12.65
1/1/2021 10:15:00 PM 4.32 39.776 0.331 7.36 33.13 12.74
1/1/2021 10:30:00 PM 4.25 39.65 0.327 7.35 39.41 12.71
1/1/2021 10:45:00 PM 4.18 39.524 0.322 7.35 44.88 12.72
1/1/2021 11:00:00 PM 3.55 38.39 0.276 6.37 46.18 11.05
1/1/2021 11:15:00 PM 3.97 39.146 0.306 7.22 60.32 12.59
1/1/2021 11:30:00 PM 3.45 38.21 0.266 6.37 61.46 11.15
1/1/2021 11:45:00 PM 3.86 38.948 0.298 7.22 73.43 12.58
1/2/2021 12:00:00 AM 3.37 38.066 0.103 6.37 69.17 11.13
1/2/2021 12:15:00 AM 3.78 38.804 0.263 7.21 85.61 12.57
1/2/2021 12:30:00 AM 3.81 38.858 0.288 7.31 89.98 12.84
1/2/2021 12:45:00 AM 3.78 38.804 0.286 7.33 96.54 12.87
1/2/2021 1:00:00 AM 3.74 38.732 0.278 7.32 104.91 12.86
1/2/2021 1:15:00 AM 3.7 38.66 0.278 7.31 116.79 12.89
1/2/2021 1:30:00 AM 3.18 37.724 0.232 6.32 108.51 11.17
1/2/2021 1:45:00 AM 3.17 37.706 0.224 6.33 109.61 11.23
1/2/2021 2:00:00 AM 3.59 38.462 0.251 7.16 123.57 12.68
1/2/2021 2:15:00 AM 3.66 38.588 0.247 7.25 144.25 12.86
1/2/2021 2:30:00 AM 3.68 38.624 0.26 7.28 121.09 12.97
1/2/2021 2:45:00 AM 3.69 38.642 0.26 7.27 133.12 12.88
1/2/2021 3:00:00 AM 3.7 38.66 0.258 7.24 111.96 12.89
1/2/2021 3:15:00 AM 3.7 38.66 0.256 7.26 106.53 12.86
1/2/2021 3:30:00 AM 3.71 38.678 0.255 7.25 107.18 12.82
1/2/2021 3:45:00 AM 3.72 38.696 0.254 7.25 102.65 12.81
1/2/2021 4:00:00 AM 3.73 38.714 0.253 7.24 100.96 12.85
1/2/2021 4:15:00 AM 3.75 38.75 0.17 7.26 98.21 12.79
1/2/2021 4:30:00 AM 3.77 38.786 0.24 7.24 101.41 12.78
1/2/2021 4:45:00 AM 3.3 37.94 0.219 6.29 86.4 11.08
1/2/2021 5:00:00 AM 3.76 38.768 0.249 7.12 86.08 12.53
1/2/2021 5:15:00 AM 3.84 38.912 0.254 7.23 82.4 12.7
1/2/2021 5:30:00 AM 3.87 38.966 0.255 7.25 80.6 12.72
1/2/2021 5:45:00 AM 3.9 39.02 0.256 7.24 77.52 12.72
1/2/2021 6:00:00 AM 3.92 39.056 0.257 7.24 79.01 12.7
1/2/2021 6:15:00 AM 3.94 39.092 0.257 7.24 71.83 12.7
1/2/2021 6:30:00 AM 3.97 39.146 0.249 7.25 70.64 12.62
1/2/2021 6:45:00 AM 3.99 39.182 0.258 7.23 66.62 12.6
1/2/2021 7:00:00 AM 4.02 39.236 0.26 7.24 65.76 12.67
1/2/2021 7:15:00 AM 4.04 39.272 0.262 7.24 63.57 12.62
1/2/2021 7:30:00 AM 4.07 39.326 0.263 7.23 61.13 12.65
1/2/2021 7:45:00 AM 4.1 39.38 0.265 7.23 59.38 12.62
1/2/2021 8:00:00 AM 4.12 39.416 0.267 7.24 57.07 12.58
1/2/2021 8:15:00 AM 4.16 39.488 0.269 7.23 54.04 12.62
1/2/2021 8:30:00 AM 4.2 39.56 0.272 7.23 51.69 12.54
1/2/2021 8:45:00 AM 4.25 39.65 0.274 7.24 50.57 12.52
1/2/2021 9:00:00 AM 4.29 39.722 0.277 7.23 49.06 12.53
1/2/2021 9:15:00 AM 3.77 38.786 0.244 6.28 40.15 10.83
1/2/2021 9:30:00 AM 4.3 39.74 0.277 7.11 44.84 12.31
1/2/2021 9:45:00 AM 3.84 38.912 0.248 6.28 37.4 10.83
1/2/2021 10:00:00 AM 4.38 39.884 0.283 7.11 41.01 12.23
1/2/2021 10:15:00 AM 4.48 40.064 0.289 7.23 39.99 12.42
1/2/2021 10:30:00 AM 4.53 40.154 0.292 7.25 38.36 12.41
1/2/2021 10:45:00 AM 4.6 40.28 0.294 7.25 37.42 12.38
1/2/2021 11:00:00 AM 4.65 40.37 0.297 7.25 37.09 12.38
1/2/2021 11:15:00 AM 4.71 40.478 0.299 7.25 35.45 12.37
1/2/2021 11:30:00 AM 4.14 39.452 0.261 6.28 29.84 10.72
1/2/2021 11:45:00 AM 4.77 40.586 0.294 7.12 33.27 12.11
1/2/2021 12:00:00 PM 4.93 40.874 0.303 7.24 33.04 12.27
1/2/2021 12:15:00 PM 5.03 41.054 0.306 7.25 32.04 12.27
1/2/2021 12:30:00 PM 4.43 39.974 0.268 6.3 27.12 10.68
1/2/2021 12:45:00 PM 5.07 41.126 0.303 7.13 29.56 12.02
1/2/2021 1:00:00 PM -99999.99 -179968 -99999.99 -99999.99 -99999.99 -99999.99
1/2/2021 1:15:00 PM 5.37 41.666 0.312 7.29 30.7 12.17
1/2/2021 1:30:00 PM 5.43 41.774 0.312 7.28 29.77 12.18
1/2/2021 1:45:00 PM 5.47 41.846 0.313 7.28 28.52 12.17
1/2/2021 2:00:00 PM 5.52 41.936 0.315 7.28 27.5 12.15
1/2/2021 2:15:00 PM 5.59 42.062 0.315 7.28 26.16 12.14
1/2/2021 2:30:00 PM 5.66 42.188 0.316 7.28 25.86 12.13
1/2/2021 2:45:00 PM 5.73 42.314 0.317 7.29 24.52 12.08
1/2/2021 3:00:00 PM -99999.99 -179968 -99999.99 -99999.99 -99999.99 -99999.99
1/2/2021 3:15:00 PM -99999.99 -179968 -99999.99 -99999.99 -99999.99 -99999.99
1/2/2021 3:30:00 PM -99999.99 -179968 -99999.99 -99999.99 -99999.99 -99999.99
1/2/2021 3:45:00 PM -99999.99 -179968 -99999.99 -99999.99 -99999.99 -99999.99
1/2/2021 4:00:00 PM -99999.99 -179968 -99999.99 -99999.99 -99999.99 -99999.99
1/2/2021 4:45:00 PM -99999.99 -179968 -99999.99 -99999.99 -99999.99 -99999.99
1/2/2021 5:00:00 PM -99999.99 -179968 -99999.99 -99999.99 -99999.99 -99999.99
1/2/2021 5:15:00 PM -99999.99 -179968 -99999.99 -99999.99 -99999.99 -99999.99
1/2/2021 5:30:00 PM -99999.99 -179968 -99999.99 -99999.99 -99999.99 -99999.99
1/2/2021 5:45:00 PM -99999.99 -179968 -99999.99 -99999.99 -99999.99 -99999.99
1/2/2021 6:00:00 PM -99999.99 -179968 -99999.99 -99999.99 -99999.99 -99999.99
1/2/2021 6:15:00 PM -99999.99 -179968 -99999.99 -99999.99 -99999.99 -99999.99
1/2/2021 6:30:00 PM -99999.99 -179968 -99999.99 -99999.99 -99999.99 -99999.99
1/2/2021 6:45:00 PM -99999.99 -179968 -99999.99 -99999.99 -99999.99 -99999.99
1/2/2021 7:00:00 PM -99999.99 -179968 -99999.99 -99999.99 -99999.99 -99999.99
1/2/2021 7:15:00 PM -99999.99 -179968 -99999.99 -99999.99 -99999.99 -99999.99
1/2/2021 7:30:00 PM -99999.99 -179968 -99999.99 -99999.99 -99999.99 -99999.99
1/2/2021 7:45:00 PM -99999.99 -179968 -99999.99 -99999.99 -99999.99 -99999.99
1/2/2021 8:00:00 PM -99999.99 -179968 -99999.99 -99999.99 -99999.99 -99999.99
1/2/2021 8:15:00 PM -99999.99 -179968 -99999.99 -99999.99 -99999.99 -99999.99
1/2/2021 8:30:00 PM -99999.99 -179968 -99999.99 -99999.99 -99999.99 -99999.99
1/2/2021 8:45:00 PM -99999.99 -179968 -99999.99 -99999.99 -99999.99 -99999.99
1/2/2021 9:00:00 PM -99999.99 -179968 -99999.99 -99999.99 -99999.99 -99999.99
1/2/2021 9:15:00 PM -99999.99 -179968 -99999.99 -99999.99 -99999.99 -99999.99
1/2/2021 9:30:00 PM -99999.99 -179968 -99999.99 -99999.99 -99999.99 -99999.99
1/2/2021 9:45:00 PM -99999.99 -179968 -99999.99 -99999.99 -99999.99 -99999.99
1/2/2021 10:00:00 PM -99999.99 -179968 -99999.99 -99999.99 -99999.99 -99999.99
1/2/2021 10:15:00 PM -99999.99 -179968 -99999.99 -99999.99 -99999.99 -99999.99
1/2/2021 10:30:00 PM -99999.99 -179968 -99999.99 -99999.99 -99999.99 -99999.99
1/2/2021 10:45:00 PM -99999.99 -179968 -99999.99 -99999.99 -99999.99 -99999.99
1/2/2021 11:00:00 PM -99999.99 -179968 -99999.99 -99999.99 -99999.99 -99999.99
1/2/2021 11:15:00 PM -99999.99 -179968 -99999.99 -99999.99 -99999.99 -99999.99
1/2/2021 11:30:00 PM -99999.99 -179968 -99999.99 -99999.99 -99999.99 -99999.99
1/2/2021 11:45:00 PM -99999.99 -179968 -99999.99 -99999.99 -99999.99 -99999.99
1/3/2021 12:00:00 AM -99999.99 -179968 -99999.99 -99999.99 -99999.99 -99999.99
1/3/2021 12:15:00 AM -99999.99 -179968 -99999.99 -99999.99 -99999.99 -99999.99
1/3/2021 12:30:00 AM -99999.99 -179968 -99999.99 -99999.99 -99999.99 -99999.99
1/3/2021 12:45:00 AM -99999.99 -179968 -99999.99 -99999.99 -99999.99 -99999.99
1/3/2021 1:00:00 AM -99999.99 -179968 -99999.99 -99999.99 -99999.99 -99999.99
1/3/2021 1:15:00 AM -99999.99 -179968 -99999.99 -99999.99 -99999.99 -99999.99
1/3/2021 1:30:00 AM -99999.99 -179968 -99999.99 -99999.99 -99999.99 -99999.99
1/3/2021 1:45:00 AM -99999.99 -179968 -99999.99 -99999.99 -99999.99 -99999.99
1/3/2021 2:00:00 AM -99999.99 -179968 -99999.99 -99999.99 -99999.99 -99999.99
1/3/2021 2:15:00 AM -99999.99 -179968 -99999.99 -99999.99 -99999.99 -99999.99
1/3/2021 2:30:00 AM -99999.99 -179968 -99999.99 -99999.99 -99999.99 -99999.99
1/3/2021 2:45:00 AM -99999.99 -179968 -99999.99 -99999.99 -99999.99 -99999.99
1/3/2021 3:00:00 AM -99999.99 -179968 -99999.99 -99999.99 -99999.99 -99999.99
1/3/2021 3:15:00 AM -99999.99 -179968 -99999.99 -99999.99 -99999.99 -99999.99
1/3/2021 3:30:00 AM -99999.99 -179968 -99999.99 -99999.99 -99999.99 -99999.99
1/3/2021 3:45:00 AM -99999.99 -179968 -99999.99 -99999.99 -99999.99 -99999.99
1/3/2021 4:00:00 AM -99999.99 -179968 -99999.99 -99999.99 -99999.99 -99999.99
1/3/2021 4:15:00 AM -99999.99 -179968 -99999.99 -99999.99 -99999.99 -99999.99
1/3/2021 4:30:00 AM -99999.99 -179968 -99999.99 -99999.99 -99999.99 -99999.99
1/3/2021 4:45:00 AM -99999.99 -179968 -99999.99 -99999.99 -99999.99 -99999.99
1/3/2021 5:00:00 AM -99999.99 -179968 -99999.99 -99999.99 -99999.99 -99999.99
1/3/2021 5:15:00 AM -99999.99 -179968 -99999.99 -99999.99 -99999.99 -99999.99
1/3/2021 5:30:00 AM -99999.99 -179968 -99999.99 -99999.99 -99999.99 -99999.99
1/3/2021 5:45:00 AM -99999.99 -179968 -99999.99 -99999.99 -99999.99 -99999.99
1/3/2021 6:00:00 AM -99999.99 -179968 -99999.99 -99999.99 -99999.99 -99999.99
1/3/2021 6:15:00 AM -99999.99 -179968 -99999.99 -99999.99 -99999.99 -99999.99
1/3/2021 6:30:00 AM -99999.99 -179968 -99999.99 -99999.99 -99999.99 -99999.99
1/3/2021 6:45:00 AM -99999.99 -179968 -99999.99 -99999.99 -99999.99 -99999.99
1/3/2021 7:00:00 AM -99999.99 -179968 -99999.99 -99999.99 -99999.99 -99999.99
1/3/2021 7:15:00 AM -99999.99 -179968 -99999.99 -99999.99 -99999.99 -99999.99
1/3/2021 7:30:00 AM -99999.99 -179968 -99999.99 -99999.99 -99999.99 -99999.99
1/3/2021 7:45:00 AM -99999.99 -179968 -99999.99 -99999.99 -99999.99 -99999.99
1/3/2021 8:00